Provisional Data: Grays Run near Gray, PA


Please select a monitoring station.
Please select start date.
Please select start date.

Toggle Unit: C/F Toggle Unit: C/F
Sample Time Temperature (C) Temperature (F) Specific Conductivity (mS/cm) pH   Turbidity (NTU+) DO (mg/L)
10/17/2022 12:00:00 AM 10.19 50.342 1.027 6.57 3.37 10.63
10/17/2022 12:15:00 AM 10.15 50.27 1.033 6.57 3.41 10.64
10/17/2022 12:30:00 AM 10.11 50.198 1.029 6.58 3.41 10.64
10/17/2022 12:45:00 AM 10.08 50.144 1.029 6.58 3.48 10.66
10/17/2022 1:00:00 AM 10.04 50.072 1.03 6.57 3.41 10.66
10/17/2022 1:15:00 AM 10 50 1.03 6.57 3.37 10.67
10/17/2022 1:30:00 AM 9.97 49.946 1.027 6.57 3.4 10.68
10/17/2022 1:45:00 AM 9.93 49.874 1.022 6.57 3.31 10.68
10/17/2022 2:00:00 AM 9.9 49.82 1.017 6.57 3.33 10.69
10/17/2022 2:15:00 AM 9.87 49.766 0.964 6.57 3.32 10.7
10/17/2022 2:30:00 AM 9.84 49.712 1.008 6.56 3.3 10.7
10/17/2022 2:45:00 AM 9.81 49.658 1.011 6.56 3.3 10.72
10/17/2022 3:00:00 AM 9.78 49.604 1.014 6.56 3.3 10.71
10/17/2022 3:15:00 AM 9.74 49.532 1.018 6.56 3.27 10.73
10/17/2022 3:30:00 AM 9.72 49.496 1.023 6.55 3.27 10.73
10/17/2022 3:45:00 AM 9.69 49.442 1.023 6.55 3.29 10.73
10/17/2022 4:00:00 AM 9.66 49.388 1.023 6.55 3.29 10.74
10/17/2022 4:15:00 AM 9.64 49.352 1.026 6.55 3.29 10.74
10/17/2022 4:30:00 AM 9.62 49.316 1.026 6.55 3.33 10.74
10/17/2022 4:45:00 AM 9.6 49.28 1.029 6.55 3.29 10.75
10/17/2022 5:00:00 AM 9.58 49.244 1.028 6.55 3.33 10.76
10/17/2022 5:15:00 AM 9.56 49.208 1.024 6.55 3.27 10.76
10/17/2022 5:30:00 AM 9.54 49.172 1.027 6.55 3.34 10.77
10/17/2022 5:45:00 AM 9.53 49.154 1.026 6.55 3.34 10.77
10/17/2022 6:00:00 AM 9.52 49.136 1.03 6.55 3.42 10.78
10/17/2022 6:15:00 AM 9.51 49.118 1.025 6.56 3.3 10.78
10/17/2022 6:30:00 AM 9.51 49.118 1.03 6.56 3.3 10.78
10/17/2022 6:45:00 AM 9.51 49.118 1.026 6.56 3.31 10.78
10/17/2022 7:00:00 AM 9.51 49.118 1.023 6.56 3.28 10.78
10/17/2022 7:15:00 AM 9.51 49.118 1.025 6.57 3.3 10.78
10/17/2022 7:30:00 AM 9.52 49.136 1.026 6.57 3.31 10.79
10/17/2022 7:45:00 AM 9.52 49.136 1.018 6.57 3.3 10.8
10/17/2022 8:00:00 AM 9.52 49.136 1.019 6.58 3.3 10.8
10/17/2022 8:15:00 AM 9.53 49.154 1.016 6.58 3.25 10.82
10/17/2022 8:30:00 AM 9.54 49.172 1.022 6.59 3.29 10.82
10/17/2022 8:45:00 AM 9.56 49.208 1.019 6.59 3.27 10.82
10/17/2022 9:00:00 AM 9.57 49.226 1.019 6.59 3.29 10.82
10/17/2022 9:15:00 AM 9.59 49.262 1.017 6.6 3.27 10.84
10/17/2022 9:30:00 AM 9.62 49.316 1.017 6.6 3.35 10.86
10/17/2022 9:45:00 AM 9.65 49.37 1.015 6.62 3.27 10.9
10/17/2022 10:00:00 AM 9.68 49.424 1.023 6.62 3.28 10.9
10/17/2022 10:15:00 AM 9.71 49.478 1.017 6.63 3.25 10.91
10/17/2022 10:30:00 AM 9.75 49.55 1.011 6.64 3.28 10.95
10/17/2022 10:45:00 AM 9.81 49.658 1.02 6.65 3.25 10.98
10/17/2022 11:00:00 AM 9.87 49.766 1.016 6.66 3.26 10.99
10/17/2022 11:15:00 AM 9.92 49.856 1.011 6.66 3.27 10.95
10/17/2022 11:30:00 AM 9.96 49.928 1.007 6.65 3.23 10.9
10/17/2022 11:45:00 AM 10 50 1.005 6.65 3.25 10.87
10/17/2022 12:00:00 PM 10.06 50.108 1.005 6.66 3.27 10.9
10/17/2022 12:15:00 PM 10.11 50.198 1.003 6.66 3.19 10.88
10/17/2022 12:30:00 PM 10.17 50.306 1.004 6.67 3.3 10.89
10/17/2022 12:45:00 PM 10.22 50.396 1.006 6.67 3.24 10.86
10/17/2022 1:00:00 PM 10.33 50.594 1 6.68 3.25 10.89
10/17/2022 1:15:00 PM 10.44 50.792 1.006 6.69 3.25 10.9
10/17/2022 1:30:00 PM 10.49 50.882 1 6.69 3.17 10.88
10/17/2022 1:45:00 PM 10.52 50.936 1.003 6.7 3.25 10.8
10/17/2022 2:00:00 PM 10.57 51.026 0.998 6.71 3.22 10.8
10/17/2022 2:15:00 PM 10.61 51.098 1 6.71 3.2 10.8
10/17/2022 2:30:00 PM 10.66 51.188 0.998 6.7 3.3 10.79
10/17/2022 2:45:00 PM 10.68 51.224 0.999 6.7 3.29 10.77
10/17/2022 3:00:00 PM 10.72 51.296 1.001 6.7 3.28 10.76
10/17/2022 3:15:00 PM 10.75 51.35 0.998 6.7 3.29 10.76
10/17/2022 3:30:00 PM 10.78 51.404 1.003 6.71 3.36 10.76
10/17/2022 3:45:00 PM 10.81 51.458 1.001 6.71 3.25 10.73
10/17/2022 4:00:00 PM 10.84 51.512 0.997 6.7 3.26 10.69
10/17/2022 4:15:00 PM 10.86 51.548 0.996 6.71 3.27 10.67
10/17/2022 4:30:00 PM 10.86 51.548 1.003 6.7 3.26 10.65
10/17/2022 4:45:00 PM 10.85 51.53 1.002 6.7 3.49 10.62
10/17/2022 5:00:00 PM 10.84 51.512 0.997 6.69 3.35 10.61
10/17/2022 5:15:00 PM 10.83 51.494 0.999 6.68 3.59 10.6
10/17/2022 5:30:00 PM 10.83 51.494 0.995 6.67 3.5 10.58
10/17/2022 5:45:00 PM 10.8 51.44 1.003 6.67 3.87 10.55
10/17/2022 6:00:00 PM 10.78 51.404 1.006 6.66 3.77 10.51
10/17/2022 6:15:00 PM 10.74 51.332 1.015 6.65 3.83 10.49
10/17/2022 6:30:00 PM 10.7 51.26 1.014 6.64 3.74 10.46
10/17/2022 6:45:00 PM 10.66 51.188 1.012 6.63 3.82 10.45
10/17/2022 7:00:00 PM 10.61 51.098 1.015 6.63 3.81 10.44
10/17/2022 7:15:00 PM 10.56 51.008 1.009 6.62 3.49 10.45
10/17/2022 7:30:00 PM 10.5 50.9 1.017 6.62 3.52 10.46
10/17/2022 7:45:00 PM 10.44 50.792 1.017 6.61 3.38 10.47
10/17/2022 8:00:00 PM 10.39 50.702 1.017 6.61 3.4 10.48
10/17/2022 8:15:00 PM 10.33 50.594 1.019 6.6 3.43 10.49
10/17/2022 8:30:00 PM 10.28 50.504 1.018 6.6 3.43 10.51
10/17/2022 8:45:00 PM 10.23 50.414 1.024 6.6 3.46 10.52
10/17/2022 9:00:00 PM 10.19 50.342 1.03 6.6 3.41 10.54
10/17/2022 9:15:00 PM 10.15 50.27 1.026 6.59 3.4 10.55
10/17/2022 9:30:00 PM 10.11 50.198 1.025 6.59 3.35 10.56
10/17/2022 9:45:00 PM 10.07 50.126 1.021 6.59 3.42 10.57
10/17/2022 10:00:00 PM 10.02 50.036 1.019 6.59 3.5 10.58
10/17/2022 10:15:00 PM 9.99 49.982 1.021 6.59 3.46 10.6
10/17/2022 10:30:00 PM 9.95 49.91 1.019 6.59 3.52 10.61
10/17/2022 10:45:00 PM 9.92 49.856 1.017 6.58 3.51 10.62
10/17/2022 11:00:00 PM 9.88 49.784 1.017 6.59 3.54 10.62
10/17/2022 11:15:00 PM 9.85 49.73 0.998 6.58 3.58 10.64
10/17/2022 11:30:00 PM 9.82 49.676 1.001 6.58 3.45 10.65
10/17/2022 11:45:00 PM 9.79 49.622 1.002 6.58 3.42 10.65
10/18/2022 12:00:00 AM 9.77 49.586 1.001 6.58 3.51 10.66
10/18/2022 12:15:00 AM 9.73 49.514 1.002 6.58 3.58 10.67
10/18/2022 12:30:00 AM 9.7 49.46 1.003 6.58 3.54 10.68
10/18/2022 12:45:00 AM 9.67 49.406 1.007 6.58 3.49 10.67
10/18/2022 1:00:00 AM 9.62 49.316 1.009 6.58 3.44 10.7
10/18/2022 1:15:00 AM 9.57 49.226 1.004 6.57 3.62 10.71
10/18/2022 1:30:00 AM 9.52 49.136 1.008 6.57 3.48 10.71
10/18/2022 1:45:00 AM 9.47 49.046 1.007 6.57 3.46 10.72
10/18/2022 2:00:00 AM 9.42 48.956 1.005 6.56 3.42 10.74
10/18/2022 2:15:00 AM 9.37 48.866 1.006 6.56 3.45 10.75
10/18/2022 2:30:00 AM 9.32 48.776 1.006 6.55 3.49 10.76
10/18/2022 2:45:00 AM 9.26 48.668 1.009 6.54 3.57 10.78
10/18/2022 3:00:00 AM 9.2 48.56 1.007 6.54 3.56 10.8
10/18/2022 3:15:00 AM 9.14 48.452 1.006 6.53 3.53 10.81
10/18/2022 3:30:00 AM 9.08 48.344 1.002 6.51 3.54 10.82
10/18/2022 3:45:00 AM 9.03 48.254 1.003 6.51 3.7 10.84
10/18/2022 4:00:00 AM 8.97 48.146 1.007 6.51 3.65 10.85
10/18/2022 4:15:00 AM 8.92 48.056 1.007 6.52 3.61 10.87
10/18/2022 4:30:00 AM 8.87 47.966 1.009 6.51 3.66 10.88
10/18/2022 4:45:00 AM 8.81 47.858 1.007 6.51 3.52 10.9
10/18/2022 5:00:00 AM 8.77 47.786 1.005 6.51 3.51 10.91
10/18/2022 5:15:00 AM 8.71 47.678 1.008 6.51 3.51 10.93
10/18/2022 5:30:00 AM 8.66 47.588 1.011 6.51 3.55 10.95
10/18/2022 5:45:00 AM 8.62 47.516 1.014 6.51 3.47 10.96
10/18/2022 6:00:00 AM 8.57 47.426 1.008 6.51 3.42 10.97
10/18/2022 6:15:00 AM 8.53 47.354 1.033 6.51 3.4 10.99
10/18/2022 6:30:00 AM 8.48 47.264 1.038 6.5 3.42 11.01
10/18/2022 6:45:00 AM 8.45 47.21 1.037 6.51 3.38 11
10/18/2022 7:00:00 AM 8.42 47.156 1.041 6.51 3.39 11.03
10/18/2022 7:15:00 AM 8.4 47.12 1.041 6.51 3.42 11.03
10/18/2022 7:30:00 AM 8.38 47.084 1.04 6.52 3.41 11.04
10/18/2022 7:45:00 AM 8.37 47.066 1.041 6.53 3.39 11.07
10/18/2022 8:00:00 AM 8.35 47.03 1.038 6.53 3.36 11.1
10/18/2022 8:15:00 AM 8.34 47.012 1.038 6.54 3.39 11.13
10/18/2022 8:30:00 AM 8.35 47.03 1.04 6.56 3.36 11.17
10/18/2022 8:45:00 AM 8.36 47.048 1.04 6.58 3.44 11.2
10/18/2022 9:00:00 AM 8.39 47.102 1.034 6.6 3.49 11.24
10/18/2022 9:15:00 AM 8.43 47.174 1.035 6.61 3.41 11.27
10/18/2022 9:30:00 AM 8.47 47.246 1.035 6.62 3.46 11.28
10/18/2022 9:45:00 AM 8.52 47.336 1.031 6.63 3.55 11.29
10/18/2022 10:00:00 AM 8.56 47.408 1.03 6.63 3.62 11.28
10/18/2022 10:15:00 AM 8.62 47.516 1.027 6.64 3.68 11.29
10/18/2022 10:30:00 AM 8.67 47.606 1.027 6.65 3.68 11.29
10/18/2022 10:45:00 AM 8.73 47.714 1.025 6.65 3.74 11.28
10/18/2022 11:00:00 AM 8.77 47.786 1.027 6.65 3.8 11.25
10/18/2022 11:15:00 AM 8.82 47.876 1.025 6.66 3.71 11.24
10/18/2022 11:30:00 AM 8.85 47.93 1.028 6.66 3.78 11.23
10/18/2022 11:45:00 AM 8.9 48.02 1.021 6.67 3.76 11.23
10/18/2022 12:00:00 PM 8.94 48.092 1.019 6.67 3.74 11.22
10/18/2022 12:15:00 PM 8.98 48.164 1.017 6.68 3.83 11.21
10/18/2022 12:30:00 PM 9.02 48.236 1.02 6.68 3.82 11.19
10/18/2022 12:45:00 PM 9.05 48.29 1.021 6.68 3.8 11.18
10/18/2022 1:00:00 PM 9.1 48.38 1.02 6.68 3.86 11.2
10/18/2022 1:15:00 PM 9.15 48.47 1.018 6.68 3.85 11.19
10/18/2022 1:30:00 PM 9.19 48.542 1.017 6.69 3.34 11.16
10/18/2022 1:45:00 PM 9.22 48.596 1.018 6.68 4.52 11.14
10/18/2022 2:00:00 PM 9.23 48.614 1.022 6.68 3.33 11.11
10/18/2022 2:15:00 PM 9.26 48.668 1.019 6.69 3.46 11.12
10/18/2022 2:30:00 PM 9.28 48.704 1.015 6.68 3.6 11.1
10/18/2022 2:45:00 PM 9.31 48.758 1.015 6.68 3.66 11.1
10/18/2022 3:00:00 PM 9.33 48.794 1.015 6.67 3.68 11.05
10/18/2022 3:15:00 PM 9.34 48.812 1.016 6.67 3.56 11.03
10/18/2022 3:30:00 PM 9.36 48.848 1.011 6.68 3.53 11.04
10/18/2022 3:45:00 PM 9.39 48.902 1.008 6.68 3.57 11.04
10/18/2022 4:00:00 PM 9.41 48.938 1.009 6.67 3.5 11.02
10/18/2022 4:15:00 PM 9.42 48.956 1.012 6.67 3.87 11.01
10/18/2022 4:30:00 PM 9.41 48.938 1.017 6.66 3.85 11
10/18/2022 4:45:00 PM 9.41 48.938 1.011 6.66 3.89 10.99
10/18/2022 5:00:00 PM 9.41 48.938 1.011 6.65 3.78 10.97
10/18/2022 5:15:00 PM 9.41 48.938 1.009 6.64 3.74 10.94
10/18/2022 5:30:00 PM 9.41 48.938 1.015 6.64 3.8 10.91
10/18/2022 5:45:00 PM 9.4 48.92 1.016 6.63 3.62 10.88
10/18/2022 6:00:00 PM 9.39 48.902 1.011 6.63 3.63 10.87
10/18/2022 6:15:00 PM 9.38 48.884 1.012 6.63 3.63 10.84
10/18/2022 6:30:00 PM 9.37 48.866 1.019 6.62 3.7 10.83
10/18/2022 6:45:00 PM 9.36 48.848 1.017 6.62 3.7 10.82
10/18/2022 7:00:00 PM 9.35 48.83 1.017 6.62 3.67 10.81
10/18/2022 7:15:00 PM 9.33 48.794 1.011 6.62 3.66 10.81
10/18/2022 7:30:00 PM 9.32 48.776 1.008 6.61 3.74 10.81
10/18/2022 7:45:00 PM 9.3 48.74 1.008 6.62 3.76 10.82
10/18/2022 8:00:00 PM 9.29 48.722 1.002 6.61 3.94 10.82
10/18/2022 8:15:00 PM 9.27 48.686 1.003 6.61 3.92 10.82
10/18/2022 8:30:00 PM 9.26 48.668 0.997 6.61 3.97 10.83
10/18/2022 8:45:00 PM 9.24 48.632 0.984 6.61 3.61 10.83
10/18/2022 9:00:00 PM 9.22 48.596 0.985 6.61 3.61 10.84
10/18/2022 9:15:00 PM 9.2 48.56 0.979 6.61 3.61 10.84
10/18/2022 9:30:00 PM 9.17 48.506 0.974 6.61 3.58 10.85
10/18/2022 9:45:00 PM 9.14 48.452 0.972 6.6 3.68 10.86
10/18/2022 10:00:00 PM 9.11 48.398 0.971 6.61 3.71 10.87
10/18/2022 10:15:00 PM 9.06 48.308 0.966 6.6 3.68 10.88
10/18/2022 10:30:00 PM 9.02 48.236 0.964 6.6 4.17 10.89
10/18/2022 10:45:00 PM 8.98 48.164 0.965 6.6 3.79 10.9
10/18/2022 11:00:00 PM 8.93 48.074 0.962 6.6 3.73 10.91
10/18/2022 11:15:00 PM 8.88 47.984 0.961 6.59 3.95 10.92
10/18/2022 11:30:00 PM 8.83 47.894 0.959 6.59 3.84 10.94
10/18/2022 11:45:00 PM 8.78 47.804 0.962 6.59 3.96 10.95
10/19/2022 12:00:00 AM 8.73 47.714 0.958 6.59 4 10.97
10/19/2022 12:15:00 AM 8.68 47.624 0.956 6.58 5.14 10.97
10/19/2022 12:30:00 AM 8.63 47.534 0.958 6.58 5.29 11
10/19/2022 12:45:00 AM 8.58 47.444 0.957 6.57 4.94 11.01
10/19/2022 1:00:00 AM 8.53 47.354 0.957 6.57 5.5 11.02
10/19/2022 1:15:00 AM 8.48 47.264 0.957 6.57 4.12 11.04
10/19/2022 1:30:00 AM 8.43 47.174 0.957 6.56 3.95 11.05
10/19/2022 1:45:00 AM 8.4 47.12 0.954 6.55 4.55 11.08
10/19/2022 2:00:00 AM 8.37 47.066 0.961 6.55 4.82 11.09
10/19/2022 2:15:00 AM 8.35 47.03 0.952 6.54 4.92 11.09
10/19/2022 2:30:00 AM 8.33 46.994 0.95 6.54 5.8 11.09
10/19/2022 2:45:00 AM 8.31 46.958 0.948 6.55 4.3 11.1
10/19/2022 3:00:00 AM 8.29 46.922 0.95 6.55 4.16 11.11
10/19/2022 3:15:00 AM 8.28 46.904 0.949 6.55 3.34 11.11
10/19/2022 3:30:00 AM 8.27 46.886 0.948 6.54 5.01 11.11
10/19/2022 3:45:00 AM 8.26 46.868 0.945 6.55 3.42 11.12
10/19/2022 4:00:00 AM 8.25 46.85 0.942 6.55 4.44 11.11
10/19/2022 4:15:00 AM 8.25 46.85 0.946 6.55 3.95 11.12
10/19/2022 4:30:00 AM 8.26 46.868 0.942 6.56 3.72 11.12
10/19/2022 4:45:00 AM 8.26 46.868 0.942 6.56 3.45 11.13
10/19/2022 5:00:00 AM 8.27 46.886 0.938 6.56 3.43 11.12
10/19/2022 5:15:00 AM 8.27 46.886 0.936 6.57 3.97 11.12
10/19/2022 5:30:00 AM 8.28 46.904 0.933 6.57 3.7 11.12
10/19/2022 5:45:00 AM 8.27 46.886 0.935 6.57 3.38 11.12
10/19/2022 6:00:00 AM 8.28 46.904 0.935 6.57 3.35 11.11
10/19/2022 6:15:00 AM 8.28 46.904 0.936 6.57 3.38 11.11
10/19/2022 6:30:00 AM 8.28 46.904 0.94 6.58 3.35 11.12
10/19/2022 6:45:00 AM 8.28 46.904 0.935 6.58 3.45 11.12
10/19/2022 7:00:00 AM 8.29 46.922 0.93 6.58 3.48 11.12
10/19/2022 7:15:00 AM 8.29 46.922 0.932 6.58 3.42 11.12
10/19/2022 7:30:00 AM 8.29 46.922 0.926 6.58 3.37 11.11
10/19/2022 7:45:00 AM 8.29 46.922 0.927 6.59 3.41 11.13
10/19/2022 8:00:00 AM 8.3 46.94 0.924 6.59 3.42 11.14
10/19/2022 8:15:00 AM 8.31 46.958 0.923 6.59 3.41 11.16
10/19/2022 8:30:00 AM 8.33 46.994 0.921 6.6 3.4 11.21
10/19/2022 8:45:00 AM 8.34 47.012 0.921 6.61 3.36 11.25
10/19/2022 9:00:00 AM 8.37 47.066 0.916 6.62 3.38 11.27
10/19/2022 9:15:00 AM 8.38 47.084 0.917 6.63 3.43 11.29
10/19/2022 9:30:00 AM 8.4 47.12 0.91 6.64 3.4 11.34
10/19/2022 9:45:00 AM 8.43 47.174 0.909 6.65 3.41 11.36
10/19/2022 10:00:00 AM 8.46 47.228 0.907 6.65 3.4 11.36
10/19/2022 10:15:00 AM 8.47 47.246 0.905 6.65 3.43 11.36
10/19/2022 10:30:00 AM 8.49 47.282 0.909 6.66 3.45 11.37
10/19/2022 10:45:00 AM 8.52 47.336 0.908 6.67 3.47 11.36
10/19/2022 11:00:00 AM 8.53 47.354 0.903 6.67 3.46 11.35
10/19/2022 11:15:00 AM 8.55 47.39 0.905 6.67 3.46 11.35
10/19/2022 11:30:00 AM 8.58 47.444 0.896 6.67 3.46 11.34
10/19/2022 11:45:00 AM 8.58 47.444 0.898 6.67 3.4 11.32
10/19/2022 12:00:00 PM 8.61 47.498 0.898 6.66 3.41 11.31
10/19/2022 12:15:00 PM 8.61 47.498 0.899 6.66 3.4 11.3
10/19/2022 12:30:00 PM 8.65 47.57 0.9 6.67 3.37 11.32
10/19/2022 12:45:00 PM 8.67 47.606 0.9 6.67 3.41 11.31
10/19/2022 1:00:00 PM 8.7 47.66 0.898 6.67 3.36 11.31
10/19/2022 1:15:00 PM 8.74 47.732 0.895 6.68 3.37 11.32
10/19/2022 1:30:00 PM 8.76 47.768 0.891 6.68 3.33 11.31
10/19/2022 1:45:00 PM 8.81 47.858 0.888 6.68 3.39 11.33
10/19/2022 2:00:00 PM 8.84 47.912 0.887 6.69 3.37 11.32
10/19/2022 2:15:00 PM 8.85 47.93 0.888 6.68 3.34 11.25
10/19/2022 2:30:00 PM 8.89 48.002 0.887 6.68 3.39 11.27
10/19/2022 2:45:00 PM 8.91 48.038 0.886 6.68 3.33 11.24
10/19/2022 3:00:00 PM 8.91 48.038 0.879 6.67 3.31 11.23
10/19/2022 3:15:00 PM 8.94 48.092 0.862 6.68 3.4 11.25
10/19/2022 3:30:00 PM 8.95 48.11 0.862 6.68 3.32 11.22
10/19/2022 3:45:00 PM 8.98 48.164 0.853 6.68 3.41 11.21
10/19/2022 4:00:00 PM 9 48.2 0.845 6.69 3.39 11.23
10/19/2022 4:15:00 PM 9.01 48.218 0.841 6.68 3.39 11.2
10/19/2022 4:30:00 PM 9.02 48.236 0.841 6.67 3.34 11.18
10/19/2022 4:45:00 PM 9.03 48.254 0.841 6.67 3.42 11.17
10/19/2022 5:00:00 PM 9.01 48.218 0.842 6.67 3.37 11.13
10/19/2022 5:15:00 PM 9.01 48.218 0.843 6.66 3.43 11.1
10/19/2022 5:30:00 PM 9 48.2 0.848 6.66 3.4 11.08
10/19/2022 5:45:00 PM 9 48.2 0.784 6.66 3.41 11.05
10/19/2022 6:00:00 PM 8.99 48.182 0.788 6.65 3.39 11.03
10/19/2022 6:15:00 PM 8.97 48.146 0.788 6.64 3.35 11
10/19/2022 6:30:00 PM 8.96 48.128 0.797 6.64 3.4 10.98
10/19/2022 6:45:00 PM 8.95 48.11 0.799 6.63 3.36 10.98
10/19/2022 7:00:00 PM 8.94 48.092 0.805 6.63 3.38 10.97
10/19/2022 7:15:00 PM 8.93 48.074 0.806 6.63 3.41 10.97
10/19/2022 7:30:00 PM 8.93 48.074 0.807 6.62 3.4 10.96
10/19/2022 7:45:00 PM 8.92 48.056 0.809 6.62 3.41 10.97
10/19/2022 8:00:00 PM 8.92 48.056 0.807 6.62 3.41 10.97
10/19/2022 8:15:00 PM 8.91 48.038 0.805 6.62 3.42 10.97
10/19/2022 8:30:00 PM 8.9 48.02 0.809 6.62 3.42 10.97
10/19/2022 8:45:00 PM 8.88 47.984 0.808 6.62 3.37 10.98
10/19/2022 9:00:00 PM 8.87 47.966 0.808 6.62 3.37 10.98
10/19/2022 9:15:00 PM 8.86 47.948 0.807 6.62 3.39 10.99
10/19/2022 9:30:00 PM 8.84 47.912 0.809 6.62 3.4 10.99
10/19/2022 9:45:00 PM 8.83 47.894 0.806 6.62 3.39 10.99
10/19/2022 10:00:00 PM 8.82 47.876 0.807 6.62 3.43 11
10/19/2022 10:15:00 PM 8.81 47.858 0.807 6.62 3.42 11.01
10/19/2022 10:30:00 PM 8.79 47.822 0.806 6.61 3.4 11.01
10/19/2022 10:45:00 PM 8.79 47.822 0.807 6.61 3.41 11.01
10/19/2022 11:00:00 PM 8.78 47.804 0.807 6.61 3.46 11.02
10/19/2022 11:15:00 PM 8.77 47.786 0.806 6.61 3.39 11.02
10/19/2022 11:30:00 PM 8.77 47.786 0.81 6.61 3.41 11.02
10/19/2022 11:45:00 PM 8.76 47.768 0.813 6.61 3.38 11.03
10/20/2022 12:00:00 AM 8.75 47.75 0.808 6.61 3.4 11.03
10/20/2022 12:15:00 AM 8.75 47.75 0.809 6.61 3.42 11.03
10/20/2022 12:30:00 AM 8.74 47.732 0.811 6.61 3.35 11.03
10/20/2022 12:45:00 AM 8.74 47.732 0.81 6.6 3.43 11.04
10/20/2022 1:00:00 AM 8.73 47.714 0.812 6.61 3.44 11.04
10/20/2022 1:15:00 AM 8.72 47.696 0.816 6.61 3.4 11.04
10/20/2022 1:30:00 AM 8.71 47.678 0.812 6.61 3.38 11.05
10/20/2022 1:45:00 AM 8.7 47.66 0.814 6.61 3.4 11.05
10/20/2022 2:00:00 AM 8.69 47.642 0.811 6.6 3.37 11.05
10/20/2022 2:15:00 AM 8.69 47.642 0.81 6.6 3.46 11.05
10/20/2022 2:30:00 AM 8.68 47.624 0.815 6.6 3.42 11.05
10/20/2022 2:45:00 AM 8.67 47.606 0.81 6.6 3.42 11.05
10/20/2022 3:00:00 AM 8.65 47.57 0.812 6.6 3.47 11.06
10/20/2022 3:15:00 AM 8.64 47.552 0.81 6.6 3.45 11.06
10/20/2022 3:30:00 AM 8.63 47.534 0.811 6.6 3.55 11.06
10/20/2022 3:45:00 AM 8.6 47.48 0.811 6.6 3.43 11.07
10/20/2022 4:00:00 AM 8.58 47.444 0.811 6.6 3.37 11.07
10/20/2022 4:15:00 AM 8.55 47.39 0.807 6.6 3.39 11.08
10/20/2022 4:30:00 AM 8.52 47.336 0.807 6.6 3.41 11.09
10/20/2022 4:45:00 AM 8.49 47.282 0.808 6.6 3.44 11.1
10/20/2022 5:00:00 AM 8.45 47.21 0.809 6.6 3.41 11.11
10/20/2022 5:15:00 AM 8.41 47.138 0.81 6.6 3.43 11.12
10/20/2022 5:30:00 AM 8.37 47.066 0.809 6.6 3.45 11.13
10/20/2022 5:45:00 AM 8.33 46.994 0.808 6.59 3.46 11.15
10/20/2022 6:00:00 AM 8.28 46.904 0.803 6.59 3.44 11.16
10/20/2022 6:15:00 AM 8.24 46.832 0.802 6.59 3.49 11.16
10/20/2022 6:30:00 AM 8.19 46.742 0.808 6.59 3.49 11.19
10/20/2022 6:45:00 AM 8.15 46.67 0.802 6.59 3.43 11.2
10/20/2022 7:00:00 AM 8.11 46.598 0.8 6.58 3.5 11.22
10/20/2022 7:15:00 AM 8.08 46.544 0.803 6.58 3.48 11.22
10/20/2022 7:30:00 AM 8.05 46.49 0.807 6.58 3.46 11.24
10/20/2022 7:45:00 AM 8.04 46.472 0.794 6.58 3.5 11.26
10/20/2022 8:00:00 AM 8.02 46.436 0.793 6.58 3.45 11.28
10/20/2022 8:15:00 AM 8 46.4 0.787 6.58 3.45 11.3
10/20/2022 8:30:00 AM 7.97 46.346 0.756 6.59 3.44 11.32
10/20/2022 8:45:00 AM 7.96 46.328 0.763 6.59 3.48 11.35
10/20/2022 9:00:00 AM 7.94 46.292 0.767 6.59 3.43 11.37
10/20/2022 9:15:00 AM 7.94 46.292 0.762 6.6 3.42 11.41
10/20/2022 9:30:00 AM 7.98 46.364 0.762 6.62 3.41 11.48
10/20/2022 9:45:00 AM 7.99 46.382 0.759 6.63 3.46 11.52
10/20/2022 10:00:00 AM 8.01 46.418 0.76 6.64 3.44 11.54
10/20/2022 10:15:00 AM 8.05 46.49 0.755 6.65 3.43 11.57
10/20/2022 10:30:00 AM 8.09 46.562 0.752 6.67 3.47 11.58
10/20/2022 10:45:00 AM 8.14 46.652 0.752 6.67 3.42 11.6
10/20/2022 11:00:00 AM 8.19 46.742 0.754 6.69 3.47 11.6
10/20/2022 11:15:00 AM 8.24 46.832 0.751 6.69 3.47 11.59
10/20/2022 11:30:00 AM 8.27 46.886 0.749 6.69 3.49 11.58
10/20/2022 11:45:00 AM 8.31 46.958 0.75 6.68 3.45 11.57
10/20/2022 12:00:00 PM 8.33 46.994 0.752 6.68 3.43 11.54
10/20/2022 12:15:00 PM 8.37 47.066 0.751 6.68 3.47 11.53
10/20/2022 12:30:00 PM 8.41 47.138 0.743 6.68 4.18 11.54
10/20/2022 12:45:00 PM 8.46 47.228 0.746 6.69 3.48 11.53
10/20/2022 1:00:00 PM 8.54 47.372 0.741 6.69 3.58 11.53
10/20/2022 1:15:00 PM 8.6 47.48 0.746 6.7 3.62 11.51
10/20/2022 1:30:00 PM 8.65 47.57 0.746 6.7 3.68 11.5
10/20/2022 1:45:00 PM 8.73 47.714 0.742 6.7 3.69 11.48
10/20/2022 2:00:00 PM 8.82 47.876 0.74 6.7 3.84 11.45
10/20/2022 2:15:00 PM 8.88 47.984 0.738 6.7 4.07 11.4
10/20/2022 2:30:00 PM 8.92 48.056 0.739 6.7 4.12 11.36
10/20/2022 2:45:00 PM 8.98 48.164 0.739 6.7 4.6 11.33
10/20/2022 3:00:00 PM 9.01 48.218 0.741 6.7 4.03 11.29
10/20/2022 3:15:00 PM 9.07 48.326 0.741 6.7 16.42 11.27
10/20/2022 3:30:00 PM 9.13 48.434 0.741 6.7 16.5 11.26
10/20/2022 3:45:00 PM 9.16 48.488 0.741 6.7 5.12 11.22
10/20/2022 4:00:00 PM 9.15 48.47 0.745 6.69 3.47 11.19
10/20/2022 4:15:00 PM 9.15 48.47 0.748 6.69 3.46 11.17
10/20/2022 4:30:00 PM 9.15 48.47 0.753 6.68 3.47 11.14
10/20/2022 4:45:00 PM 9.14 48.452 0.758 6.67 3.53 11.09
10/20/2022 5:00:00 PM 9.13 48.434 0.756 6.66 3.47 11.06
10/20/2022 5:15:00 PM 9.11 48.398 0.756 6.66 3.47 11.04
10/20/2022 5:30:00 PM 9.1 48.38 0.758 6.65 3.5 11.03
10/20/2022 5:45:00 PM 9.08 48.344 0.759 6.65 3.43 11
10/20/2022 6:00:00 PM 9.06 48.308 0.76 6.64 3.45 10.99
10/20/2022 6:15:00 PM 9.03 48.254 0.765 6.64 3.48 10.98
10/20/2022 6:30:00 PM 9 48.2 0.769 6.64 3.48 10.97
10/20/2022 6:45:00 PM 8.97 48.146 0.772 6.63 3.52 10.97
10/20/2022 7:00:00 PM 8.95 48.11 0.773 6.63 3.54 10.97
10/20/2022 7:15:00 PM 8.93 48.074 0.774 6.62 3.6 10.97
10/20/2022 7:30:00 PM 8.9 48.02 0.777 6.62 3.63 10.98
10/20/2022 7:45:00 PM 8.88 47.984 0.775 6.62 3.63 10.99
10/20/2022 8:00:00 PM 8.86 47.948 0.774 6.62 3.78 11
10/20/2022 8:15:00 PM 8.84 47.912 0.776 6.62 3.76 11
10/20/2022 8:30:00 PM 8.82 47.876 0.773 6.62 4.09 11.01
10/20/2022 8:45:00 PM 8.8 47.84 0.778 6.62 3.83 11.02
10/20/2022 9:00:00 PM 8.78 47.804 0.777 6.62 3.83 11.03
10/20/2022 9:15:00 PM 8.76 47.768 0.77 6.62 3.88 11.04
10/20/2022 9:30:00 PM 8.75 47.75 0.773 6.62 3.87 11.05
10/20/2022 9:45:00 PM 8.73 47.714 0.775 6.61 3.94 11.05
10/20/2022 10:00:00 PM 8.72 47.696 0.769 6.61 3.89 11.06
10/20/2022 10:15:00 PM 8.7 47.66 0.766 6.61 3.92 11.07
10/20/2022 10:30:00 PM 8.69 47.642 0.769 6.61 3.87 11.07
10/20/2022 10:45:00 PM 8.67 47.606 0.77 6.61 3.94 11.08
10/20/2022 11:00:00 PM 8.66 47.588 0.765 6.6 3.93 11.09
10/20/2022 11:15:00 PM 8.65 47.57 0.772 6.6 3.89 11.09
10/20/2022 11:30:00 PM 8.64 47.552 0.774 6.6 3.92 11.1
10/20/2022 11:45:00 PM 8.63 47.534 0.77 6.6 3.94 11.09
10/21/2022 12:00:00 AM 8.62 47.516 0.766 6.6 3.89 11.1
10/21/2022 12:15:00 AM 8.6 47.48 0.767 6.6 3.89 11.1
10/21/2022 12:30:00 AM 8.59 47.462 0.768 6.6 3.92 11.11
10/21/2022 12:45:00 AM 8.57 47.426 0.767 6.59 3.97 11.11
10/21/2022 1:00:00 AM 8.54 47.372 0.77 6.59 4.08 11.12
10/21/2022 1:15:00 AM 8.51 47.318 0.769 6.59 3.92 11.13
10/21/2022 1:30:00 AM 8.47 47.246 0.769 6.59 3.91 11.14
10/21/2022 1:45:00 AM 8.44 47.192 0.768 6.59 3.99 11.15
10/21/2022 2:00:00 AM 8.4 47.12 0.765 6.59 3.98 11.15
10/21/2022 2:15:00 AM 8.36 47.048 0.767 6.59 3.97 11.18
10/21/2022 2:30:00 AM 8.31 46.958 0.77 6.59 4 11.18
10/21/2022 2:45:00 AM 8.27 46.886 0.773 6.59 3.97 11.2
10/21/2022 3:00:00 AM 8.22 46.796 0.768 6.59 4 11.21
10/21/2022 3:15:00 AM 8.18 46.724 0.77 6.59 3.99 11.22
10/21/2022 3:30:00 AM 8.14 46.652 0.765 6.59 4.28 11.24
10/21/2022 3:45:00 AM 8.09 46.562 0.767 6.59 4 11.25
10/21/2022 4:00:00 AM 8.05 46.49 0.764 6.59 4.04 11.27
10/21/2022 4:15:00 AM 8 46.4 0.765 6.58 4.03 11.28
10/21/2022 4:30:00 AM 7.95 46.31 0.767 6.57 4.03 11.3
10/21/2022 4:45:00 AM 7.91 46.238 0.767 6.57 4.04 11.31
10/21/2022 5:00:00 AM 7.86 46.148 0.766 6.57 4.04 11.32
10/21/2022 5:15:00 AM 7.82 46.076 0.765 6.56 4.06 11.34
10/21/2022 5:30:00 AM 7.78 46.004 0.768 6.55 4.03 11.36
10/21/2022 5:45:00 AM 7.74 45.932 0.766 6.55 4.05 11.37
10/21/2022 6:00:00 AM 7.7 45.86 0.768 6.55 4.03 11.38
10/21/2022 6:15:00 AM 7.66 45.788 0.766 6.55 4.04 11.39
10/21/2022 6:30:00 AM 7.62 45.716 0.771 6.54 4.04 11.41
10/21/2022 6:45:00 AM 7.59 45.662 0.767 6.54 4.06 11.43
10/21/2022 7:00:00 AM 7.55 45.59 0.767 6.54 4.03 11.43
10/21/2022 7:15:00 AM 7.51 45.518 0.77 6.54 4.04 11.45
10/21/2022 7:30:00 AM 7.48 45.464 0.765 6.53 4.03 11.47
10/21/2022 7:45:00 AM 7.44 45.392 0.768 6.53 4.04 11.5
10/21/2022 8:00:00 AM 7.41 45.338 0.763 6.54 4.05 11.53
10/21/2022 8:15:00 AM 7.38 45.284 0.765 6.55 4.05 11.55
10/21/2022 8:30:00 AM 7.36 45.248 0.762 6.55 4.05 11.59
10/21/2022 8:45:00 AM 7.33 45.194 0.76 6.55 4.05 11.61
10/21/2022 9:00:00 AM 7.31 45.158 0.759 6.55 4.06 11.63
10/21/2022 9:15:00 AM 7.3 45.14 0.757 6.56 4.03 11.65
10/21/2022 9:30:00 AM 7.28 45.104 0.752 6.57 4.03 11.68
10/21/2022 9:45:00 AM 7.28 45.104 0.73 6.58 4.03 11.7
10/21/2022 10:00:00 AM 7.32 45.176 0.719 6.59 4.06 11.73
10/21/2022 10:15:00 AM 7.37 45.266 0.719 6.61 4.02 11.75
10/21/2022 10:30:00 AM 7.45 45.41 0.719 6.62 4.03 11.75
10/21/2022 10:45:00 AM 7.54 45.572 0.72 6.63 4 11.75
10/21/2022 11:00:00 AM 7.65 45.77 0.713 6.64 3.99 11.74
10/21/2022 11:15:00 AM 7.77 45.986 0.71 6.64 3.97 11.73
10/21/2022 11:30:00 AM 7.91 46.238 0.698 6.66 3.92 11.71
10/21/2022 11:45:00 AM 8.06 46.508 0.691 6.67 3.91 11.68
10/21/2022 12:00:00 PM 8.2 46.76 0.703 6.67 3.93 11.66
10/21/2022 12:15:00 PM 8.35 47.03 0.709 6.68 3.96 11.63
10/21/2022 12:30:00 PM 8.49 47.282 0.702 6.68 3.86 11.6
10/21/2022 12:45:00 PM 8.64 47.552 0.704 6.69 3.94 11.56
10/21/2022 1:00:00 PM 8.79 47.822 0.708 6.69 3.91 11.53
10/21/2022 1:15:00 PM 8.89 48.002 0.709 6.7 3.92 11.47
10/21/2022 1:30:00 PM 8.99 48.182 0.71 6.7 3.91 11.43
10/21/2022 1:45:00 PM 9.08 48.344 0.711 6.7 3.9 11.38
10/21/2022 2:00:00 PM 9.17 48.506 0.715 6.69 3.89 11.32
10/21/2022 2:15:00 PM 9.24 48.632 0.716 6.69 3.89 11.29
10/21/2022 2:30:00 PM 9.31 48.758 0.719 6.69 3.92 11.24
10/21/2022 2:45:00 PM 9.39 48.902 0.722 6.69 3.85 11.2
10/21/2022 3:00:00 PM 9.47 49.046 0.72 6.69 3.91 11.16
10/21/2022 3:15:00 PM 9.53 49.154 0.72 6.69 3.88 11.13
10/21/2022 3:30:00 PM 9.57 49.226 0.722 6.69 3.88 11.1
10/21/2022 3:45:00 PM 9.6 49.28 0.721 6.69 3.91 11.08
10/21/2022 4:00:00 PM 9.59 49.262 0.723 6.68 3.93 11.05
10/21/2022 4:15:00 PM 9.58 49.244 0.727 6.67 3.95 11.03
10/21/2022 4:30:00 PM 9.57 49.226 0.729 6.67 3.93 11.01
10/21/2022 4:45:00 PM 9.56 49.208 0.733 6.66 3.95 10.99
10/21/2022 5:00:00 PM 9.55 49.19 0.735 6.65 3.93 10.99
10/21/2022 5:15:00 PM 9.53 49.154 0.739 6.65 3.99 10.96
10/21/2022 5:30:00 PM 9.52 49.136 0.736 6.64 4.03 10.95
10/21/2022 5:45:00 PM 9.5 49.1 0.738 6.64 4.06 10.93
10/21/2022 6:00:00 PM 9.48 49.064 0.733 6.64 4.03 10.92
10/21/2022 6:15:00 PM 9.46 49.028 0.736 6.63 4.04 10.9
10/21/2022 6:30:00 PM 9.44 48.992 0.738 6.62 4.18 10.89
10/21/2022 6:45:00 PM 9.41 48.938 0.738 6.61 4.05 10.88
10/21/2022 7:00:00 PM 9.38 48.884 0.737 6.61 4.06 10.88
10/21/2022 7:15:00 PM 9.34 48.812 0.739 6.61 4.08 10.89
10/21/2022 7:30:00 PM 9.31 48.758 0.741 6.61 4.07 10.9
10/21/2022 7:45:00 PM 9.27 48.686 0.739 6.61 4.15 10.91
10/21/2022 8:00:00 PM 9.22 48.596 0.741 6.61 4.08 10.92
10/21/2022 8:15:00 PM 9.17 48.506 0.738 6.63 4.09 10.93
10/21/2022 8:30:00 PM 9.12 48.416 0.739 6.6 4.12 10.95
10/21/2022 8:45:00 PM 9.06 48.308 0.742 6.6 4.12 10.96
10/21/2022 9:00:00 PM 9.02 48.236 0.743 6.6 4.1 10.98
10/21/2022 9:15:00 PM 8.97 48.146 0.744 6.59 4.08 10.99
10/21/2022 9:30:00 PM 8.92 48.056 0.746 6.58 4.13 11.01
10/21/2022 9:45:00 PM 8.88 47.984 0.747 6.6 4.13 11.02
10/21/2022 10:00:00 PM 8.83 47.894 0.74 6.57 4.06 11.03
10/21/2022 10:15:00 PM 8.79 47.822 0.733 6.58 4.09 11.05
10/21/2022 10:30:00 PM 8.74 47.732 0.733 6.58 4.08 11.07
10/21/2022 10:45:00 PM 8.69 47.642 0.733 6.59 4.07 11.08
10/21/2022 11:00:00 PM 8.65 47.57 0.732 6.58 4.7 11.1
10/21/2022 11:15:00 PM 8.61 47.498 0.739 6.58 4.6 11.11
10/21/2022 11:30:00 PM 8.56 47.408 0.74 6.58 4.6 11.12
10/21/2022 11:45:00 PM 8.52 47.336 0.739 6.58 4.43 11.14
10/22/2022 12:00:00 AM 8.48 47.264 0.734 6.58 4.32 11.15
10/22/2022 12:15:00 AM 8.44 47.192 0.734 6.58 4.48 11.16
10/22/2022 12:30:00 AM 8.4 47.12 0.736 6.57 4.33 11.17
10/22/2022 12:45:00 AM 8.36 47.048 0.735 6.57 4.35 11.19
10/22/2022 1:00:00 AM 8.32 46.976 0.737 6.57 4.31 11.21
10/22/2022 1:15:00 AM 8.28 46.904 0.736 6.57 4.82 11.21
10/22/2022 1:30:00 AM 8.25 46.85 0.735 6.57 4.86 11.22
10/22/2022 1:45:00 AM 8.21 46.778 0.738 6.56 4.84 11.23
10/22/2022 2:00:00 AM 8.18 46.724 0.736 6.56 4.94 11.25
10/22/2022 2:15:00 AM 8.14 46.652 0.733 6.57 5.02 11.26
10/22/2022 2:30:00 AM 8.11 46.598 0.731 6.56 5.03 11.27
10/22/2022 2:45:00 AM 8.08 46.544 0.73 6.56 4.86 11.28
10/22/2022 3:00:00 AM 8.04 46.472 0.726 6.54 4.93 11.3
10/22/2022 3:15:00 AM 8.01 46.418 0.721 6.57 4.75 11.3
10/22/2022 3:30:00 AM 7.98 46.364 0.714 6.57 4.92 11.31
10/22/2022 3:45:00 AM 7.95 46.31 0.716 6.57 4.68 11.33
10/22/2022 4:00:00 AM 7.92 46.256 0.717 6.57 4.52 11.33
10/22/2022 4:15:00 AM 7.89 46.202 0.714 6.57 4.35 11.35
10/22/2022 4:30:00 AM 7.86 46.148 0.716 6.57 4.45 11.35
10/22/2022 4:45:00 AM 7.83 46.094 0.716 6.57 4.36 11.37
10/22/2022 5:00:00 AM 7.81 46.058 0.712 6.57 4.49 11.37
10/22/2022 5:15:00 AM 7.78 46.004 0.711 6.57 4.49 11.38
10/22/2022 5:30:00 AM 7.75 45.95 0.706 6.57 4.45 11.39
10/22/2022 5:45:00 AM 7.73 45.914 0.709 6.57 4.47 11.4
10/22/2022 6:00:00 AM 7.7 45.86 0.709 6.57 4.5 11.41
10/22/2022 6:15:00 AM 7.68 45.824 0.705 6.57 4.37 11.42
10/22/2022 6:30:00 AM 7.66 45.788 0.706 6.57 4.51 11.42
10/22/2022 6:45:00 AM 7.63 45.734 0.691 6.57 4.33 11.44
10/22/2022 7:00:00 AM 7.61 45.698 0.72 6.57 4.33 11.44
10/22/2022 7:15:00 AM 7.59 45.662 0.707 6.57 4.31 11.45
10/22/2022 7:30:00 AM 7.56 45.608 0.713 6.57 4.34 11.47
10/22/2022 7:45:00 AM 7.54 45.572 0.712 6.57 4.28 11.49
10/22/2022 8:00:00 AM 7.53 45.554 0.705 6.57 4.36 11.51
10/22/2022 8:15:00 AM 7.51 45.518 0.703 6.58 4.33 11.54
10/22/2022 8:30:00 AM 7.5 45.5 0.7 6.58 4.32 11.56
10/22/2022 8:45:00 AM 7.49 45.482 0.708 6.58 4.32 11.58
10/22/2022 9:00:00 AM 7.49 45.482 0.711 6.58 4.26 11.6
10/22/2022 9:15:00 AM 7.48 45.464 0.706 6.59 4.32 11.62
10/22/2022 9:30:00 AM 7.48 45.464 0.707 6.59 4.32 11.63
10/22/2022 9:45:00 AM 7.49 45.482 0.703 6.6 4.31 11.65
10/22/2022 10:00:00 AM 7.53 45.554 0.71 6.6 4.28 11.69
10/22/2022 10:15:00 AM 7.61 45.698 0.705 6.61 4.26 11.71
10/22/2022 10:30:00 AM 7.71 45.878 0.683 6.62 4.5 11.72
10/22/2022 10:45:00 AM 7.83 46.094 0.68 6.63 4.37 11.71
10/22/2022 11:00:00 AM 7.96 46.328 0.694 6.64 4.2 11.7
10/22/2022 11:15:00 AM 8.11 46.598 0.687 6.65 4.13 11.68
10/22/2022 11:30:00 AM 8.26 46.868 0.683 6.65 4.16 11.67
10/22/2022 11:45:00 AM 8.42 47.156 0.681 6.66 4.15 11.64
10/22/2022 12:00:00 PM 8.58 47.444 0.672 6.67 4.19 11.61
10/22/2022 12:15:00 PM 8.76 47.768 0.672 6.67 4.09 11.58
10/22/2022 12:30:00 PM 8.92 48.056 0.679 6.68 4.09 11.54
10/22/2022 12:45:00 PM 9.09 48.362 0.671 6.68 4.07 11.51
10/22/2022 1:00:00 PM 9.26 48.668 0.67 6.69 4.01 11.47
10/22/2022 1:15:00 PM 9.37 48.866 0.671 6.69 4.01 11.41
10/22/2022 1:30:00 PM 9.49 49.082 0.667 6.69 3.93 11.37
10/22/2022 1:45:00 PM 9.6 49.28 0.669 6.69 3.98 11.31
10/22/2022 2:00:00 PM 9.7 49.46 0.674 6.69 3.96 11.25
10/22/2022 2:15:00 PM 9.78 49.604 0.658 6.68 4.01 11.21
10/22/2022 2:30:00 PM 9.86 49.748 0.658 6.68 3.96 11.16
10/22/2022 2:45:00 PM 9.95 49.91 0.657 6.68 4.01 11.11
10/22/2022 3:00:00 PM 10.05 50.09 0.662 6.68 3.99 11.07
10/22/2022 3:15:00 PM 10.14 50.252 0.663 6.68 3.92 11.02
10/22/2022 3:30:00 PM 10.2 50.36 0.663 6.68 3.83 10.99
10/22/2022 3:45:00 PM 10.23 50.414 0.667 6.68 3.96 10.97
10/22/2022 4:00:00 PM 10.24 50.432 0.659 6.67 3.99 10.93
10/22/2022 4:15:00 PM 10.24 50.432 0.662 6.67 4.01 10.92
10/22/2022 4:30:00 PM 10.23 50.414 0.663 6.66 3.99 10.9
10/22/2022 4:45:00 PM 10.23 50.414 0.663 6.66 4.09 10.88
10/22/2022 5:00:00 PM 10.21 50.378 0.666 6.66 4.03 10.86
10/22/2022 5:15:00 PM 10.19 50.342 0.664 6.66 4.1 10.85
10/22/2022 5:30:00 PM 10.17 50.306 0.664 6.65 4.05 10.83
10/22/2022 5:45:00 PM 10.15 50.27 0.664 6.64 4.01 10.82
10/22/2022 6:00:00 PM 10.12 50.216 0.669 6.64 3.96 10.81
10/22/2022 6:15:00 PM 10.09 50.162 0.67 6.63 3.95 10.8
10/22/2022 6:30:00 PM 10.06 50.108 0.671 6.62 3.97 10.78
10/22/2022 6:45:00 PM 10.02 50.036 0.67 6.62 3.97 10.78
10/22/2022 7:00:00 PM 9.98 49.964 0.672 6.62 3.92 10.78
10/22/2022 7:15:00 PM 9.94 49.892 0.669 6.62 3.97 10.79
10/22/2022 7:30:00 PM 9.9 49.82 0.668 6.62 3.93 10.8
10/22/2022 7:45:00 PM 9.85 49.73 0.67 6.61 4 10.82
10/22/2022 8:00:00 PM 9.81 49.658 0.656 6.62 4.09 10.82
10/22/2022 8:15:00 PM 9.76 49.568 0.649 6.61 4.08 10.83
10/22/2022 8:30:00 PM 9.72 49.496 0.651 6.61 4.04 10.84
10/22/2022 8:45:00 PM 9.67 49.406 0.651 6.61 4.11 10.87
10/22/2022 9:00:00 PM 9.62 49.316 0.655 6.61 4.13 10.88
10/22/2022 9:15:00 PM 9.57 49.226 0.658 6.61 4.14 10.89
10/22/2022 9:30:00 PM 9.53 49.154 0.657 6.6 4.15 10.9
10/22/2022 9:45:00 PM 9.48 49.064 0.673 6.6 4.2 10.91
10/22/2022 10:00:00 PM 9.43 48.974 0.663 6.6 4.16 10.93
10/22/2022 10:15:00 PM 9.38 48.884 0.665 6.6 4.13 10.95
10/22/2022 10:30:00 PM 9.33 48.794 0.666 6.6 4.17 10.96
10/22/2022 10:45:00 PM 9.28 48.704 0.669 6.6 4.18 10.97
10/22/2022 11:00:00 PM 9.24 48.632 0.669 6.59 4.15 10.99
10/22/2022 11:15:00 PM 9.19 48.542 0.669 6.59 4.14 11
10/22/2022 11:30:00 PM 9.14 48.452 0.668 6.59 4.34 11.02
10/22/2022 11:45:00 PM 9.1 48.38 0.669 6.59 4.22 11.03
10/23/2022 12:00:00 AM 9.06 48.308 0.669 6.59 4.11 11.05
10/23/2022 12:15:00 AM 9.01 48.218 0.667 6.59 4.06 11.05
10/23/2022 12:30:00 AM 8.97 48.146 0.67 6.59 4.28 11.07
10/23/2022 12:45:00 AM 8.93 48.074 0.666 6.59 4.33 11.08
10/23/2022 1:00:00 AM 8.89 48.002 0.668 6.59 3.9 11.09
10/23/2022 1:15:00 AM 8.85 47.93 0.669 6.59 3.97 11.1
10/23/2022 1:30:00 AM 8.81 47.858 0.668 6.59 3.95 11.11
10/23/2022 1:45:00 AM 8.77 47.786 0.666 6.58 4.18 11.13
10/23/2022 2:00:00 AM 8.73 47.714 0.667 6.58 4.01 11.14
10/23/2022 2:15:00 AM 8.69 47.642 0.668 6.58 4.06 11.15
10/23/2022 2:30:00 AM 8.65 47.57 0.668 6.58 4.16 11.16
10/23/2022 2:45:00 AM 8.61 47.498 0.665 6.58 4 11.17
10/23/2022 3:00:00 AM 8.57 47.426 0.666 6.58 3.84 11.18
10/23/2022 3:15:00 AM 8.53 47.354 0.665 6.58 3.85 11.19
10/23/2022 3:30:00 AM 8.5 47.3 0.667 6.58 3.95 11.21
10/23/2022 3:45:00 AM 8.46 47.228 0.668 6.58 3.9 11.21
10/23/2022 4:00:00 AM 8.43 47.174 0.664 6.58 3.9 11.24
10/23/2022 4:15:00 AM 8.39 47.102 0.665 6.57 4.02 11.24
10/23/2022 4:30:00 AM 8.36 47.048 0.668 6.57 3.93 11.25
10/23/2022 4:45:00 AM 8.32 46.976 0.667 6.57 4.03 11.27
10/23/2022 5:00:00 AM 8.29 46.922 0.664 6.57 3.92 11.27
10/23/2022 5:15:00 AM 8.25 46.85 0.666 6.57 3.92 11.29
10/23/2022 5:30:00 AM 8.22 46.796 0.665 6.57 4.07 11.3
10/23/2022 5:45:00 AM 8.19 46.742 0.664 6.57 4.06 11.31
10/23/2022 6:00:00 AM 8.16 46.688 0.659 6.56 4 11.31
10/23/2022 6:15:00 AM 8.12 46.616 0.655 6.56 4.11 11.33
10/23/2022 6:30:00 AM 8.09 46.562 0.654 6.56 4.07 11.34
10/23/2022 6:45:00 AM 8.06 46.508 0.655 6.56 4.08 11.35
10/23/2022 7:00:00 AM 8.03 46.454 0.655 6.56 4.08 11.36
10/23/2022 7:15:00 AM 8.01 46.418 0.653 6.56 4.1 11.37
10/23/2022 7:30:00 AM 7.98 46.364 0.648 6.56 4.11 11.38
10/23/2022 7:45:00 AM 7.95 46.31 0.644 6.56 4.13 11.4
10/23/2022 8:00:00 AM 7.92 46.256 0.643 6.56 4.16 11.42
10/23/2022 8:15:00 AM 7.91 46.238 0.642 6.57 4.15 11.46
10/23/2022 8:30:00 AM 7.91 46.238 0.645 6.58 4.07 11.51
10/23/2022 8:45:00 AM 7.91 46.238 0.653 6.58 3.93 11.56
10/23/2022 9:00:00 AM 7.92 46.256 0.65 6.59 4.09 11.6
10/23/2022 9:15:00 AM 7.93 46.274 0.65 6.59 3.95 11.61
10/23/2022 9:30:00 AM 7.94 46.292 0.651 6.6 8.04 11.62
10/23/2022 9:45:00 AM 7.97 46.346 0.646 6.6 4.18 11.64
10/23/2022 10:00:00 AM 8.01 46.418 0.646 6.61 3.94 11.64
10/23/2022 10:15:00 AM 8.08 46.544 0.644 6.62 3.83 11.64
10/23/2022 10:30:00 AM 8.17 46.706 0.641 6.63 3.78 11.65
10/23/2022 10:45:00 AM 8.28 46.904 0.635 6.64 3.79 11.65
10/23/2022 11:00:00 AM 8.41 47.138 0.632 6.65 3.75 11.64
10/23/2022 11:15:00 AM 8.56 47.408 0.626 6.66 3.79 11.64
10/23/2022 11:30:00 AM 8.72 47.696 0.627 6.67 3.74 11.63
10/23/2022 11:45:00 AM 8.87 47.966 0.625 6.68 3.72 11.61
10/23/2022 12:00:00 PM 9.1 48.38 0.625 6.69 3.67 11.6
10/23/2022 12:15:00 PM 9.26 48.668 0.622 6.69 3.67 11.56
10/23/2022 12:30:00 PM 9.44 48.992 0.62 6.7 3.66 11.52
10/23/2022 12:45:00 PM 9.65 49.37 0.619 6.7 3.7 11.46
10/23/2022 1:00:00 PM 9.81 49.658 0.617 6.7 3.62 11.41
10/23/2022 1:15:00 PM 9.92 49.856 0.615 6.7 3.65 11.34
10/23/2022 1:30:00 PM 10.07 50.126 0.607 6.7 3.66 11.3
10/23/2022 1:45:00 PM 10.18 50.324 0.62 6.7 3.62 11.25
10/23/2022 2:00:00 PM 10.25 50.45 0.614 6.71 3.66 11.22
10/23/2022 2:15:00 PM 10.32 50.576 0.613 6.71 3.63 11.19
10/23/2022 2:30:00 PM 10.41 50.738 0.62 6.72 3.58 11.17
10/23/2022 2:45:00 PM 10.48 50.864 0.621 6.72 3.59 11.13
10/23/2022 3:00:00 PM 10.53 50.954 0.635 6.71 3.8 11.07
10/23/2022 3:15:00 PM 10.58 51.044 0.633 6.7 3.66 11.02
10/23/2022 3:30:00 PM 10.62 51.116 0.632 6.71 3.63 11
10/23/2022 3:45:00 PM 10.64 51.152 0.632 6.7 3.64 10.98
10/23/2022 4:00:00 PM 10.67 51.206 0.636 6.68 3.66 10.95
10/23/2022 4:15:00 PM 10.69 51.242 0.635 6.68 3.63 10.93
10/23/2022 4:30:00 PM 10.7 51.26 0.638 6.67 3.62 10.91
10/23/2022 4:45:00 PM 10.72 51.296 0.638 6.67 3.77 10.88
10/23/2022 5:00:00 PM 10.73 51.314 0.635 6.66 3.77 10.84
10/23/2022 5:15:00 PM 10.73 51.314 0.636 6.65 3.67 10.8
10/23/2022 5:30:00 PM 10.73 51.314 0.638 6.63 3.69 10.73
10/23/2022 5:45:00 PM 10.73 51.314 0.632 6.62 3.64 10.69
10/23/2022 6:00:00 PM 10.73 51.314 0.634 6.61 3.75 10.68
10/23/2022 6:15:00 PM 10.73 51.314 0.624 6.61 3.72 10.64
10/23/2022 6:30:00 PM 10.73 51.314 0.622 6.6 3.79 10.61
10/23/2022 6:45:00 PM 10.72 51.296 0.547 6.59 3.66 10.61
10/23/2022 7:00:00 PM 10.72 51.296 0.548 6.59 3.68 10.61
10/23/2022 7:15:00 PM 10.71 51.278 0.509 6.59 3.77 10.6
10/23/2022 7:30:00 PM 10.7 51.26 0.513 6.59 3.66 10.58
10/23/2022 7:45:00 PM 10.7 51.26 0.506 6.58 3.74 10.59
10/23/2022 8:00:00 PM 10.69 51.242 0.497 6.58 3.74 10.59
10/23/2022 8:15:00 PM 10.68 51.224 0.523 6.58 4.03 10.59
10/23/2022 8:30:00 PM 10.66 51.188 0.49 6.57 4.06 10.59
10/23/2022 8:45:00 PM 10.65 51.17 0.498 6.57 3.82 10.6
10/23/2022 9:00:00 PM 10.64 51.152 0.467 6.57 3.39 10.59
10/23/2022 9:15:00 PM 10.63 51.134 0.508 6.56 3.36 10.6
10/23/2022 9:30:00 PM 10.62 51.116 0.517 6.56 3.53 10.6
10/23/2022 9:45:00 PM 10.6 51.08 0.504 6.57 3.6 10.6
10/23/2022 10:00:00 PM 10.59 51.062 0.545 6.56 4.23 10.6
10/23/2022 10:15:00 PM 10.58 51.044 0.553 6.56 3.98 10.61
10/23/2022 10:30:00 PM 10.57 51.026 0.543 6.56 3.44 10.61
10/23/2022 10:45:00 PM 10.56 51.008 0.516 6.55 3.39 10.62
10/23/2022 11:00:00 PM 10.55 50.99 0.491 6.55 3.34 10.62
10/23/2022 11:15:00 PM 10.54 50.972 0.487 6.56 3.36 10.62
10/23/2022 11:30:00 PM 10.53 50.954 0.475 6.57 3.29 10.62
10/23/2022 11:45:00 PM 10.52 50.936 0.463 6.57 3.32 10.62
10/24/2022 12:00:00 AM 10.51 50.918 0.471 6.56 3.25 10.63
10/24/2022 12:15:00 AM 10.51 50.918 0.469 6.57 3.32 10.63
10/24/2022 12:30:00 AM 10.5 50.9 0.472 6.57 3.25 10.63
10/24/2022 12:45:00 AM 10.5 50.9 0.433 6.58 3.35 10.63
10/24/2022 1:00:00 AM 10.49 50.882 0.376 6.58 3.62 10.63
10/24/2022 1:15:00 AM 10.49 50.882 0.468 6.57 3.66 10.63
10/24/2022 1:30:00 AM 10.49 50.882 0.483 6.56 3.66 10.63
10/24/2022 1:45:00 AM 10.48 50.864 0.491 6.56 3.58 10.63
10/24/2022 2:00:00 AM 10.48 50.864 0.498 6.57 3.6 10.63
10/24/2022 2:15:00 AM 10.48 50.864 0.443 6.58 3.66 10.63
10/24/2022 2:30:00 AM 10.48 50.864 0.452 6.57 3.61 10.63
10/24/2022 2:45:00 AM 10.48 50.864 0.483 6.57 3.6 10.63
10/24/2022 3:00:00 AM 10.48 50.864 0.495 6.56 3.63 10.62
10/24/2022 3:15:00 AM 10.48 50.864 0.505 6.56 3.63 10.62
10/24/2022 3:30:00 AM 10.48 50.864 0.53 6.56 3.65 10.62
10/24/2022 3:45:00 AM 10.49 50.882 0.527 6.56 3.66 10.61
10/24/2022 4:00:00 AM 10.49 50.882 0.528 6.56 3.62 10.61
10/24/2022 4:15:00 AM 10.49 50.882 0.517 6.56 3.67 10.62
10/24/2022 4:30:00 AM 10.5 50.9 0.52 6.56 3.64 10.61
10/24/2022 4:45:00 AM 10.5 50.9 0.52 6.55 3.66 10.6
10/24/2022 5:00:00 AM 10.5 50.9 0.502 6.54 3.65 10.6
10/24/2022 5:15:00 AM 10.51 50.918 0.506 6.54 3.69 10.6
10/24/2022 5:30:00 AM 10.51 50.918 0.504 6.54 3.63 10.6
10/24/2022 5:45:00 AM 10.51 50.918 0.492 6.54 3.71 10.6
10/24/2022 6:00:00 AM 10.52 50.936 0.495 6.54 3.68 10.59
10/24/2022 6:15:00 AM 10.52 50.936 0.494 6.53 3.69 10.58
10/24/2022 6:30:00 AM 10.52 50.936 0.496 6.53 3.65 10.58
10/24/2022 6:45:00 AM 10.52 50.936 0.495 6.53 3.69 10.58
10/24/2022 7:00:00 AM 10.53 50.954 0.498 6.53 3.7 10.59
10/24/2022 7:15:00 AM 10.53 50.954 0.533 6.53 4.83 10.58
10/24/2022 7:30:00 AM 10.53 50.954 0.54 6.53 3.82 10.58
10/24/2022 7:45:00 AM 10.54 50.972 0.541 6.53 3.72 10.58
10/24/2022 8:00:00 AM 10.54 50.972 0.54 6.53 3.73 10.6
10/24/2022 8:15:00 AM 10.55 50.99 0.526 6.53 3.71 10.62
10/24/2022 8:30:00 AM 10.56 51.008 0.454 6.54 3.75 10.64
10/24/2022 8:45:00 AM 10.57 51.026 0.498 6.54 3.74 10.65
10/24/2022 9:00:00 AM 10.58 51.044 0.503 6.54 3.7 10.68
10/24/2022 9:15:00 AM 10.59 51.062 0.505 6.55 3.74 10.71
10/24/2022 9:30:00 AM 10.61 51.098 0.509 6.56 3.77 10.73
10/24/2022 9:45:00 AM 10.63 51.134 0.509 6.57 3.67 10.78
10/24/2022 10:00:00 AM 10.66 51.188 0.504 6.58 3.74 10.82
10/24/2022 10:15:00 AM 10.69 51.242 0.502 6.58 3.69 10.85
10/24/2022 10:30:00 AM 10.73 51.314 0.504 6.6 3.69 10.89
10/24/2022 10:45:00 AM 10.76 51.368 0.499 6.61 3.66 10.9
10/24/2022 11:00:00 AM 10.79 51.422 0.488 6.61 3.73 10.88
10/24/2022 11:15:00 AM 10.85 51.53 0.483 6.64 3.8 10.92
10/24/2022 11:30:00 AM 10.9 51.62 0.485 6.66 3.74 10.93
10/24/2022 11:45:00 AM 10.94 51.692 0.444 6.66 3.62 10.94
10/24/2022 12:00:00 PM 10.99 51.782 0.436 6.67 3.65 10.94
10/24/2022 12:15:00 PM 11.05 51.89 0.44 6.67 3.73 10.95
10/24/2022 12:30:00 PM 11.12 52.016 0.428 6.68 3.66 10.97
10/24/2022 12:45:00 PM 11.18 52.124 0.434 6.69 3.61 10.94
10/24/2022 1:00:00 PM 11.26 52.268 0.446 6.71 3.63 10.96
10/24/2022 1:15:00 PM 11.32 52.376 0.48 6.73 3.59 10.93
10/24/2022 1:30:00 PM 11.37 52.466 0.485 6.73 3.66 10.9
10/24/2022 1:45:00 PM 11.45 52.61 0.491 6.72 3.6 10.9
10/24/2022 2:00:00 PM 11.51 52.718 0.496 6.72 3.55 10.87
10/24/2022 2:15:00 PM 11.55 52.79 0.487 6.71 3.55 10.82
10/24/2022 2:30:00 PM 11.57 52.826 0.491 6.7 3.5 10.77
10/24/2022 2:45:00 PM 11.59 52.862 0.489 6.69 3.59 10.73
10/24/2022 3:00:00 PM 11.62 52.916 0.477 6.7 3.5 10.71
10/24/2022 3:15:00 PM 11.65 52.97 0.496 6.7 3.55 10.7
10/24/2022 3:30:00 PM 11.68 53.024 0.48 6.7 3.51 10.7
10/24/2022 3:45:00 PM 11.7 53.06 0.416 6.7 3.76 10.68
10/24/2022 4:00:00 PM 11.72 53.096 0.378 6.7 3.44 10.67
10/24/2022 4:15:00 PM 11.73 53.114 0.368 6.71 3.5 10.64
10/24/2022 4:30:00 PM 11.74 53.132 0.4 6.7 3.52 10.6
10/24/2022 4:45:00 PM 11.75 53.15 0.38 6.69 3.5 10.58
10/24/2022 5:00:00 PM 11.75 53.15 0.381 6.68 3.53 10.55
10/24/2022 5:15:00 PM 11.75 53.15 0.154 6.7 4.65 10.49
10/24/2022 5:30:00 PM 11.73 53.114 0.307 6.67 3.78 10.44
10/24/2022 5:45:00 PM 11.72 53.096 0.337 6.65 3.83 10.4
10/24/2022 6:00:00 PM 11.7 53.06 0.431 6.63 4.24 10.36
10/24/2022 6:15:00 PM 11.69 53.042 0.418 6.62 4.26 10.34
10/24/2022 6:30:00 PM 11.67 53.006 0.281 6.62 4.45 10.32
10/24/2022 6:45:00 PM 11.65 52.97 0.359 6.6 4.28 10.31
10/24/2022 7:00:00 PM 11.64 52.952 0.427 6.59 4.33 10.3
10/24/2022 7:15:00 PM 11.62 52.916 0.443 6.58 4.34 10.3
10/24/2022 7:30:00 PM 11.61 52.898 0.374 6.58 4.32 10.29
10/24/2022 7:45:00 PM 11.59 52.862 0.366 6.56 4.26 10.3
10/24/2022 8:00:00 PM 11.57 52.826 0.346 6.57 4.32 10.3
10/24/2022 8:15:00 PM 11.54 52.772 0.427 6.56 4.29 10.3
10/24/2022 8:30:00 PM 11.52 52.736 0.444 6.55 4.69 10.31
10/24/2022 8:45:00 PM 11.51 52.718 0.445 6.55 4.32 10.31
10/24/2022 9:00:00 PM 11.49 52.682 0.375 6.56 4.75 10.31
10/24/2022 9:15:00 PM 11.46 52.628 0.36 6.56 4.43 10.32
10/24/2022 9:30:00 PM 11.44 52.592 0.38 6.56 4.33 10.32
10/24/2022 9:45:00 PM 11.41 52.538 0.479 6.56 4.35 10.32
10/24/2022 10:00:00 PM 11.39 52.502 0.49 6.56 4.32 10.33
10/24/2022 10:15:00 PM 11.38 52.484 0.484 6.56 4.98 10.33
10/24/2022 10:30:00 PM 11.37 52.466 0.449 6.56 4.85 10.34
10/24/2022 10:45:00 PM 11.36 52.448 0.463 6.57 4.29 10.34
10/24/2022 11:00:00 PM 11.35 52.43 0.413 6.57 4.28 10.35
10/24/2022 11:15:00 PM 11.34 52.412 0.438 6.57 4.3 10.35
10/24/2022 11:30:00 PM 11.33 52.394 0.316 6.58 4.26 10.35
10/24/2022 11:45:00 PM 11.32 52.376 0.248 6.58 4.37 10.35
10/25/2022 12:00:00 AM 11.32 52.376 0.271 6.57 4.59 10.36
10/25/2022 12:15:00 AM 11.31 52.358 0.297 6.57 4.54 10.36
10/25/2022 12:30:00 AM 11.31 52.358 0.292 6.57 4.51 10.36
10/25/2022 12:45:00 AM 11.3 52.34 0.285 6.57 4.61 10.36
10/25/2022 1:00:00 AM 11.29 52.322 0.355 6.56 4.67 10.36
10/25/2022 1:15:00 AM 11.29 52.322 0.36 6.56 4.7 10.36
10/25/2022 1:30:00 AM 11.28 52.304 0.327 6.55 4.67 10.36
10/25/2022 1:45:00 AM 11.28 52.304 0.366 6.55 4.97 10.36
10/25/2022 2:00:00 AM 11.27 52.286 0.374 6.55 4.96 10.36
10/25/2022 2:15:00 AM 11.27 52.286 0.367 6.55 4.93 10.36
10/25/2022 2:30:00 AM 11.26 52.268 0.324 6.55 4.98 10.36
10/25/2022 2:45:00 AM 11.26 52.268 0.298 6.55 4.96 10.37
10/25/2022 3:00:00 AM 11.26 52.268 0.262 6.55 4.88 10.37
10/25/2022 3:15:00 AM 11.26 52.268 0.216 6.56 4.99 10.37
10/25/2022 3:30:00 AM 11.25 52.25 0.231 6.56 4.92 10.37
10/25/2022 3:45:00 AM 11.25 52.25 0.215 6.55 4.92 10.37
10/25/2022 4:00:00 AM 11.25 52.25 0.237 6.55 4.77 10.36
10/25/2022 4:15:00 AM 11.25 52.25 0.209 6.55 4.72 10.36
10/25/2022 4:30:00 AM 11.25 52.25 0.216 6.55 4.92 10.37
10/25/2022 4:45:00 AM 11.25 52.25 0.228 6.54 4.93 10.35
10/25/2022 5:00:00 AM 11.25 52.25 0.232 6.54 4.7 10.35
10/25/2022 5:15:00 AM 11.25 52.25 0.246 6.54 4.75 10.36
10/25/2022 5:30:00 AM 11.25 52.25 0.533 6.51 4.91 10.34
10/25/2022 5:45:00 AM 11.25 52.25 0.655 6.49 4.91 10.33
10/25/2022 6:00:00 AM 11.25 52.25 0.678 6.49 4.9 10.33
10/25/2022 6:15:00 AM 11.25 52.25 0.638 6.49 4.93 10.33
10/25/2022 6:30:00 AM 11.25 52.25 0.529 6.5 4.98 10.33
10/25/2022 6:45:00 AM 11.25 52.25 0.561 6.5 4.94 10.33
10/25/2022 7:00:00 AM 11.24 52.232 0.552 6.49 4.97 10.33
10/25/2022 7:15:00 AM 11.24 52.232 0.47 6.5 4.9 10.33
10/25/2022 7:30:00 AM 11.24 52.232 0.501 6.49 4.94 10.33
10/25/2022 7:45:00 AM 11.25 52.25 0.572 6.48 4.94 10.35
10/25/2022 8:00:00 AM 11.25 52.25 0.592 6.49 4.92 10.36
10/25/2022 8:15:00 AM 11.25 52.25 0.581 6.49 4.92 10.39
10/25/2022 8:30:00 AM 11.26 52.268 0.648 6.49 4.88 10.43
10/25/2022 8:45:00 AM 11.28 52.304 0.773 6.48 4.94 10.47
10/25/2022 9:00:00 AM 11.29 52.322 0.74 6.49 4.89 10.5
10/25/2022 9:15:00 AM 11.31 52.358 0.72 6.51 3.64 10.55
10/25/2022 9:30:00 AM 11.33 52.394 0.717 6.52 4.68 10.56
10/25/2022 9:45:00 AM 11.36 52.448 0.714 6.53 4.73 10.6
10/25/2022 10:00:00 AM 11.39 52.502 0.683 6.55 4.84 10.64
10/25/2022 10:15:00 AM 11.42 52.556 0.687 6.55 4.76 10.63
10/25/2022 10:30:00 AM 11.44 52.592 0.666 6.56 4.88 10.63
10/25/2022 10:45:00 AM 11.47 52.646 0.687 6.57 4.85 10.63
10/25/2022 11:00:00 AM 11.5 52.7 0.695 6.59 4.83 10.63
10/25/2022 11:15:00 AM 11.53 52.754 0.673 6.59 4.92 10.64
10/25/2022 11:30:00 AM 11.58 52.844 0.701 6.61 4.82 10.69
10/25/2022 11:45:00 AM 11.63 52.934 0.704 6.63 4.79 10.72
10/25/2022 12:00:00 PM 11.68 53.024 0.675 6.66 4.89 10.73
10/25/2022 12:15:00 PM 11.71 53.078 0.671 6.66 92.09 10.7
10/25/2022 12:30:00 PM 11.78 53.204 0.685 6.66 4.52 10.72
10/25/2022 12:45:00 PM 11.86 53.348 0.665 6.67 2.49 10.74
10/25/2022 1:00:00 PM 11.91 53.438 0.645 6.68 167.75 10.71
10/25/2022 1:15:00 PM 11.95 53.51 0.65 6.66 7.85 10.66
10/25/2022 1:30:00 PM 12 53.6 0.694 6.66 6.96 10.66
10/25/2022 1:45:00 PM 12.03 53.654 0.709 6.67 4.31 10.61
10/25/2022 2:00:00 PM 12.05 53.69 0.707 6.65 4.55 10.55
10/25/2022 2:15:00 PM 12.07 53.726 0.692 6.65 4.75 10.51
10/25/2022 2:30:00 PM 12.1 53.78 0.689 6.65 4.95 10.51
10/25/2022 2:45:00 PM 12.11 53.798 0.717 6.64 4.71 10.46
10/25/2022 3:00:00 PM 12.12 53.816 0.717 6.63 4.66 10.44
10/25/2022 3:15:00 PM 12.15 53.87 0.771 6.64 4.72 10.41
10/25/2022 3:30:00 PM 12.18 53.924 0.773 6.64 4.82 10.41
10/25/2022 3:45:00 PM 12.2 53.96 0.799 6.64 2.33 10.4
10/25/2022 4:00:00 PM 12.2 53.96 0.753 6.63 2.41 10.36
10/25/2022 4:15:00 PM 12.2 53.96 0.716 6.62 2.38 10.33
10/25/2022 4:30:00 PM 12.19 53.942 0.672 6.61 2.34 10.28
10/25/2022 4:45:00 PM 12.19 53.942 0.758 6.59 2.55 10.24
10/25/2022 5:00:00 PM 12.18 53.924 0.703 6.59 2.59 10.21
10/25/2022 5:15:00 PM 12.18 53.924 0.68 6.58 2.55 10.18
10/25/2022 5:30:00 PM 12.17 53.906 0.738 6.57 2.57 10.16
10/25/2022 5:45:00 PM 12.15 53.87 0.726 6.56 2.56 10.14
10/25/2022 6:00:00 PM 12.14 53.852 0.741 6.56 2.55 10.13
10/25/2022 6:15:00 PM 12.12 53.816 0.732 6.55 2.58 10.11
10/25/2022 6:30:00 PM 12.11 53.798 0.717 6.55 2.55 10.11
10/25/2022 6:45:00 PM 12.1 53.78 0.718 6.54 2.54 10.1
10/25/2022 7:00:00 PM 12.08 53.744 0.686 6.54 2.56 10.1
10/25/2022 7:15:00 PM 12.07 53.726 0.696 6.54 2.55 10.1
10/25/2022 7:30:00 PM 12.07 53.726 0.702 6.54 2.57 10.1
10/25/2022 7:45:00 PM 12.07 53.726 0.667 6.55 2.57 10.1
10/25/2022 8:00:00 PM 12.07 53.726 0.67 6.54 2.58 10.1
10/25/2022 8:15:00 PM 12.07 53.726 0.695 6.57 2.54 10.1
10/25/2022 8:30:00 PM 12.08 53.744 0.687 6.57 2.59 10.09
10/25/2022 8:45:00 PM 12.08 53.744 0.7 6.57 2.63 10.1
10/25/2022 9:00:00 PM 12.08 53.744 0.709 6.57 2.56 10.1
10/25/2022 9:15:00 PM 12.08 53.744 0.695 6.57 2.6 10.1
10/25/2022 9:30:00 PM 12.09 53.762 0.712 6.57 2.58 10.09
10/25/2022 9:45:00 PM 12.09 53.762 0.698 6.56 2.61 10.09
10/25/2022 10:00:00 PM 12.09 53.762 0.662 6.57 2.58 10.09
10/25/2022 10:15:00 PM 12.1 53.78 0.68 6.57 2.59 10.09
10/25/2022 10:30:00 PM 12.1 53.78 0.611 6.58 2.6 10.09
10/25/2022 10:45:00 PM 12.09 53.762 0.712 6.57 2.57 10.08
10/25/2022 11:00:00 PM 12.1 53.78 0.697 6.57 2.58 10.08
10/25/2022 11:15:00 PM 12.1 53.78 0.672 6.55 2.82 10.08
10/25/2022 11:30:00 PM 12.1 53.78 0.692 6.56 2.85 10.08
10/25/2022 11:45:00 PM 12.09 53.762 0.696 6.56 2.62 10.08
10/26/2022 12:00:00 AM 12.1 53.78 0.667 6.57 2.65 10.08
10/26/2022 12:15:00 AM 12.1 53.78 0.689 6.55 2.61 10.07
10/26/2022 12:30:00 AM 12.09 53.762 0.676 6.55 2.58 10.07
10/26/2022 12:45:00 AM 12.08 53.744 0.672 6.55 2.61 10.06
10/26/2022 1:00:00 AM 12.07 53.726 0.669 6.54 2.59 10.07
10/26/2022 1:15:00 AM 12.06 53.708 0.703 6.53 2.6 10.07
10/26/2022 1:30:00 AM 12.05 53.69 0.664 6.54 2.58 10.07
10/26/2022 1:45:00 AM 12.04 53.672 0.642 6.54 2.62 10.07
10/26/2022 2:00:00 AM 12.02 53.636 0.669 6.54 2.64 10.07
10/26/2022 2:15:00 AM 12 53.6 0.645 6.54 2.61 10.08
10/26/2022 2:30:00 AM 11.98 53.564 0.65 6.54 2.63 10.08
10/26/2022 2:45:00 AM 11.97 53.546 0.605 6.54 2.61 10.08
10/26/2022 3:00:00 AM 11.96 53.528 0.627 6.54 2.59 10.08
10/26/2022 3:15:00 AM 11.94 53.492 0.604 6.54 2.82 10.08
10/26/2022 3:30:00 AM 11.93 53.474 0.679 6.54 2.85 10.08
10/26/2022 3:45:00 AM 11.92 53.456 0.689 6.53 2.84 10.08
10/26/2022 4:00:00 AM 11.91 53.438 0.655 6.53 2.82 10.08
10/26/2022 4:15:00 AM 11.9 53.42 0.648 6.53 2.87 10.09
10/26/2022 4:30:00 AM 11.88 53.384 0.66 6.52 2.92 10.08
10/26/2022 4:45:00 AM 11.87 53.366 0.598 6.53 2.92 10.09
10/26/2022 5:00:00 AM 11.85 53.33 0.617 6.54 2.94 10.09
10/26/2022 5:15:00 AM 11.84 53.312 0.597 6.56 2.93 10.09
10/26/2022 5:30:00 AM 11.82 53.276 0.588 6.57 2.94 10.1
10/26/2022 5:45:00 AM 11.81 53.258 0.647 6.56 246.12 10.1
10/26/2022 6:00:00 AM 11.81 53.258 0.655 6.56 114.14 10.1
10/26/2022 6:15:00 AM 11.8 53.24 0.615 6.57 131.43 10.11
10/26/2022 6:30:00 AM 11.8 53.24 0.658 6.57 5.95 10.1
10/26/2022 6:45:00 AM 11.8 53.24 0.66 6.57 87.95 10.1
10/26/2022 7:00:00 AM 11.79 53.222 0.666 6.57 8.58 10.11
10/26/2022 7:15:00 AM 11.79 53.222 0.665 6.57 3.04 10.11
10/26/2022 7:30:00 AM 11.78 53.204 0.641 6.58 2.97 10.11
10/26/2022 7:45:00 AM 11.78 53.204 0.646 6.58 2.93 10.12
10/26/2022 8:00:00 AM 11.78 53.204 0.619 6.58 2.93 10.15
10/26/2022 8:15:00 AM 11.78 53.204 0.656 6.59 2.9 10.18
10/26/2022 8:30:00 AM 11.77 53.186 0.648 6.59 2.91 10.19
10/26/2022 8:45:00 AM 11.77 53.186 0.661 6.6 2.85 10.24
10/26/2022 9:00:00 AM 11.77 53.186 0.663 6.6 2.86 10.26
10/26/2022 9:15:00 AM 11.77 53.186 0.604 6.62 2.9 10.32
10/26/2022 9:30:00 AM 11.79 53.222 0.597 6.63 2.88 10.37
10/26/2022 9:45:00 AM 11.83 53.294 0.667 6.65 2.87 10.44
10/26/2022 10:00:00 AM 11.87 53.366 0.683 6.66 2.92 10.47
10/26/2022 10:15:00 AM 11.88 53.384 0.668 6.66 2.87 10.46
10/26/2022 10:30:00 AM 11.91 53.438 0.674 6.66 2.88 10.47
10/26/2022 10:45:00 AM 11.95 53.51 0.356 6.68 2.88 10.52
10/26/2022 11:00:00 AM 12 53.6 0.642 6.67 2.91 10.52
10/26/2022 11:15:00 AM 12.03 53.654 0.653 6.67 2.87 10.52
10/26/2022 11:30:00 AM 12.09 53.762 0.639 6.67 2.9 10.52
10/26/2022 11:45:00 AM 12.09 53.762 0.642 6.67 2.87 10.46
10/26/2022 12:00:00 PM 12.15 53.87 0.64 6.67 2.87 10.51
10/26/2022 12:15:00 PM 12.19 53.942 0.634 6.69 2.88 10.51
10/26/2022 12:30:00 PM 12.22 53.996 0.647 6.69 2.85 10.47
10/26/2022 12:45:00 PM 12.25 54.05 0.651 6.69 2.86 10.44
10/26/2022 1:00:00 PM 12.27 54.086 0.624 6.67 2.88 10.37
10/26/2022 1:15:00 PM 12.29 54.122 0.626 6.66 2.89 10.35
10/26/2022 1:30:00 PM 12.33 54.194 0.645 6.67 2.9 10.39
10/26/2022 1:45:00 PM 12.35 54.23 0.645 6.66 2.84 10.36
10/26/2022 2:00:00 PM 12.37 54.266 0.664 6.66 2.85 10.35
10/26/2022 2:15:00 PM 12.4 54.32 0.662 6.67 3.27 10.36
10/26/2022 2:30:00 PM 12.42 54.356 1.021 6.63 3.31 10.33
10/26/2022 2:45:00 PM 12.46 54.428 0.995 6.65 3.22 10.36
10/26/2022 3:00:00 PM 12.48 54.464 0.988 6.65 3.38 10.32
10/26/2022 3:15:00 PM 12.46 54.428 0.988 6.62 2.85 10.16
10/26/2022 3:30:00 PM 12.45 54.41 0.987 6.6 2.86 10.09
10/26/2022 3:45:00 PM 12.45 54.41 0.966 6.6 2.9 10.08
10/26/2022 4:00:00 PM 12.44 54.392 0.932 6.58 2.86 10.08
10/26/2022 4:15:00 PM 12.43 54.374 0.934 6.59 2.85 10.07
10/26/2022 4:30:00 PM 12.42 54.356 0.909 6.59 2.87 10.07
10/26/2022 4:45:00 PM 12.41 54.338 0.905 6.58 2.83 10.04
10/26/2022 5:00:00 PM 12.4 54.32 1.058 6.57 2.83 10.06
10/26/2022 5:15:00 PM 12.38 54.284 1.141 6.55 2.89 10.04
10/26/2022 5:30:00 PM 12.37 54.266 1.196 6.54 2.87 10.01
10/26/2022 5:45:00 PM 12.35 54.23 1.204 6.53 2.81 9.98
10/26/2022 6:00:00 PM 12.33 54.194 1.183 6.53 2.88 9.96
10/26/2022 6:15:00 PM 12.31 54.158 1.188 6.53 2.84 9.95
10/26/2022 6:30:00 PM 12.29 54.122 1.177 6.53 2.82 9.95
10/26/2022 6:45:00 PM 12.27 54.086 1.185 6.54 2.84 9.95
10/26/2022 7:00:00 PM 12.25 54.05 1.167 6.54 2.86 9.95
10/26/2022 7:15:00 PM 12.24 54.032 1.152 6.53 2.83 9.95
10/26/2022 7:30:00 PM 12.22 53.996 1.165 6.53 2.86 9.95
10/26/2022 7:45:00 PM 12.2 53.96 1.198 6.53 2.85 9.95
10/26/2022 8:00:00 PM 12.18 53.924 1.156 6.53 2.82 9.96
10/26/2022 8:15:00 PM 12.15 53.87 1.17 6.52 2.84 9.97
10/26/2022 8:30:00 PM 12.13 53.834 1.182 6.52 2.88 9.97
10/26/2022 8:45:00 PM 12.12 53.816 1.143 6.52 2.81 9.98
10/26/2022 9:00:00 PM 12.1 53.78 1.149 6.52 2.86 9.98
10/26/2022 9:15:00 PM 12.09 53.762 1.145 6.51 2.85 10
10/26/2022 9:30:00 PM 12.08 53.744 1.141 6.52 2.82 9.99
10/26/2022 9:45:00 PM 12.06 53.708 1.143 6.51 2.84 10
10/26/2022 10:00:00 PM 12.05 53.69 1.148 6.52 2.84 10.01
10/26/2022 10:15:00 PM 12.04 53.672 1.164 6.52 2.86 10.01
10/26/2022 10:30:00 PM 12.03 53.654 1.154 6.51 2.87 10.02
10/26/2022 10:45:00 PM 12.02 53.636 1.151 6.52 2.81 10.02
10/26/2022 11:00:00 PM 12 53.6 1.138 6.52 2.91 10.02
10/26/2022 11:15:00 PM 11.98 53.564 1.158 6.51 2.83 10.03
10/26/2022 11:30:00 PM 11.95 53.51 1.161 6.51 2.93 10.04
10/26/2022 11:45:00 PM 11.92 53.456 1.163 6.51 2.88 10.05
10/27/2022 12:00:00 AM 11.88 53.384 1.168 6.52 2.9 10.06
10/27/2022 12:15:00 AM 11.85 53.33 1.138 6.52 2.89 10.06
10/27/2022 12:30:00 AM 11.82 53.276 1.142 6.52 2.88 10.07
10/27/2022 12:45:00 AM 11.81 53.258 1.144 6.53 2.88 10.08
10/27/2022 1:00:00 AM 11.79 53.222 1.144 6.53 2.81 10.09
10/27/2022 1:15:00 AM 11.78 53.204 1.145 6.52 2.82 10.1
10/27/2022 1:30:00 AM 11.77 53.186 1.142 6.52 2.92 10.1
10/27/2022 1:45:00 AM 11.74 53.132 1.141 6.53 2.86 10.11
10/27/2022 2:00:00 AM 11.72 53.096 1.137 6.52 2.88 10.12
10/27/2022 2:15:00 AM 11.7 53.06 1.138 6.52 2.88 10.12
10/27/2022 2:30:00 AM 11.68 53.024 1.14 6.53 2.84 10.13
10/27/2022 2:45:00 AM 11.65 52.97 1.142 6.54 2.86 10.13
10/27/2022 3:00:00 AM 11.63 52.934 1.141 6.54 2.84 10.15
10/27/2022 3:15:00 AM 11.61 52.898 1.14 6.53 2.89 10.15
10/27/2022 3:30:00 AM 11.58 52.844 1.116 6.53 2.95 10.16
10/27/2022 3:45:00 AM 11.55 52.79 1.12 6.53 2.93 10.17
10/27/2022 4:00:00 AM 11.53 52.754 1.126 6.54 2.97 10.18
10/27/2022 4:15:00 AM 11.5 52.7 1.125 6.54 3.25 10.19
10/27/2022 4:30:00 AM 11.48 52.664 1.133 6.53 2.83 10.2
10/27/2022 4:45:00 AM 11.44 52.592 1.141 6.53 2.87 10.2
10/27/2022 5:00:00 AM 11.42 52.556 1.14 6.53 2.87 10.21
10/27/2022 5:15:00 AM 11.39 52.502 1.147 6.53 2.86 10.22
10/27/2022 5:30:00 AM 11.36 52.448 1.146 6.53 2.88 10.22
10/27/2022 5:45:00 AM 11.33 52.394 1.148 6.53 2.85 10.23
10/27/2022 6:00:00 AM 11.29 52.322 1.151 6.54 2.88 10.25
10/27/2022 6:15:00 AM 11.26 52.268 1.149 6.53 2.87 10.26
10/27/2022 6:30:00 AM 11.24 52.232 1.158 6.51 2.88 10.25
10/27/2022 6:45:00 AM 11.22 52.196 1.157 6.52 2.87 10.27
10/27/2022 7:00:00 AM 11.19 52.142 1.151 6.51 2.86 10.27
10/27/2022 7:15:00 AM 11.15 52.07 1.15 6.51 2.84 10.29
10/27/2022 7:30:00 AM 11.11 51.998 1.153 6.52 2.86 10.3
10/27/2022 7:45:00 AM 11.07 51.926 1.15 6.52 2.85 10.34
10/27/2022 8:00:00 AM 11.02 51.836 1.148 6.53 2.89 10.36
10/27/2022 8:15:00 AM 11 51.8 1.145 6.52 2.87 10.41
10/27/2022 8:30:00 AM 10.98 51.764 1.147 6.54 2.84 10.48
10/27/2022 8:45:00 AM 10.96 51.728 1.147 6.55 2.87 10.54
10/27/2022 9:00:00 AM 10.94 51.692 1.142 6.56 2.89 10.61
10/27/2022 9:15:00 AM 10.93 51.674 1.139 6.56 2.92 10.65
10/27/2022 9:30:00 AM 10.89 51.602 1.143 6.57 2.87 10.67
10/27/2022 9:45:00 AM 10.85 51.53 1.143 6.56 2.88 10.64
10/27/2022 10:00:00 AM 10.82 51.476 1.135 6.56 2.89 10.67
10/27/2022 10:15:00 AM 10.82 51.476 1.136 6.58 2.88 10.72
10/27/2022 10:30:00 AM 10.82 51.476 1.137 6.58 2.88 10.75
10/27/2022 10:45:00 AM 10.85 51.53 1.135 6.59 2.94 10.77
10/27/2022 11:00:00 AM 10.89 51.602 1.126 6.6 2.9 10.79
10/27/2022 11:15:00 AM 10.94 51.692 1.124 6.6 2.93 10.8
10/27/2022 11:30:00 AM 10.98 51.764 1.124 6.6 2.87 10.81
10/27/2022 11:45:00 AM 11.02 51.836 1.126 6.61 2.88 10.81
10/27/2022 12:00:00 PM 11.08 51.944 1.147 6.6 2.81 10.82
10/27/2022 12:15:00 PM 11.16 52.088 1.145 6.61 2.85 10.82
10/27/2022 12:30:00 PM 11.24 52.232 1.129 6.63 2.84 10.83
10/27/2022 12:45:00 PM 11.32 52.376 1.126 6.63 2.82 10.83
10/27/2022 1:00:00 PM 11.42 52.556 1.13 6.63 2.84 10.83
10/27/2022 1:15:00 PM 11.47 52.646 1.124 6.63 2.88 10.79
10/27/2022 1:30:00 PM 11.51 52.718 1.116 6.63 2.86 10.75
10/27/2022 1:45:00 PM 11.54 52.772 1.121 6.63 2.82 10.72
10/27/2022 2:00:00 PM 11.56 52.808 1.12 6.63 2.88 10.67
10/27/2022 2:15:00 PM 11.57 52.826 1.122 6.62 2.84 10.64
10/27/2022 2:30:00 PM 11.56 52.808 1.092 6.62 2.82 10.61
10/27/2022 2:45:00 PM 11.58 52.844 1.107 6.61 2.79 10.58
10/27/2022 3:00:00 PM 11.62 52.916 1.112 6.61 2.82 10.57
10/27/2022 3:15:00 PM 11.66 52.988 1.11 6.6 2.81 10.54
10/27/2022 3:30:00 PM 11.68 53.024 1.114 6.59 2.84 10.52
10/27/2022 3:45:00 PM 11.66 52.988 1.121 6.6 2.82 10.5
10/27/2022 4:00:00 PM 11.61 52.898 1.121 6.59 2.81 10.46
10/27/2022 4:15:00 PM 11.54 52.772 1.126 6.58 2.89 10.45
10/27/2022 4:30:00 PM 11.51 52.718 1.126 6.58 2.8 10.45
10/27/2022 4:45:00 PM 11.46 52.628 1.127 6.57 2.82 10.45
10/27/2022 5:00:00 PM 11.41 52.538 1.132 6.57 2.91 10.45
10/27/2022 5:15:00 PM 11.35 52.43 1.132 6.56 2.86 10.44
10/27/2022 5:30:00 PM 11.29 52.322 1.137 6.55 2.86 10.42
10/27/2022 5:45:00 PM 11.23 52.214 1.133 6.55 2.84 10.42
10/27/2022 6:00:00 PM 11.17 52.106 1.126 6.55 2.87 10.41
10/27/2022 6:15:00 PM 11.11 51.998 1.129 6.54 2.85 10.39
10/27/2022 6:30:00 PM 11.06 51.908 1.127 6.53 2.84 10.39
10/27/2022 6:45:00 PM 11 51.8 1.132 6.53 2.84 10.4
10/27/2022 7:00:00 PM 10.94 51.692 1.131 6.53 2.91 10.4
10/27/2022 7:15:00 PM 10.87 51.566 1.131 6.53 2.84 10.43
10/27/2022 7:30:00 PM 10.81 51.458 1.134 6.52 2.86 10.44
10/27/2022 7:45:00 PM 10.74 51.332 1.134 6.52 2.87 10.45
10/27/2022 8:00:00 PM 10.67 51.206 1.131 6.52 2.86 10.48
10/27/2022 8:15:00 PM 10.61 51.098 1.131 6.51 2.9 10.49
10/27/2022 8:30:00 PM 10.55 50.99 1.135 6.5 2.86 10.51
10/27/2022 8:45:00 PM 10.48 50.864 1.132 6.5 2.9 10.53
10/27/2022 9:00:00 PM 10.42 50.756 1.133 6.5 2.91 10.55
10/27/2022 9:15:00 PM 10.36 50.648 1.144 6.49 2.88 10.56
10/27/2022 9:30:00 PM 10.3 50.54 1.135 6.48 2.89 10.58
10/27/2022 9:45:00 PM 10.24 50.432 1.135 6.48 2.9 10.6
10/27/2022 10:00:00 PM 10.19 50.342 1.126 6.47 2.88 10.62
10/27/2022 10:15:00 PM 10.13 50.234 1.124 6.46 2.87 10.63
10/27/2022 10:30:00 PM 10.07 50.126 1.128 6.47 2.9 10.65
10/27/2022 10:45:00 PM 10.01 50.018 1.127 6.46 2.9 10.68
10/27/2022 11:00:00 PM 9.95 49.91 1.128 6.45 2.87 10.69
10/27/2022 11:15:00 PM 9.89 49.802 1.125 6.44 2.89 10.71
10/27/2022 11:30:00 PM 9.84 49.712 1.126 6.44 2.88 10.73
10/27/2022 11:45:00 PM 9.8 49.64 1.124 6.43 2.88 10.74
10/28/2022 12:00:00 AM 9.75 49.55 1.125 6.43 2.91 10.76
10/28/2022 12:15:00 AM 9.72 49.496 1.113 6.44 2.87 10.77
10/28/2022 12:30:00 AM 9.69 49.442 1.11 6.44 2.86 10.77
10/28/2022 12:45:00 AM 9.65 49.37 1.116 6.44 2.88 10.79
10/28/2022 1:00:00 AM 9.61 49.298 1.106 6.44 2.89 10.81
10/28/2022 1:15:00 AM 9.56 49.208 1.105 6.44 2.88 10.82
10/28/2022 1:30:00 AM 9.52 49.136 1.11 6.45 2.89 10.82
10/28/2022 1:45:00 AM 9.48 49.064 1.108 6.45 2.92 10.85
10/28/2022 2:00:00 AM 9.44 48.992 1.103 6.45 2.94 10.85
10/28/2022 2:15:00 AM 9.4 48.92 1.102 6.45 2.88 10.87
10/28/2022 2:30:00 AM 9.37 48.866 1.103 6.46 2.9 10.88
10/28/2022 2:45:00 AM 9.33 48.794 1.102 6.46 2.92 10.89
10/28/2022 3:00:00 AM 9.29 48.722 1.098 6.46 2.93 10.9
10/28/2022 3:15:00 AM 9.24 48.632 1.098 6.46 2.91 10.92
10/28/2022 3:30:00 AM 9.19 48.542 1.098 6.46 2.89 10.93
10/28/2022 3:45:00 AM 9.15 48.47 1.097 6.47 2.9 10.95
10/28/2022 4:00:00 AM 9.1 48.38 1.094 6.47 2.94 10.96
10/28/2022 4:15:00 AM 9.06 48.308 1.093 6.46 2.92 10.97
10/28/2022 4:30:00 AM 9.02 48.236 1.099 6.46 2.92 10.98
10/28/2022 4:45:00 AM 8.98 48.164 1.095 6.46 2.93 11
10/28/2022 5:00:00 AM 8.93 48.074 1.095 6.46 2.93 11.01
10/28/2022 5:15:00 AM 8.89 48.002 1.093 6.46 2.88 11.02
10/28/2022 5:30:00 AM 8.85 47.93 1.097 6.45 2.91 11.03
10/28/2022 5:45:00 AM 8.82 47.876 1.095 6.45 2.92 11.05
10/28/2022 6:00:00 AM 8.78 47.804 1.101 6.44 2.91 11.06
10/28/2022 6:15:00 AM 8.74 47.732 1.096 6.45 2.91 11.07
10/28/2022 6:30:00 AM 8.7 47.66 1.096 6.44 2.93 11.08
10/28/2022 6:45:00 AM 8.66 47.588 1.094 6.44 2.85 11.1
10/28/2022 7:00:00 AM 8.63 47.534 1.088 6.44 2.93 11.11
10/28/2022 7:15:00 AM 8.6 47.48 1.087 6.45 2.94 11.11
10/28/2022 7:30:00 AM 8.56 47.408 1.084 6.46 2.92 11.13
10/28/2022 7:45:00 AM 8.53 47.354 1.083 6.45 2.93 11.15
10/28/2022 8:00:00 AM 8.51 47.318 1.081 6.46 2.93 11.19
10/28/2022 8:15:00 AM 8.49 47.282 1.079 6.47 2.9 11.24
10/28/2022 8:30:00 AM 8.47 47.246 1.08 6.48 2.9 11.29
10/28/2022 8:45:00 AM 8.46 47.228 1.08 6.49 2.86 11.32
10/28/2022 9:00:00 AM 8.46 47.228 1.08 6.5 2.92 11.37
10/28/2022 9:15:00 AM 8.46 47.228 1.073 6.52 2.9 11.41
10/28/2022 9:30:00 AM 8.47 47.246 1.075 6.53 2.9 11.44
10/28/2022 9:45:00 AM 8.48 47.264 1.069 6.54 2.87 11.47
10/28/2022 10:00:00 AM 8.52 47.336 1.066 6.56 2.9 11.52
10/28/2022 10:15:00 AM 8.57 47.426 1.06 6.57 2.87 11.55
10/28/2022 10:30:00 AM -99999.99 -179968 -99999.99 -99999.99 -99999.99 -99999.99
10/28/2022 10:45:00 AM -99999.99 -179968 -99999.99 -99999.99 -99999.99 -99999.99
10/28/2022 11:00:00 AM -99999.99 -179968 -99999.99 -99999.99 -99999.99 -99999.99
10/28/2022 11:15:00 AM -99999.99 -179968 -99999.99 -99999.99 -99999.99 -99999.99
10/28/2022 11:30:00 AM -99999.99 -179968 -99999.99 -99999.99 -99999.99 -99999.99
10/28/2022 11:45:00 AM -99999.99 -179968 -99999.99 -99999.99 -99999.99 -99999.99
10/28/2022 12:00:00 PM -99999.99 -179968 -99999.99 -99999.99 -99999.99 -99999.99
10/28/2022 12:15:00 PM -99999.99 -179968 -99999.99 -99999.99 -99999.99 -99999.99
10/28/2022 12:30:00 PM -99999.99 -179968 -99999.99 -99999.99 -99999.99 -99999.99
10/28/2022 12:45:00 PM -99999.99 -179968 -99999.99 -99999.99 -99999.99 -99999.99
10/28/2022 1:00:00 PM -99999.99 -179968 -99999.99 -99999.99 -99999.99 -99999.99
10/28/2022 1:15:00 PM -99999.99 -179968 -99999.99 -99999.99 -99999.99 -99999.99
10/28/2022 1:30:00 PM -99999.99 -179968 -99999.99 -99999.99 -99999.99 -99999.99
10/28/2022 1:45:00 PM 10.09 50.162 1.026 6.64 2.82 11.23
10/28/2022 2:00:00 PM 10.13 50.234 1.012 6.64 2.81 11.21
10/28/2022 2:15:00 PM 10.21 50.378 1.009 6.64 2.83 11.18
10/28/2022 2:30:00 PM 10.26 50.468 1.01 6.64 2.82 11.16
10/28/2022 2:45:00 PM 10.31 50.558 1.012 6.64 2.83 11.14
10/28/2022 3:00:00 PM 10.38 50.684 1.011 6.64 2.77 11.12
10/28/2022 3:15:00 PM 10.45 50.81 1.011 6.65 2.78 11.11
10/28/2022 3:30:00 PM 10.5 50.9 1.006 6.65 2.84 11.09
10/28/2022 3:45:00 PM 10.52 50.936 1.008 6.64 2.8 11.06
10/28/2022 4:00:00 PM 10.54 50.972 1.005 6.64 2.79 11.04
10/28/2022 4:15:00 PM 10.55 50.99 1.008 6.63 2.8 11.02
10/28/2022 4:30:00 PM 10.56 51.008 1.007 6.62 2.81 11
10/28/2022 4:45:00 PM 10.56 51.008 1.008 6.62 2.8 10.95
10/28/2022 5:00:00 PM 10.56 51.008 1.012 6.61 2.82 10.9
10/28/2022 5:15:00 PM 10.54 50.972 1.012 6.6 2.8 10.85
10/28/2022 5:30:00 PM 10.53 50.954 1.01 6.59 2.78 10.81
10/28/2022 5:45:00 PM 10.5 50.9 1.013 6.58 2.77 10.76
10/28/2022 6:00:00 PM 10.47 50.846 1.013 6.57 2.83 10.73
10/28/2022 6:15:00 PM 10.43 50.774 1.022 6.56 2.84 10.69
10/28/2022 6:30:00 PM 10.39 50.702 1.025 6.55 2.83 10.67
10/28/2022 6:45:00 PM 10.34 50.612 1.023 6.55 2.85 10.66
10/28/2022 7:00:00 PM 10.29 50.522 1.022 6.55 2.86 10.66
10/28/2022 7:15:00 PM 10.24 50.432 1.019 6.54 2.85 10.67
10/28/2022 7:30:00 PM 10.18 50.324 1.019 6.54 2.8 10.68
10/28/2022 7:45:00 PM 10.13 50.234 1.029 6.54 2.82 10.69
10/28/2022 8:00:00 PM 10.07 50.126 1.02 6.53 2.89 10.7
10/28/2022 8:15:00 PM 10.01 50.018 1.013 6.53 2.87 10.72
10/28/2022 8:30:00 PM 9.95 49.91 1.015 6.53 2.87 10.73
10/28/2022 8:45:00 PM 9.89 49.802 1.008 6.53 2.85 10.75
10/28/2022 9:00:00 PM 9.83 49.694 1.01 6.53 2.87 10.76
10/28/2022 9:15:00 PM 9.77 49.586 1.008 6.53 2.86 10.78
10/28/2022 9:30:00 PM 9.71 49.478 1.008 6.52 2.87 10.8
10/28/2022 9:45:00 PM 9.65 49.37 1.004 6.52 2.87 10.81
10/28/2022 10:00:00 PM 9.59 49.262 1 6.52 2.87 10.84
10/28/2022 10:15:00 PM 9.52 49.136 1.001 6.52 2.85 10.85
10/28/2022 10:30:00 PM 9.46 49.028 1.005 6.52 2.86 10.87
10/28/2022 10:45:00 PM 9.4 48.92 0.999 6.52 2.88 10.89
10/28/2022 11:00:00 PM 9.34 48.812 0.99 6.51 2.89 10.91
10/28/2022 11:15:00 PM 9.27 48.686 0.978 6.51 2.86 10.93
10/28/2022 11:30:00 PM 9.21 48.578 0.973 6.51 2.89 10.94
10/28/2022 11:45:00 PM 9.15 48.47 0.972 6.51 2.87 10.96
10/29/2022 12:00:00 AM 9.09 48.362 0.972 6.51 2.85 10.98
10/29/2022 12:15:00 AM 9.04 48.272 0.976 6.51 2.92 11
10/29/2022 12:30:00 AM 8.98 48.164 0.978 6.49 2.88 11.01
10/29/2022 12:45:00 AM 8.92 48.056 0.976 6.49 2.84 11.03
10/29/2022 1:00:00 AM 8.86 47.948 0.974 6.5 2.92 11.05
10/29/2022 1:15:00 AM 8.81 47.858 0.975 6.5 2.88 11.06
10/29/2022 1:30:00 AM 8.75 47.75 0.972 6.49 2.89 11.08
10/29/2022 1:45:00 AM 8.7 47.66 0.975 6.48 2.9 11.1
10/29/2022 2:00:00 AM 8.65 47.57 0.961 6.48 2.9 11.12
10/29/2022 2:15:00 AM 8.59 47.462 0.959 6.47 2.9 11.12
10/29/2022 2:30:00 AM 8.54 47.372 0.96 6.46 2.91 11.14
10/29/2022 2:45:00 AM 8.49 47.282 0.962 6.46 2.9 11.15
10/29/2022 3:00:00 AM 8.44 47.192 0.957 6.45 2.92 11.18
10/29/2022 3:15:00 AM 8.4 47.12 0.952 6.45 2.93 11.19
10/29/2022 3:30:00 AM 8.35 47.03 0.947 6.45 2.87 11.21
10/29/2022 3:45:00 AM 8.31 46.958 0.946 6.44 2.94 11.22
10/29/2022 4:00:00 AM 8.26 46.868 0.906 6.45 2.88 11.24
10/29/2022 4:15:00 AM 8.21 46.778 0.915 6.44 2.9 11.25
10/29/2022 4:30:00 AM 8.17 46.706 0.917 6.43 2.91 11.26
10/29/2022 4:45:00 AM 8.13 46.634 0.92 6.42 2.91 11.27
10/29/2022 5:00:00 AM 8.09 46.562 0.923 6.42 2.93 11.28
10/29/2022 5:15:00 AM 8.05 46.49 0.909 6.42 2.99 11.3
10/29/2022 5:30:00 AM 8.01 46.418 0.916 6.43 1888.16 11.31
10/29/2022 5:45:00 AM 7.97 46.346 0.919 6.43 2.91 11.32
10/29/2022 6:00:00 AM 7.93 46.274 0.915 6.43 2.96 11.33
10/29/2022 6:15:00 AM 7.89 46.202 0.916 6.44 2.9 11.34
10/29/2022 6:30:00 AM 7.85 46.13 0.916 6.43 2.9 11.36
10/29/2022 6:45:00 AM 7.82 46.076 0.91 6.44 2.9 11.37
10/29/2022 7:00:00 AM 7.79 46.022 0.914 6.44 2.88 11.38
10/29/2022 7:15:00 AM 7.75 45.95 0.909 6.44 2.9 11.39
10/29/2022 7:30:00 AM 7.72 45.896 0.907 6.45 2.93 11.41
10/29/2022 7:45:00 AM 7.68 45.824 0.908 6.45 2.88 11.44
10/29/2022 8:00:00 AM 7.65 45.77 0.915 6.45 2.9 11.46
10/29/2022 8:15:00 AM 7.62 45.716 0.915 6.46 2.89 11.49
10/29/2022 8:30:00 AM 7.59 45.662 0.914 6.46 2.92 11.52
10/29/2022 8:45:00 AM 7.57 45.626 0.908 6.47 2.92 11.55
10/29/2022 9:00:00 AM 7.55 45.59 0.905 6.48 2.89 11.57
10/29/2022 9:15:00 AM 7.53 45.554 0.91 6.49 2.89 11.59
10/29/2022 9:30:00 AM 7.51 45.518 0.905 6.49 2.9 11.62
10/29/2022 9:45:00 AM 7.5 45.5 0.904 6.5 2.88 11.64
10/29/2022 10:00:00 AM 7.53 45.554 0.9 6.52 2.89 11.69
10/29/2022 10:15:00 AM 7.58 45.644 0.9 6.53 2.88 11.73
10/29/2022 10:30:00 AM 7.65 45.77 0.894 6.54 2.9 11.76
10/29/2022 10:45:00 AM 7.74 45.932 0.892 6.56 2.87 11.77
10/29/2022 11:00:00 AM 7.85 46.13 0.888 6.57 2.91 11.77
10/29/2022 11:15:00 AM 7.97 46.346 0.889 6.58 2.89 11.76
10/29/2022 11:30:00 AM 8.11 46.598 0.89 6.59 2.88 11.75
10/29/2022 11:45:00 AM 8.25 46.85 0.883 6.6 2.88 11.72
10/29/2022 12:00:00 PM 8.42 47.156 0.87 6.6 2.88 11.69
10/29/2022 12:15:00 PM 8.6 47.48 0.872 6.62 2.84 11.67
10/29/2022 12:30:00 PM 8.77 47.786 0.876 6.63 2.87 11.65
10/29/2022 12:45:00 PM 8.92 48.056 0.869 6.64 2.81 11.62
10/29/2022 1:00:00 PM 9.11 48.398 0.866 6.65 2.8 11.58
10/29/2022 1:15:00 PM 9.25 48.65 0.865 6.65 2.82 11.52
10/29/2022 1:30:00 PM 9.38 48.884 0.861 6.65 2.82 11.46
10/29/2022 1:45:00 PM 9.48 49.064 0.854 6.65 2.8 11.4
10/29/2022 2:00:00 PM 9.57 49.226 0.851 6.64 2.83 11.34
10/29/2022 2:15:00 PM 9.65 49.37 0.846 6.64 2.81 11.28
10/29/2022 2:30:00 PM 9.7 49.46 0.852 6.64 2.83 11.24
10/29/2022 2:45:00 PM 9.76 49.568 0.847 6.64 2.8 11.18
10/29/2022 3:00:00 PM 9.85 49.73 0.837 6.64 2.84 11.15
10/29/2022 3:15:00 PM 9.94 49.892 0.841 6.64 2.79 11.11
10/29/2022 3:30:00 PM 10.01 50.018 0.839 6.63 2.81 11.07
10/29/2022 3:45:00 PM 10.05 50.09 0.84 6.63 2.8 11.02
10/29/2022 4:00:00 PM 10.04 50.072 0.84 6.62 2.81 10.98
10/29/2022 4:15:00 PM 10.03 50.054 0.846 6.62 2.82 10.96
10/29/2022 4:30:00 PM 10.01 50.018 0.842 6.61 2.8 10.94
10/29/2022 4:45:00 PM 9.98 49.964 0.847 6.61 2.8 10.92
10/29/2022 5:00:00 PM 9.94 49.892 0.849 6.61 2.81 10.9
10/29/2022 5:15:00 PM 9.9 49.82 0.852 6.6 2.81 10.89
10/29/2022 5:30:00 PM 9.86 49.748 0.855 6.6 2.83 10.88
10/29/2022 5:45:00 PM 9.82 49.676 0.852 6.59 2.82 10.86
10/29/2022 6:00:00 PM 9.77 49.586 0.853 6.59 2.82 10.86
10/29/2022 6:15:00 PM 9.72 49.496 0.848 6.58 2.81 10.84
10/29/2022 6:30:00 PM 9.67 49.406 0.857 6.58 2.83 10.84
10/29/2022 6:45:00 PM 9.62 49.316 0.854 6.57 2.87 10.84
10/29/2022 7:00:00 PM 9.57 49.226 0.853 6.57 2.81 10.84
10/29/2022 7:15:00 PM 9.52 49.136 0.858 6.57 2.82 10.85
10/29/2022 7:30:00 PM 9.47 49.046 0.854 6.57 2.83 10.86
10/29/2022 7:45:00 PM 9.42 48.956 0.854 6.56 2.87 10.88
10/29/2022 8:00:00 PM 9.37 48.866 0.853 6.56 2.86 10.89
10/29/2022 8:15:00 PM 9.31 48.758 0.853 6.56 2.87 10.9
10/29/2022 8:30:00 PM 9.26 48.668 0.853 6.56 2.84 10.91
10/29/2022 8:45:00 PM 9.2 48.56 0.854 6.56 2.87 10.93
10/29/2022 9:00:00 PM 9.15 48.47 0.862 6.55 2.87 10.94
10/29/2022 9:15:00 PM 9.09 48.362 0.86 6.55 2.83 10.96
10/29/2022 9:30:00 PM 9.03 48.254 0.859 6.55 2.84 10.98
10/29/2022 9:45:00 PM 8.98 48.164 0.857 6.55 2.88 10.99
10/29/2022 10:00:00 PM 8.92 48.056 0.857 6.54 2.9 11
10/29/2022 10:15:00 PM 8.86 47.948 0.86 6.54 2.85 11.02
10/29/2022 10:30:00 PM 8.8 47.84 0.862 6.54 2.84 11.04
10/29/2022 10:45:00 PM 8.74 47.732 0.861 6.54 2.87 11.05
10/29/2022 11:00:00 PM 8.68 47.624 0.865 6.53 2.86 11.07
10/29/2022 11:15:00 PM 8.62 47.516 0.862 6.53 2.87 11.09
10/29/2022 11:30:00 PM 8.57 47.426 0.862 6.53 2.85 11.11
10/29/2022 11:45:00 PM 8.51 47.318 0.862 6.53 2.87 11.12
10/30/2022 12:00:00 AM 8.46 47.228 0.86 6.53 2.89 11.14
10/30/2022 12:15:00 AM 8.4 47.12 0.862 6.52 2.87 11.16
10/30/2022 12:30:00 AM 8.35 47.03 0.863 6.52 2.9 11.17
10/30/2022 12:45:00 AM 8.29 46.922 0.864 6.52 2.89 11.19
10/30/2022 1:00:00 AM 8.24 46.832 0.87 6.52 2.92 11.19
10/30/2022 1:15:00 AM 8.2 46.76 0.867 6.52 2.88 11.2
10/30/2022 1:30:00 AM 8.15 46.67 0.866 6.51 2.9 11.23
10/30/2022 1:45:00 AM 8.1 46.58 0.867 6.51 2.87 11.24
10/30/2022 2:00:00 AM 8.06 46.508 0.863 6.5 2.88 11.25
10/30/2022 2:15:00 AM 8.01 46.418 0.866 6.5 2.94 11.26
10/30/2022 2:30:00 AM 7.97 46.346 0.869 6.49 2.9 11.27
10/30/2022 2:45:00 AM 7.93 46.274 0.867 6.48 2.87 11.29
10/30/2022 3:00:00 AM 7.89 46.202 0.874 6.48 2.91 11.3
10/30/2022 3:15:00 AM 7.85 46.13 0.87 6.47 2.9 11.31
10/30/2022 3:30:00 AM 7.81 46.058 0.873 6.46 2.9 11.32
10/30/2022 3:45:00 AM 7.77 45.986 0.876 6.46 2.91 11.33
10/30/2022 4:00:00 AM 7.73 45.914 0.875 6.46 2.88 11.34
10/30/2022 4:15:00 AM 7.69 45.842 0.871 6.46 2.9 11.35
10/30/2022 4:30:00 AM 7.66 45.788 0.867 6.45 2.94 11.37
10/30/2022 4:45:00 AM 7.62 45.716 0.868 6.46 2.86 11.38
10/30/2022 5:00:00 AM 7.59 45.662 0.871 6.46 2.92 11.39
10/30/2022 5:15:00 AM 7.55 45.59 0.804 6.46 2.89 11.4
10/30/2022 5:30:00 AM 7.52 45.536 0.82 6.46 2.92 11.41
10/30/2022 5:45:00 AM 7.49 45.482 0.822 6.46 2.92 11.42
10/30/2022 6:00:00 AM 7.46 45.428 0.826 6.46 2.91 11.43
10/30/2022 6:15:00 AM 7.42 45.356 0.83 6.46 2.9 11.45
10/30/2022 6:30:00 AM 7.39 45.302 0.841 6.46 2.91 11.45
10/30/2022 6:45:00 AM 7.36 45.248 0.843 6.46 2.87 11.46
10/30/2022 7:00:00 AM 7.32 45.176 0.843 6.46 2.89 11.47
10/30/2022 7:15:00 AM 7.29 45.122 0.841 6.46 2.94 11.48
10/30/2022 7:30:00 AM 7.26 45.068 0.843 6.46 2.91 11.5
10/30/2022 7:45:00 AM 7.23 45.014 0.836 6.46 2.88 11.52
10/30/2022 8:00:00 AM 7.21 44.978 0.832 6.47 2.89 11.55
10/30/2022 8:15:00 AM 7.19 44.942 0.832 6.48 2.91 11.6
10/30/2022 8:30:00 AM 7.18 44.924 0.841 6.49 2.9 11.65
10/30/2022 8:45:00 AM 7.17 44.906 0.849 6.5 2.88 11.67
10/30/2022 9:00:00 AM 7.17 44.906 0.877 6.51 2.9 11.71
10/30/2022 9:15:00 AM 7.18 44.924 0.884 6.52 2.91 11.73
10/30/2022 9:30:00 AM 7.19 44.942 0.888 6.53 2.91 11.78
10/30/2022 9:45:00 AM 7.21 44.978 0.883 6.54 2.88 11.8
10/30/2022 10:00:00 AM 7.24 45.032 0.88 6.55 2.89 11.81
10/30/2022 10:15:00 AM 7.28 45.104 0.879 6.57 2.9 11.82
10/30/2022 10:30:00 AM 7.35 45.23 0.879 6.57 2.86 11.83
10/30/2022 10:45:00 AM 7.44 45.392 0.887 6.58 2.88 11.83
10/30/2022 11:00:00 AM 7.54 45.572 0.879 6.59 2.85 11.83
10/30/2022 11:15:00 AM 7.66 45.788 0.876 6.6 2.86 11.81
10/30/2022 11:30:00 AM 7.8 46.04 0.874 6.61 2.84 11.79
10/30/2022 11:45:00 AM 7.93 46.274 0.868 6.61 2.83 11.75
10/30/2022 12:00:00 PM 8.1 46.58 0.872 6.62 2.84 11.73
10/30/2022 12:15:00 PM 8.27 46.886 0.864 6.63 2.84 11.7
10/30/2022 12:30:00 PM 8.44 47.192 0.864 6.65 2.81 11.69
10/30/2022 12:45:00 PM 8.6 47.48 0.858 6.65 2.84 11.65
10/30/2022 1:00:00 PM 8.76 47.768 0.864 6.66 2.79 11.62
10/30/2022 1:15:00 PM 8.92 48.056 0.858 6.66 2.8 11.57
10/30/2022 1:30:00 PM 9.02 48.236 0.855 6.67 2.81 11.52
10/30/2022 1:45:00 PM 9.12 48.416 0.846 6.67 2.88 11.47
10/30/2022 2:00:00 PM 9.22 48.596 0.847 6.67 2.79 11.42
10/30/2022 2:15:00 PM 9.3 48.74 0.845 6.66 2.76 11.36
10/30/2022 2:30:00 PM 9.36 48.848 0.842 6.66 2.77 11.32
10/30/2022 2:45:00 PM 9.44 48.992 0.843 6.66 2.78 11.28
10/30/2022 3:00:00 PM 9.53 49.154 0.84 6.67 2.77 11.25
10/30/2022 3:15:00 PM 9.62 49.316 0.837 6.67 2.82 11.21
10/30/2022 3:30:00 PM 9.66 49.388 0.839 6.65 2.78 11.12
10/30/2022 3:45:00 PM 9.71 49.478 0.832 6.66 2.77 11.11
10/30/2022 4:00:00 PM 9.73 49.514 0.834 6.66 2.81 11.11
10/30/2022 4:15:00 PM 9.74 49.532 0.835 6.66 2.77 11.11
10/30/2022 4:30:00 PM 9.75 49.55 0.839 6.65 2.8 11.08
10/30/2022 4:45:00 PM 9.75 49.55 0.851 6.64 2.79 11.04
10/30/2022 5:00:00 PM 9.75 49.55 0.852 6.64 2.83 11
10/30/2022 5:15:00 PM 9.73 49.514 0.845 6.63 2.74 10.95
10/30/2022 5:30:00 PM 9.71 49.478 0.855 6.62 2.82 10.91
10/30/2022 5:45:00 PM 9.69 49.442 0.854 6.6 2.8 10.88
10/30/2022 6:00:00 PM 9.66 49.388 0.85 6.59 2.8 10.83
10/30/2022 6:15:00 PM 9.62 49.316 0.85 6.59 2.78 10.81
10/30/2022 6:30:00 PM 9.59 49.262 0.853 6.58 2.79 10.8
10/30/2022 6:45:00 PM 9.56 49.208 0.85 6.58 2.81 10.79
10/30/2022 7:00:00 PM 9.52 49.136 0.857 6.57 2.85 10.79
10/30/2022 7:15:00 PM 9.49 49.082 0.866 6.57 2.85 10.79
10/30/2022 7:30:00 PM 9.45 49.01 0.865 6.57 2.84 10.8
10/30/2022 7:45:00 PM 9.43 48.974 0.858 6.57 2.85 10.8
10/30/2022 8:00:00 PM 9.4 48.92 0.86 6.56 2.83 10.81
10/30/2022 8:15:00 PM 9.37 48.866 0.857 6.56 2.81 10.81
10/30/2022 8:30:00 PM 9.35 48.83 0.858 6.56 2.8 10.81
10/30/2022 8:45:00 PM 9.32 48.776 0.86 6.56 2.81 10.82
10/30/2022 9:00:00 PM 9.3 48.74 0.86 6.56 2.81 10.83
10/30/2022 9:15:00 PM 9.27 48.686 0.859 6.55 2.85 10.83
10/30/2022 9:30:00 PM 9.23 48.614 0.859 6.56 2.84 10.84
10/30/2022 9:45:00 PM 9.19 48.542 0.86 6.55 2.86 10.86
10/30/2022 10:00:00 PM 9.15 48.47 0.859 6.55 2.86 10.86
10/30/2022 10:15:00 PM 9.12 48.416 0.856 6.55 2.81 10.87
10/30/2022 10:30:00 PM 9.1 48.38 0.859 6.54 2.83 10.88
10/30/2022 10:45:00 PM 9.07 48.326 0.864 6.55 2.8 10.89
10/30/2022 11:00:00 PM 9.05 48.29 0.863 6.55 2.85 10.89
10/30/2022 11:15:00 PM 9.02 48.236 0.861 6.54 2.83 10.9
10/30/2022 11:30:00 PM 8.99 48.182 0.858 6.54 2.8 10.91
10/30/2022 11:45:00 PM 8.95 48.11 0.856 6.54 2.8 10.92
10/31/2022 12:00:00 AM 8.91 48.038 0.85 6.54 2.83 10.92
10/31/2022 12:15:00 AM 8.88 47.984 0.85 6.54 2.84 10.93
10/31/2022 12:30:00 AM 8.84 47.912 0.852 6.54 2.84 10.94
10/31/2022 12:45:00 AM 8.8 47.84 0.85 6.54 2.9 10.95
10/31/2022 1:00:00 AM 8.76 47.768 0.851 6.54 2.85 10.96
10/31/2022 1:15:00 AM 8.72 47.696 0.853 6.53 2.84 10.97
10/31/2022 1:30:00 AM 8.68 47.624 0.851 6.53 2.83 10.99
10/31/2022 1:45:00 AM 8.64 47.552 0.849 6.53 2.88 11
10/31/2022 2:00:00 AM 8.6 47.48 0.844 6.53 2.88 11
10/31/2022 2:15:00 AM 8.57 47.426 0.843 6.53 2.81 11.02
10/31/2022 2:30:00 AM 8.54 47.372 0.834 6.53 2.86 11.03
10/31/2022 2:45:00 AM 8.52 47.336 0.836 6.53 2.86 11.04
10/31/2022 3:00:00 AM 8.5 47.3 0.836 6.53 2.9 11.05
10/31/2022 3:15:00 AM 8.47 47.246 0.838 6.53 2.87 11.05
10/31/2022 3:30:00 AM 8.46 47.228 0.842 6.52 2.84 11.05
10/31/2022 3:45:00 AM 8.45 47.21 0.839 6.53 2.89 11.05
10/31/2022 4:00:00 AM 8.44 47.192 0.836 6.52 2.85 11.06
10/31/2022 4:15:00 AM 8.44 47.192 0.839 6.52 2.88 11.06
10/31/2022 4:30:00 AM 8.44 47.192 0.839 6.52 2.87 11.05
10/31/2022 4:45:00 AM 8.44 47.192 0.842 6.52 2.87 11.06
10/31/2022 5:00:00 AM 8.44 47.192 0.842 6.52 2.84 11.06
10/31/2022 5:15:00 AM 8.44 47.192 0.841 6.52 2.84 11.06
10/31/2022 5:30:00 AM 8.44 47.192 0.846 6.52 2.88 11.06
10/31/2022 5:45:00 AM 8.44 47.192 0.841 6.52 2.88 11.05
10/31/2022 6:00:00 AM 8.43 47.174 0.837 6.52 2.83 11.06
10/31/2022 6:15:00 AM 8.42 47.156 0.818 6.52 2.86 11.07
10/31/2022 6:30:00 AM 8.4 47.12 0.822 6.52 2.85 11.06
10/31/2022 6:45:00 AM 8.38 47.084 0.821 6.52 2.89 11.08
10/31/2022 7:00:00 AM 8.36 47.048 0.819 6.52 2.84 11.07
10/31/2022 7:15:00 AM 8.34 47.012 0.822 6.52 2.86 11.08
10/31/2022 7:30:00 AM 8.33 46.994 0.813 6.52 2.87 11.09
10/31/2022 7:45:00 AM 8.31 46.958 0.816 6.52 2.86 11.11
10/31/2022 8:00:00 AM 8.29 46.922 0.815 6.53 2.89 11.14
10/31/2022 8:15:00 AM 8.28 46.904 0.812 6.53 2.85 11.17
10/31/2022 8:30:00 AM 8.28 46.904 0.806 6.54 2.86 11.23
10/31/2022 8:45:00 AM 8.31 46.958 0.808 6.56 2.89 11.3
10/31/2022 9:00:00 AM 8.33 46.994 0.798 6.56 2.86 11.34
10/31/2022 9:15:00 AM 8.36 47.048 0.799 6.57 2.85 11.35
10/31/2022 9:30:00 AM 8.4 47.12 0.798 6.58 2.82 11.4
10/31/2022 9:45:00 AM 8.44 47.192 0.799 6.58 2.84 11.4
10/31/2022 10:00:00 AM 8.48 47.264 0.805 6.59 2.83 11.42
10/31/2022 10:15:00 AM 8.57 47.426 0.795 6.6 2.85 11.46
10/31/2022 10:30:00 AM 8.66 47.588 0.801 6.61 2.82 11.49
10/31/2022 10:45:00 AM 8.74 47.732 0.803 6.62 2.82 11.47
10/31/2022 11:00:00 AM 8.84 47.912 0.81 6.63 2.86 11.48
10/31/2022 11:15:00 AM 8.96 48.128 0.809 6.64 2.85 11.48
10/31/2022 11:30:00 AM 9.05 48.29 0.812 6.64 2.81 11.45
10/31/2022 11:45:00 AM 9.17 48.506 0.807 6.65 2.8 11.44
10/31/2022 12:00:00 PM 9.28 48.704 0.81 6.66 2.82 11.43
10/31/2022 12:15:00 PM 9.38 48.884 0.809 6.66 2.8 11.4
10/31/2022 12:30:00 PM 9.45 49.01 0.808 6.66 2.79 11.34
10/31/2022 12:45:00 PM 9.51 49.118 0.81 6.65 2.82 11.29
10/31/2022 1:00:00 PM 9.56 49.208 0.812 6.65 2.78 11.25
10/31/2022 1:15:00 PM 9.6 49.28 0.81 6.63 2.77 11.15
10/31/2022 1:30:00 PM 9.65 49.37 0.807 6.63 2.78 11.13
10/31/2022 1:45:00 PM 9.7 49.46 0.807 6.64 2.78 11.14
10/31/2022 2:00:00 PM 9.74 49.532 0.804 6.64 2.8 11.12
10/31/2022 2:15:00 PM 9.82 49.676 0.801 6.65 2.77 11.17
10/31/2022 2:30:00 PM 9.87 49.766 0.808 6.65 2.81 11.13
10/31/2022 2:45:00 PM 9.9 49.82 0.806 6.65 2.79 11.08
10/31/2022 3:00:00 PM 9.95 49.91 0.8 6.65 2.78 11.09
10/31/2022 3:15:00 PM 9.99 49.982 0.804 6.65 2.8 11.06
10/31/2022 3:30:00 PM 10.01 50.018 0.798 6.64 2.76 11.01
10/31/2022 3:45:00 PM 10.04 50.072 0.792 6.64 2.79 10.98
10/31/2022 4:00:00 PM 10.06 50.108 0.791 6.63 2.77 10.93
10/31/2022 4:15:00 PM 10.09 50.162 0.793 6.63 2.77 10.93
10/31/2022 4:30:00 PM 10.11 50.198 0.788 6.62 2.81 10.89
10/31/2022 4:45:00 PM 10.13 50.234 0.787 6.61 2.77 10.88
10/31/2022 5:00:00 PM 10.15 50.27 0.782 6.6 2.79 10.82
10/31/2022 5:15:00 PM 10.16 50.288 0.775 6.6 2.8 10.79
10/31/2022 5:30:00 PM 10.17 50.306 0.735 6.6 2.79 10.73
10/31/2022 5:45:00 PM 10.17 50.306 0.746 6.59 2.79 10.69
10/31/2022 6:00:00 PM 10.18 50.324 0.736 6.58 2.77 10.64
10/31/2022 6:15:00 PM 10.18 50.324 0.734 6.57 2.79 10.61
10/31/2022 6:30:00 PM 10.18 50.324 0.753 6.57 2.81 10.59
10/31/2022 6:45:00 PM 10.19 50.342 0.755 6.56 2.8 10.58
10/31/2022 7:00:00 PM 10.19 50.342 0.77 6.56 2.79 10.57
10/31/2022 7:15:00 PM 10.2 50.36 0.76 6.56 2.78 10.57
10/31/2022 7:30:00 PM 10.2 50.36 0.751 6.56 2.8 10.56
10/31/2022 7:45:00 PM 10.2 50.36 0.753 6.56 2.77 10.56
10/31/2022 8:00:00 PM 10.2 50.36 0.767 6.56 2.86 10.56
10/31/2022 8:15:00 PM 10.2 50.36 0.75 6.55 2.8 10.55
10/31/2022 8:30:00 PM 10.2 50.36 0.774 6.55 2.8 10.55
10/31/2022 8:45:00 PM 10.2 50.36 0.755 6.54 2.78 10.55
10/31/2022 9:00:00 PM 10.2 50.36 0.753 6.55 2.73 10.55
10/31/2022 9:15:00 PM 10.2 50.36 0.747 6.54 2.78 10.55
10/31/2022 9:30:00 PM 10.2 50.36 0.754 6.53 2.77 10.55
10/31/2022 9:45:00 PM 10.2 50.36 0.755 6.53 2.78 10.55
10/31/2022 10:00:00 PM 10.2 50.36 0.751 6.53 2.8 10.54
10/31/2022 10:15:00 PM 10.2 50.36 0.736 6.53 2.79 10.54
10/31/2022 10:30:00 PM 10.2 50.36 0.731 6.53 2.77 10.53
10/31/2022 10:45:00 PM 10.2 50.36 0.731 6.53 2.8 10.53
10/31/2022 11:00:00 PM 10.19 50.342 0.728 6.52 2.81 10.53
10/31/2022 11:15:00 PM 10.2 50.36 0.712 6.53 2.81 10.52
10/31/2022 11:30:00 PM 10.2 50.36 0.711 6.53 2.8 10.52
10/31/2022 11:45:00 PM 10.2 50.36 0.722 6.53 2.8 10.51
11/1/2022 12:00:00 AM 10.2 50.36 0.67 6.52 2.81 10.51
11/1/2022 12:15:00 AM 10.2 50.36 0.686 6.52 2.8 10.51
11/1/2022 12:30:00 AM 10.2 50.36 0.689 6.52 2.82 10.52
11/1/2022 12:45:00 AM 10.2 50.36 0.686 6.52 2.81 10.52
11/1/2022 1:00:00 AM 10.2 50.36 0.686 6.52 2.79 10.52
11/1/2022 1:15:00 AM 10.2 50.36 0.646 6.52 2.85 10.53
11/1/2022 1:30:00 AM 10.19 50.342 0.67 6.52 2.81 10.54
11/1/2022 1:45:00 AM 10.19 50.342 0.673 6.51 2.81 10.54
11/1/2022 2:00:00 AM 10.19 50.342 0.669 6.51 2.8 10.54
11/1/2022 2:15:00 AM 10.19 50.342 0.664 6.51 4.16 10.54
11/1/2022 2:30:00 AM 10.2 50.36 0.655 6.51 2.78 10.54
11/1/2022 2:45:00 AM 10.2 50.36 0.654 6.51 2.78 10.55
11/1/2022 3:00:00 AM 10.2 50.36 0.648 6.51 2.83 10.54
11/1/2022 3:15:00 AM 10.2 50.36 0.609 6.51 2.78 10.54
11/1/2022 3:30:00 AM 10.2 50.36 0.617 6.51 2.81 10.54
11/1/2022 3:45:00 AM 10.2 50.36 0.568 6.51 2.78 10.55
11/1/2022 4:00:00 AM 10.2 50.36 0.603 6.51 2.78 10.54
11/1/2022 4:15:00 AM 10.21 50.378 0.605 6.5 2.78 10.54
11/1/2022 4:30:00 AM 10.21 50.378 0.616 6.5 2.81 10.54
11/1/2022 4:45:00 AM 10.21 50.378 0.586 6.51 2.75 10.54
11/1/2022 5:00:00 AM 10.21 50.378 0.572 6.5 2.77 10.53
11/1/2022 5:15:00 AM 10.21 50.378 0.32 6.51 2.79 10.55
11/1/2022 5:30:00 AM 10.22 50.396 0.422 6.51 2.84 10.54
11/1/2022 5:45:00 AM 10.22 50.396 0.358 6.51 2.78 10.55
11/1/2022 6:00:00 AM 10.22 50.396 0.295 6.52 3.17 10.55
11/1/2022 6:15:00 AM 10.22 50.396 0.296 6.52 2.78 10.55
11/1/2022 6:30:00 AM 10.23 50.414 0.265 6.52 2.74 10.55
11/1/2022 6:45:00 AM 10.23 50.414 0.292 6.51 3.08 10.54
11/1/2022 7:00:00 AM 10.23 50.414 0.279 6.51 2.77 10.54
11/1/2022 7:15:00 AM 10.24 50.432 0.184 6.52 2.77 10.54
11/1/2022 7:30:00 AM 10.24 50.432 0.213 6.52 3.14 10.54
11/1/2022 7:45:00 AM 10.24 50.432 0.198 6.51 2.85 10.54
11/1/2022 8:00:00 AM 10.25 50.45 0.198 6.51 2.79 10.54
11/1/2022 8:15:00 AM 10.26 50.468 0.222 6.51 2.88 10.56
11/1/2022 8:30:00 AM 10.27 50.486 0.321 6.51 2.83 10.57
11/1/2022 8:45:00 AM 10.27 50.486 0.273 6.51 2.91 10.57
11/1/2022 9:00:00 AM 10.28 50.504 0.234 6.51 3.56 10.57
11/1/2022 9:15:00 AM 10.3 50.54 0.1 6.52 2.81 10.63
11/1/2022 9:30:00 AM 10.32 50.576 0.088 6.54 2.9 10.69
11/1/2022 9:45:00 AM 10.33 50.594 0.063 6.55 2.9 10.69
11/1/2022 10:00:00 AM 10.35 50.63 0.043 6.56 2.85 10.72
11/1/2022 10:15:00 AM 10.38 50.684 0.034 6.57 2.84 10.76
11/1/2022 10:30:00 AM 10.41 50.738 0.037 6.58 6.53 10.82
11/1/2022 10:45:00 AM 10.44 50.792 0.035 6.61 2.86 10.85
11/1/2022 11:00:00 AM 10.46 50.828 0.053 6.62 2.88 10.83
11/1/2022 11:15:00 AM 10.5 50.9 0.034 6.64 3.38 10.86
11/1/2022 11:30:00 AM 10.55 50.99 0.081 6.65 3.05 10.91
11/1/2022 11:45:00 AM 10.59 51.062 0.188 6.68 3.13 10.92
11/1/2022 12:00:00 PM 10.63 51.134 0.234 6.68 3.13 10.91
11/1/2022 12:15:00 PM 10.67 51.206 0.306 6.68 3.14 10.91
11/1/2022 12:30:00 PM 10.7 51.26 0.269 6.69 3.2 10.88
11/1/2022 12:45:00 PM 10.74 51.332 0.384 6.68 3.19 10.86
11/1/2022 1:00:00 PM 10.78 51.404 0.392 6.69 3.12 10.9
11/1/2022 1:15:00 PM 10.82 51.476 0.302 6.7 3.06 10.91
11/1/2022 1:30:00 PM 10.87 51.566 0.281 6.7 3.01 10.9
11/1/2022 1:45:00 PM 10.96 51.728 0.213 6.73 3.08 10.93
11/1/2022 2:00:00 PM 11.04 51.872 0.322 6.72 3.09 10.91
11/1/2022 2:15:00 PM 11.09 51.962 0.29 6.73 3.13 10.87
11/1/2022 2:30:00 PM 11.12 52.016 0.239 6.73 3.08 10.82
11/1/2022 2:45:00 PM 11.13 52.034 0.227 6.73 3.2 10.77
11/1/2022 3:00:00 PM 11.17 52.106 0.297 6.72 3.16 10.77
11/1/2022 3:15:00 PM 11.18 52.124 0.318 6.72 3.32 10.74
11/1/2022 3:30:00 PM 11.18 52.124 0.365 6.71 3.26 10.68
11/1/2022 3:45:00 PM 11.18 52.124 0.232 6.71 3.2 10.63
11/1/2022 4:00:00 PM 11.19 52.142 0.253 6.72 3.16 10.68
11/1/2022 4:15:00 PM 11.19 52.142 0.239 6.72 3.35 10.67
11/1/2022 4:30:00 PM 11.19 52.142 0.244 6.71 3.21 10.67
11/1/2022 4:45:00 PM 11.18 52.124 0.135 6.71 3.17 10.65
11/1/2022 5:00:00 PM 11.18 52.124 0.122 6.71 3.21 10.61
11/1/2022 5:15:00 PM 11.18 52.124 0.209 6.69 3.31 10.59
11/1/2022 5:30:00 PM 11.16 52.088 0.091 6.69 3.3 10.56
11/1/2022 5:45:00 PM 11.15 52.07 0.138 6.67 3.19 10.51
11/1/2022 6:00:00 PM 11.14 52.052 0.117 6.67 3.19 10.49
11/1/2022 6:15:00 PM 11.11 51.998 0.132 6.66 3.04 10.49
11/1/2022 6:30:00 PM 11.08 51.944 0.133 6.65 3.07 10.47
11/1/2022 6:45:00 PM 11.05 51.89 0.175 6.64 3.13 10.46
11/1/2022 7:00:00 PM 11.01 51.818 0.21 6.63 3.14 10.47
11/1/2022 7:15:00 PM 10.98 51.764 0.2 6.64 3.67 10.48
11/1/2022 7:30:00 PM 10.94 51.692 0.12 6.65 3.3 10.48
11/1/2022 7:45:00 PM 10.91 51.638 0.11 6.64 3.11 10.51
11/1/2022 8:00:00 PM 10.87 51.566 0.105 6.64 2.99 10.51
11/1/2022 8:15:00 PM 10.84 51.512 0.096 6.64 3.03 10.52
11/1/2022 8:30:00 PM 10.81 51.458 0.099 6.64 2.94 10.52
11/1/2022 8:45:00 PM 10.77 51.386 0.165 6.63 2.99 10.53
11/1/2022 9:00:00 PM 10.73 51.314 0.204 6.63 3.03 10.54
11/1/2022 9:15:00 PM 10.7 51.26 0.195 6.63 2.94 10.55
11/1/2022 9:30:00 PM 10.68 51.224 0.444 6.61 2.96 10.56
11/1/2022 9:45:00 PM 10.64 51.152 0.565 6.6 2.96 10.56
11/1/2022 10:00:00 PM 10.61 51.098 0.573 6.6 2.9 10.57
11/1/2022 10:15:00 PM 10.58 51.044 0.585 6.6 2.93 10.57
11/1/2022 10:30:00 PM 10.55 50.99 0.603 6.6 2.91 10.58
11/1/2022 10:45:00 PM 10.51 50.918 0.632 6.59 2.9 10.59
11/1/2022 11:00:00 PM 10.48 50.864 0.632 6.59 2.93 10.6
11/1/2022 11:15:00 PM 10.45 50.81 0.688 6.58 2.95 10.61
11/1/2022 11:30:00 PM 10.41 50.738 0.703 6.58 2.9 10.62
11/1/2022 11:45:00 PM 10.38 50.684 0.717 6.58 2.92 10.63
11/2/2022 12:00:00 AM 10.34 50.612 0.693 6.58 2.9 10.63
11/2/2022 12:15:00 AM 10.31 50.558 0.699 6.58 2.9 10.65
11/2/2022 12:30:00 AM 10.27 50.486 0.701 6.58 2.89 10.66
11/2/2022 12:45:00 AM 10.24 50.432 0.706 6.58 2.88 10.67
11/2/2022 1:00:00 AM 10.21 50.378 0.714 6.58 2.89 10.67
11/2/2022 1:15:00 AM 10.17 50.306 0.669 6.57 2.9 10.69
11/2/2022 1:30:00 AM 10.14 50.252 0.708 6.57 3.38 10.69
11/2/2022 1:45:00 AM 10.1 50.18 0.722 6.57 2.87 10.71
11/2/2022 2:00:00 AM 10.07 50.126 0.715 6.57 2.85 10.71
11/2/2022 2:15:00 AM 10.05 50.09 0.705 6.57 2.93 10.72
11/2/2022 2:30:00 AM 10.02 50.036 0.731 6.57 2.93 10.73
11/2/2022 2:45:00 AM 9.99 49.982 0.734 6.57 2.94 10.74
11/2/2022 3:00:00 AM 9.96 49.928 0.727 6.57 2.92 10.75
11/2/2022 3:15:00 AM 9.93 49.874 0.718 6.57 2.92 10.75
11/2/2022 3:30:00 AM 9.9 49.82 0.716 6.57 2.87 10.77
11/2/2022 3:45:00 AM 9.89 49.802 0.696 6.56 2.87 10.77
11/2/2022 4:00:00 AM 9.87 49.766 0.695 6.56 2.95 10.79
11/2/2022 4:15:00 AM 9.85 49.73 0.673 6.56 2.93 10.79
11/2/2022 4:30:00 AM 9.83 49.694 0.638 6.57 2.9 10.8
11/2/2022 4:45:00 AM 9.82 49.676 0.654 6.57 2.97 10.81
11/2/2022 5:00:00 AM 9.8 49.64 0.638 6.56 3.03 10.81
11/2/2022 5:15:00 AM 9.78 49.604 0.647 6.56 2.99 10.82
11/2/2022 5:30:00 AM 9.77 49.586 0.634 6.56 2.99 10.83
11/2/2022 5:45:00 AM 9.75 49.55 0.622 6.56 2.99 10.84
11/2/2022 6:00:00 AM 9.74 49.532 0.606 6.56 2.99 10.85
11/2/2022 6:15:00 AM 9.72 49.496 0.619 6.56 3.03 10.85
11/2/2022 6:30:00 AM 9.7 49.46 0.618 6.56 2.98 10.86
11/2/2022 6:45:00 AM 9.67 49.406 0.604 6.57 3 10.87
11/2/2022 7:00:00 AM 9.63 49.334 0.608 6.57 3.01 10.88
11/2/2022 7:15:00 AM 9.59 49.262 0.591 6.57 2.95 10.89
11/2/2022 7:30:00 AM 9.55 49.19 0.602 6.56 2.99 10.89
11/2/2022 7:45:00 AM 9.53 49.154 0.597 6.56 2.96 10.92
11/2/2022 8:00:00 AM 9.5 49.1 0.592 6.56 3.13 10.94
11/2/2022 8:15:00 AM 9.48 49.064 0.587 6.57 3 10.98
11/2/2022 8:30:00 AM 9.47 49.046 0.573 6.57 2.98 11.01
11/2/2022 8:45:00 AM 9.46 49.028 0.581 6.58 2.92 11.05
11/2/2022 9:00:00 AM 9.45 49.01 0.565 6.59 2.94 11.09
11/2/2022 9:15:00 AM 9.45 49.01 0.55 6.59 2.96 11.13
11/2/2022 9:30:00 AM 9.45 49.01 0.608 6.6 2.96 11.16
11/2/2022 9:45:00 AM 9.47 49.046 0.607 6.61 2.94 11.21
11/2/2022 10:00:00 AM 9.49 49.082 0.569 6.62 2.92 11.26
11/2/2022 10:15:00 AM 9.51 49.118 0.576 6.64 2.93 11.29
11/2/2022 10:30:00 AM 9.58 49.244 0.591 6.65 2.97 11.33
11/2/2022 10:45:00 AM 9.63 49.334 0.594 6.65 2.93 11.33
11/2/2022 11:00:00 AM 9.71 49.478 0.593 6.65 2.89 11.31
11/2/2022 11:15:00 AM 9.79 49.622 0.586 6.66 2.94 11.3
11/2/2022 11:30:00 AM 9.9 49.82 0.585 6.66 2.94 11.28
11/2/2022 11:45:00 AM 10 50 0.576 6.66 2.92 11.26
11/2/2022 12:00:00 PM 10.12 50.216 0.509 6.67 2.96 11.25
11/2/2022 12:15:00 PM 10.25 50.45 0.514 6.68 2.92 11.24
11/2/2022 12:30:00 PM 10.37 50.666 0.556 6.68 2.9 11.22
11/2/2022 12:45:00 PM 10.5 50.9 0.534 6.69 2.88 11.21
11/2/2022 1:00:00 PM 10.64 51.152 0.566 6.69 2.92 11.17
11/2/2022 1:15:00 PM 10.76 51.368 0.545 6.69 2.86 11.12
11/2/2022 1:30:00 PM 10.86 51.548 0.515 6.69 2.87 11.08
11/2/2022 1:45:00 PM 10.94 51.692 0.501 6.69 2.84 11.03
11/2/2022 2:00:00 PM 10.99 51.782 0.423 6.69 2.86 10.99
11/2/2022 2:15:00 PM 11.06 51.908 0.443 6.69 2.86 10.93
11/2/2022 2:30:00 PM 11.09 51.962 0.363 6.69 2.83 10.9
11/2/2022 2:45:00 PM 11.14 52.052 0.323 6.69 2.8 10.84
11/2/2022 3:00:00 PM 11.21 52.178 0.372 6.68 2.85 10.82
11/2/2022 3:15:00 PM 11.28 52.304 0.353 6.68 2.85 10.79
11/2/2022 3:30:00 PM 11.32 52.376 0.414 6.68 2.82 10.75
11/2/2022 3:45:00 PM 11.33 52.394 0.449 6.67 2.86 10.71
11/2/2022 4:00:00 PM 11.31 52.358 0.168 6.68 2.76 10.69
11/2/2022 4:15:00 PM 11.29 52.322 0.121 6.69 2.77 10.67
11/2/2022 4:30:00 PM 11.26 52.268 0.191 6.67 2.76 10.65
11/2/2022 4:45:00 PM 11.23 52.214 0.155 6.67 2.77 10.64
11/2/2022 5:00:00 PM 11.19 52.142 0.236 6.66 2.78 10.61
11/2/2022 5:15:00 PM 11.15 52.07 0.28 6.64 2.81 10.59
11/2/2022 5:30:00 PM 11.1 51.98 0.192 6.64 2.76 10.58
11/2/2022 5:45:00 PM 11.06 51.908 0.207 6.63 2.78 10.55
11/2/2022 6:00:00 PM 11.01 51.818 0.124 6.63 2.82 10.54
11/2/2022 6:15:00 PM 10.97 51.746 0.118 6.62 2.77 10.54
11/2/2022 6:30:00 PM 10.92 51.656 0.104 6.62 2.77 10.54
11/2/2022 6:45:00 PM 10.88 51.584 0.358 6.59 2.8 10.53
11/2/2022 7:00:00 PM 10.84 51.512 0.051 6.62 2.82 10.54
11/2/2022 7:15:00 PM 10.79 51.422 0.147 6.61 2.85 10.54
11/2/2022 7:30:00 PM 10.75 51.35 0.112 6.61 2.82 10.56
11/2/2022 7:45:00 PM 10.7 51.26 0.183 6.6 2.84 10.57
11/2/2022 8:00:00 PM 10.66 51.188 0.228 6.6 2.82 10.58
11/2/2022 8:15:00 PM 10.61 51.098 0.271 6.59 2.86 10.59
11/2/2022 8:30:00 PM 10.56 51.008 0.228 6.6 2.82 10.61
11/2/2022 8:45:00 PM 10.52 50.936 0.329 6.59 2.86 10.61
11/2/2022 9:00:00 PM 10.47 50.846 0.332 6.58 2.85 10.63
11/2/2022 9:15:00 PM 10.42 50.756 0.317 6.58 2.81 10.64
11/2/2022 9:30:00 PM 10.38 50.684 0.312 6.58 2.83 10.65
11/2/2022 9:45:00 PM 10.33 50.594 0.322 6.58 2.84 10.67
11/2/2022 10:00:00 PM 10.28 50.504 0.33 6.58 2.85 10.68
11/2/2022 10:15:00 PM 10.24 50.432 0.315 6.57 2.82 10.7
11/2/2022 10:30:00 PM 10.19 50.342 0.386 6.57 2.84 10.71
11/2/2022 10:45:00 PM 10.14 50.252 0.52 6.56 2.82 10.71
11/2/2022 11:00:00 PM 10.09 50.162 0.54 6.55 2.84 10.73
11/2/2022 11:15:00 PM 10.04 50.072 0.498 6.56 2.87 10.75
11/2/2022 11:30:00 PM 10 50 0.526 6.56 2.86 10.76
11/2/2022 11:45:00 PM 9.95 49.91 0.336 6.58 2.88 10.77
11/3/2022 12:00:00 AM 9.9 49.82 0.395 6.56 2.84 10.79
11/3/2022 12:15:00 AM 9.86 49.748 0.477 6.56 2.85 10.79
11/3/2022 12:30:00 AM 9.81 49.658 0.483 6.56 2.86 10.81
11/3/2022 12:45:00 AM 9.77 49.586 0.401 6.56 2.94 10.83
11/3/2022 1:00:00 AM 9.73 49.514 0.399 6.56 2.88 10.83
11/3/2022 1:15:00 AM 9.68 49.424 0.382 6.56 2.87 10.84
11/3/2022 1:30:00 AM 9.64 49.352 0.397 6.56 2.89 10.86
11/3/2022 1:45:00 AM 9.6 49.28 0.45 6.56 2.87 10.87
11/3/2022 2:00:00 AM 9.56 49.208 0.458 6.56 2.86 10.88
11/3/2022 2:15:00 AM 9.52 49.136 0.47 6.55 2.9 10.9
11/3/2022 2:30:00 AM 9.47 49.046 0.507 6.55 2.9 10.91
11/3/2022 2:45:00 AM 9.43 48.974 0.508 6.55 3.06 10.91
11/3/2022 3:00:00 AM 9.39 48.902 0.515 6.54 2.94 10.93
11/3/2022 3:15:00 AM 9.35 48.83 0.505 6.53 2.93 10.94
11/3/2022 3:30:00 AM 9.31 48.758 0.505 6.53 2.88 10.95
11/3/2022 3:45:00 AM 9.27 48.686 0.52 6.52 2.85 10.96
11/3/2022 4:00:00 AM 9.23 48.614 0.505 6.51 2.86 10.98
11/3/2022 4:15:00 AM 9.19 48.542 0.505 6.51 2.9 10.98
11/3/2022 4:30:00 AM 9.15 48.47 0.514 6.51 2.89 11
11/3/2022 4:45:00 AM 9.11 48.398 0.502 6.51 2.86 11
11/3/2022 5:00:00 AM 9.07 48.326 0.482 6.5 2.91 11.01
11/3/2022 5:15:00 AM 9.03 48.254 0.224 6.51 2.86 11.04
11/3/2022 5:30:00 AM 8.99 48.182 0.149 6.51 2.86 11.05
11/3/2022 5:45:00 AM 8.96 48.128 0.167 6.51 2.86 11.07
11/3/2022 6:00:00 AM 8.92 48.056 0.201 6.51 2.84 11.08
11/3/2022 6:15:00 AM 8.88 47.984 0.196 6.51 2.89 11.09
11/3/2022 6:30:00 AM 8.84 47.912 0.295 6.5 3.83 11.09
11/3/2022 6:45:00 AM 8.81 47.858 0.23 6.51 4.02 11.11
11/3/2022 7:00:00 AM 8.77 47.786 0.243 6.51 4.05 11.12
11/3/2022 7:15:00 AM 8.74 47.732 0.234 6.51 3.98 11.13
11/3/2022 7:30:00 AM 8.7 47.66 0.25 6.5 3.99 11.15
11/3/2022 7:45:00 AM 8.67 47.606 0.249 6.51 4.03 11.16
11/3/2022 8:00:00 AM 8.63 47.534 0.233 6.51 3.98 11.2
11/3/2022 8:15:00 AM 8.61 47.498 0.243 6.52 4.19 11.22
11/3/2022 8:30:00 AM 8.58 47.444 0.315 6.53 4.02 11.26
11/3/2022 8:45:00 AM 8.56 47.408 0.368 6.53 3.9 11.29
11/3/2022 9:00:00 AM 8.54 47.372 0.472 6.53 3.91 11.32
11/3/2022 9:15:00 AM 8.52 47.336 0.344 6.55 3.97 11.35
11/3/2022 9:30:00 AM 8.51 47.318 0.373 6.54 3.98 11.38
11/3/2022 9:45:00 AM 8.51 47.318 0.36 6.55 3.95 11.4
11/3/2022 10:00:00 AM 8.52 47.336 0.421 6.56 3.89 11.42
11/3/2022 10:15:00 AM 8.57 47.426 0.388 6.58 3.86 11.49
11/3/2022 10:30:00 AM 8.64 47.552 0.39 6.59 4 11.52
11/3/2022 10:45:00 AM 8.74 47.732 0.382 6.61 2.84 11.53
11/3/2022 11:00:00 AM 8.85 47.93 0.379 6.63 2.84 11.53
11/3/2022 11:15:00 AM 8.98 48.164 0.384 6.65 2.83 11.52
11/3/2022 11:30:00 AM 9.11 48.398 0.364 6.66 2.83 11.5
11/3/2022 11:45:00 AM 9.25 48.65 0.324 6.67 2.86 11.48
11/3/2022 12:00:00 PM 9.4 48.92 0.57 6.66 2.76 11.45
11/3/2022 12:15:00 PM 9.58 49.244 0.606 6.67 2.8 11.43
11/3/2022 12:30:00 PM 9.75 49.55 0.671 6.67 2.78 11.41
11/3/2022 12:45:00 PM 9.91 49.838 0.685 6.68 2.78 11.38
11/3/2022 1:00:00 PM 10.09 50.162 0.696 6.7 2.81 11.34
11/3/2022 1:15:00 PM 10.23 50.414 0.695 6.7 2.79 11.29
11/3/2022 1:30:00 PM 10.36 50.648 0.694 6.7 2.77 11.23
11/3/2022 1:45:00 PM 10.45 50.81 0.693 6.7 2.8 11.17
11/3/2022 2:00:00 PM 10.53 50.954 0.7 6.7 2.78 11.1
11/3/2022 2:15:00 PM 10.6 51.08 0.64 6.68 2.75 11.05
11/3/2022 2:30:00 PM 10.65 51.17 0.645 6.69 2.79 11.01
11/3/2022 2:45:00 PM 10.7 51.26 0.658 6.68 2.77 10.95
11/3/2022 3:00:00 PM 10.78 51.404 0.658 6.68 2.77 10.92
11/3/2022 3:15:00 PM 10.86 51.548 0.656 6.68 2.74 10.9
11/3/2022 3:30:00 PM 10.92 51.656 0.654 6.68 2.79 10.84
11/3/2022 3:45:00 PM 10.94 51.692 0.658 6.67 3.16 10.79
11/3/2022 4:00:00 PM 10.94 51.692 0.639 6.65 2.86 10.77
11/3/2022 4:15:00 PM 10.92 51.656 0.656 6.65 2.85 10.75
11/3/2022 4:30:00 PM 10.9 51.62 0.653 6.65 2.88 10.73
11/3/2022 4:45:00 PM 10.87 51.566 0.603 6.65 2.86 10.72
11/3/2022 5:00:00 PM 10.84 51.512 0.57 6.65 2.84 10.69
11/3/2022 5:15:00 PM 10.8 51.44 0.547 6.64 2.8 10.67
11/3/2022 5:30:00 PM 10.77 51.386 0.507 6.64 2.82 10.66
11/3/2022 5:45:00 PM 10.73 51.314 0.465 6.63 2.88 10.65
11/3/2022 6:00:00 PM 10.69 51.242 0.531 6.62 6.63 10.62
11/3/2022 6:15:00 PM 10.65 51.17 0.537 6.61 5.05 10.61
11/3/2022 6:30:00 PM 10.61 51.098 0.544 6.61 4.5 10.6
11/3/2022 6:45:00 PM 10.57 51.026 0.506 6.61 4.52 10.6
11/3/2022 7:00:00 PM 10.53 50.954 0.526 6.6 4.54 10.6
11/3/2022 7:15:00 PM 10.49 50.882 0.517 6.6 4.59 10.6
11/3/2022 7:30:00 PM 10.44 50.792 0.516 6.6 4.54 10.62
11/3/2022 7:45:00 PM 10.4 50.72 0.51 6.6 4.51 10.62
11/3/2022 8:00:00 PM 10.35 50.63 0.5 6.6 4.54 10.63
11/3/2022 8:15:00 PM 10.31 50.558 0.495 6.6 4.51 10.64
11/3/2022 8:30:00 PM 10.26 50.468 0.5 6.6 4.53 10.65
11/3/2022 8:45:00 PM 10.21 50.378 0.507 6.6 4.5 10.67
11/3/2022 9:00:00 PM 10.16 50.288 0.528 6.59 4.52 10.69
11/3/2022 9:15:00 PM 10.12 50.216 0.539 6.59 4.52 10.7
11/3/2022 9:30:00 PM 10.07 50.126 0.575 6.59 4.53 10.71
11/3/2022 9:45:00 PM 10.02 50.036 0.562 6.58 4.49 10.72
11/3/2022 10:00:00 PM 9.98 49.964 0.564 6.58 4.52 10.74
11/3/2022 10:15:00 PM 9.93 49.874 0.565 6.58 4.52 10.76
11/3/2022 10:30:00 PM 9.88 49.784 0.572 6.58 4.51 10.77
11/3/2022 10:45:00 PM 9.83 49.694 0.587 6.58 4.51 10.79
11/3/2022 11:00:00 PM 9.78 49.604 0.599 6.58 4.47 10.79
11/3/2022 11:15:00 PM 9.73 49.514 0.61 6.58 4.49 10.8
11/3/2022 11:30:00 PM 9.69 49.442 0.605 6.58 4.52 10.82
11/3/2022 11:45:00 PM 9.64 49.352 0.607 6.58 4.51 10.83
11/4/2022 12:00:00 AM 9.59 49.262 0.604 6.58 4.37 10.84
11/4/2022 12:15:00 AM 9.55 49.19 0.618 6.58 4.44 10.86
11/4/2022 12:30:00 AM 9.5 49.1 0.626 6.58 4.43 10.87
11/4/2022 12:45:00 AM 9.46 49.028 0.627 6.57 4.49 10.88
11/4/2022 1:00:00 AM 9.42 48.956 0.626 6.57 4.51 10.89
11/4/2022 1:15:00 AM 9.38 48.884 0.624 6.57 4.43 10.9
11/4/2022 1:30:00 AM 9.34 48.812 0.63 6.55 4.39 10.91
11/4/2022 1:45:00 AM 9.3 48.74 0.628 6.54 4.44 10.92
11/4/2022 2:00:00 AM 9.26 48.668 0.63 6.54 4.42 10.94
11/4/2022 2:15:00 AM 9.22 48.596 0.636 6.55 4.35 10.94
11/4/2022 2:30:00 AM 9.18 48.524 0.644 6.55 4.46 10.95
11/4/2022 2:45:00 AM 9.15 48.47 0.644 6.55 4.4 10.96
11/4/2022 3:00:00 AM 9.11 48.398 0.642 6.55 4.39 10.98
11/4/2022 3:15:00 AM 9.08 48.344 0.642 6.54 4.46 10.98
11/4/2022 3:30:00 AM 9.05 48.29 0.644 6.54 4.39 10.99
11/4/2022 3:45:00 AM 9.02 48.236 0.647 6.54 4.42 11.01
11/4/2022 4:00:00 AM 8.99 48.182 0.645 6.54 4.45 11.01
11/4/2022 4:15:00 AM 8.96 48.128 0.644 6.54 4.42 11.03
11/4/2022 4:30:00 AM 8.93 48.074 0.643 6.53 4.45 11.04
11/4/2022 4:45:00 AM 8.9 48.02 0.645 6.52 4.4 11.04
11/4/2022 5:00:00 AM 8.87 47.966 0.648 6.52 4.4 11.05
11/4/2022 5:15:00 AM 8.85 47.93 0.648 6.52 4.42 11.06
11/4/2022 5:30:00 AM 8.82 47.876 0.637 6.52 4.38 11.06
11/4/2022 5:45:00 AM 8.8 47.84 0.638 6.52 4.49 11.07
11/4/2022 6:00:00 AM 8.78 47.804 0.636 6.52 4.43 11.08
11/4/2022 6:15:00 AM 8.75 47.75 0.635 6.51 4.43 11.09
11/4/2022 6:30:00 AM 8.73 47.714 0.635 6.5 4.42 11.09
11/4/2022 6:45:00 AM 8.71 47.678 0.636 6.51 4.4 11.1
11/4/2022 7:00:00 AM 8.69 47.642 0.619 6.51 4.47 11.11
11/4/2022 7:15:00 AM 8.67 47.606 0.626 6.51 4.44 11.12
11/4/2022 7:30:00 AM 8.65 47.57 0.629 6.52 4.44 11.13
11/4/2022 7:45:00 AM 8.64 47.552 0.627 6.52 4.42 11.14
11/4/2022 8:00:00 AM 8.62 47.516 0.626 6.52 4.39 11.16
11/4/2022 8:15:00 AM 8.62 47.516 0.626 6.53 4.41 11.2
11/4/2022 8:30:00 AM 8.61 47.498 0.625 6.53 4.44 11.24
11/4/2022 8:45:00 AM 8.61 47.498 0.624 6.55 4.35 11.28
11/4/2022 9:00:00 AM 8.61 47.498 0.624 6.56 4.42 11.31
11/4/2022 9:15:00 AM 8.62 47.516 0.626 6.57 4.39 11.35
11/4/2022 9:30:00 AM 8.63 47.534 0.625 6.58 4.38 11.37
11/4/2022 9:45:00 AM 8.64 47.552 0.625 6.57 4.44 11.37
11/4/2022 10:00:00 AM 8.67 47.606 0.625 6.59 4.36 11.4
11/4/2022 10:15:00 AM 8.72 47.696 0.623 6.6 4.36 11.43
11/4/2022 10:30:00 AM 8.79 47.822 0.622 6.61 4.38 11.46
11/4/2022 10:45:00 AM 8.88 47.984 0.621 6.62 4.33 11.48
11/4/2022 11:00:00 AM 9 48.2 0.619 6.63 4.38 11.49
11/4/2022 11:15:00 AM 9.12 48.416 0.615 6.65 4.36 11.48
11/4/2022 11:30:00 AM 9.26 48.668 0.613 6.65 4.32 11.47
11/4/2022 11:45:00 AM 9.4 48.92 0.612 6.66 4.33 11.45
11/4/2022 12:00:00 PM 9.57 49.226 0.609 6.67 4.36 11.42
11/4/2022 12:15:00 PM 9.74 49.532 0.607 6.68 4.26 11.42
11/4/2022 12:30:00 PM 9.9 49.82 0.599 6.69 4.31 11.39
11/4/2022 12:45:00 PM 10.04 50.072 0.59 6.7 4.28 11.37
11/4/2022 1:00:00 PM 10.21 50.378 0.584 6.71 4.28 11.33
11/4/2022 1:15:00 PM 10.37 50.666 0.535 6.72 4.28 11.29
11/4/2022 1:30:00 PM 10.5 50.9 0.547 6.72 4.3 11.22
11/4/2022 1:45:00 PM 10.6 51.08 0.531 6.72 4.29 11.17
11/4/2022 2:00:00 PM 10.68 51.224 0.591 6.71 4.3 11.09
11/4/2022 2:15:00 PM 10.75 51.35 0.576 6.71 4.28 11.05
11/4/2022 2:30:00 PM 10.79 51.422 0.57 6.71 4.27 11
11/4/2022 2:45:00 PM 10.86 51.548 0.545 6.71 4.29 10.96
11/4/2022 3:00:00 PM 10.94 51.692 0.568 6.7 4.22 10.93
11/4/2022 3:15:00 PM 11.04 51.872 0.562 6.71 4.29 10.89
11/4/2022 3:30:00 PM 11.11 51.998 0.562 6.71 4.26 10.89
11/4/2022 3:45:00 PM 11.15 52.07 0.572 6.71 4.27 10.83
11/4/2022 4:00:00 PM 11.17 52.106 0.558 6.7 4.25 10.79
11/4/2022 4:15:00 PM 11.17 52.106 0.554 6.7 4.24 10.76
11/4/2022 4:30:00 PM 11.19 52.142 0.508 6.7 4.26 10.76
11/4/2022 4:45:00 PM 11.22 52.196 0.494 6.71 4.33 10.78
11/4/2022 5:00:00 PM 11.2 52.16 0.53 6.68 4.24 10.7
11/4/2022 5:15:00 PM 11.19 52.142 0.547 6.68 4.28 10.65
11/4/2022 5:30:00 PM 11.18 52.124 0.555 6.66 4.3 10.61
11/4/2022 5:45:00 PM 11.17 52.106 0.511 6.66 4.27 10.56
11/4/2022 6:00:00 PM 11.14 52.052 0.544 6.65 4.27 10.51
11/4/2022 6:15:00 PM 11.13 52.034 0.56 6.64 4.29 10.47
11/4/2022 6:30:00 PM 11.13 52.034 0.552 6.63 4.3 10.45
11/4/2022 6:45:00 PM 11.13 52.034 0.555 6.63 4.31 10.43
11/4/2022 7:00:00 PM 11.12 52.016 0.582 6.62 4.29 10.43
11/4/2022 7:15:00 PM 11.11 51.998 0.526 6.63 4.28 10.42
11/4/2022 7:30:00 PM 11.1 51.98 0.525 6.62 4.27 10.43
11/4/2022 7:45:00 PM 11.08 51.944 0.586 6.61 4.33 10.41
11/4/2022 8:00:00 PM 11.06 51.908 0.562 6.62 4.41 10.42
11/4/2022 8:15:00 PM 11.04 51.872 0.558 6.61 4.33 10.43
11/4/2022 8:30:00 PM 11.02 51.836 0.566 6.61 4.33 10.42
11/4/2022 8:45:00 PM 10.99 51.782 0.573 6.6 4.33 10.42
11/4/2022 9:00:00 PM 10.97 51.746 0.57 6.6 4.3 10.43
11/4/2022 9:15:00 PM 10.94 51.692 0.559 6.6 4.29 10.43
11/4/2022 9:30:00 PM 10.92 51.656 0.554 6.6 4.32 10.46
11/4/2022 9:45:00 PM 10.9 51.62 0.547 6.6 4.3 10.44
11/4/2022 10:00:00 PM 10.88 51.584 0.534 6.6 4.29 10.45
11/4/2022 10:15:00 PM 10.88 51.584 0.543 6.6 4.31 10.47
11/4/2022 10:30:00 PM 10.87 51.566 0.575 6.6 4.29 10.45
11/4/2022 10:45:00 PM 10.88 51.584 0.567 6.59 4.33 10.45
11/4/2022 11:00:00 PM 10.88 51.584 0.573 6.58 4.32 10.48
11/4/2022 11:15:00 PM 10.88 51.584 0.585 6.58 4.42 10.45
11/4/2022 11:30:00 PM 10.88 51.584 0.568 6.58 4.31 10.45
11/4/2022 11:45:00 PM 10.89 51.602 0.586 6.6 4.29 10.45
11/5/2022 12:00:00 AM 10.87 51.566 0.575 6.59 4.31 10.47
11/5/2022 12:15:00 AM 10.85 51.53 0.579 6.59 4.31 10.45
11/5/2022 12:30:00 AM 10.83 51.494 0.592 6.59 4.29 10.47
11/5/2022 12:45:00 AM 10.82 51.476 0.591 6.59 4.29 10.46
11/5/2022 1:00:00 AM 10.8 51.44 0.583 6.59 4.35 10.47
11/5/2022 1:15:00 AM 10.78 51.404 0.582 6.59 4.28 10.47
11/5/2022 1:30:00 AM 10.75 51.35 0.577 6.58 4.3 10.48
11/5/2022 1:45:00 AM 10.73 51.314 0.572 6.58 4.33 10.48
11/5/2022 2:00:00 AM 10.71 51.278 0.582 6.58 4.27 10.5
11/5/2022 2:15:00 AM 10.69 51.242 0.543 6.58 4.38 10.49
11/5/2022 2:30:00 AM 10.66 51.188 0.555 6.58 4.35 10.5
11/5/2022 2:45:00 AM 10.65 51.17 0.554 6.58 4.33 10.51
11/5/2022 3:00:00 AM 10.65 51.17 0.48 6.58 4.29 10.51
11/5/2022 3:15:00 AM 10.64 51.152 0.499 6.58 4.3 10.51
11/5/2022 3:30:00 AM 10.65 51.17 0.561 6.57 4.27 10.51
11/5/2022 3:45:00 AM 10.64 51.152 0.538 6.57 4.28 10.51
11/5/2022 4:00:00 AM 10.64 51.152 0.517 6.57 4.34 10.51
11/5/2022 4:15:00 AM 10.64 51.152 0.478 6.57 4.31 10.51
11/5/2022 4:30:00 AM 10.63 51.134 0.522 6.56 4.29 10.51
11/5/2022 4:45:00 AM 10.62 51.116 0.517 6.56 4.29 10.51
11/5/2022 5:00:00 AM 10.62 51.116 0.503 6.57 4.27 10.51
11/5/2022 5:15:00 AM 10.62 51.116 0.547 6.57 4.25 10.51
11/5/2022 5:30:00 AM 10.63 51.134 0.527 6.57 4.32 10.51
11/5/2022 5:45:00 AM 10.65 51.17 0.55 6.57 4.26 10.52
11/5/2022 6:00:00 AM 10.67 51.206 0.506 6.57 4.29 10.51
11/5/2022 6:15:00 AM 10.69 51.242 0.511 6.57 4.28 10.5
11/5/2022 6:30:00 AM 10.73 51.314 0.533 6.57 4.33 10.5
11/5/2022 6:45:00 AM 10.76 51.368 0.552 6.57 4.32 10.5
11/5/2022 7:00:00 AM 10.79 51.422 0.521 6.58 4.29 10.49
11/5/2022 7:15:00 AM 10.83 51.494 0.515 6.58 4.25 10.47
11/5/2022 7:30:00 AM 10.87 51.566 0.504 6.58 4.28 10.47
11/5/2022 7:45:00 AM 10.91 51.638 0.515 6.58 4.26 10.46
11/5/2022 8:00:00 AM 10.97 51.746 0.517 6.59 4.29 10.46
11/5/2022 8:15:00 AM 11.02 51.836 0.508 6.6 4.32 10.45
11/5/2022 8:30:00 AM 11.06 51.908 0.507 6.6 4.3 10.47
11/5/2022 8:45:00 AM 11.1 51.98 0.462 6.62 4.25 10.5
11/5/2022 9:00:00 AM 11.16 52.088 0.478 6.62 4.29 10.53
11/5/2022 9:15:00 AM 11.22 52.196 0.462 6.63 4.25 10.54
11/5/2022 9:30:00 AM 11.27 52.286 0.387 6.64 4.23 10.57
11/5/2022 9:45:00 AM 11.32 52.376 0.483 6.64 4.28 10.58
11/5/2022 10:00:00 AM 11.36 52.448 0.428 6.65 4.32 10.58
11/5/2022 10:15:00 AM 11.41 52.538 0.436 6.65 4.34 10.6
11/5/2022 10:30:00 AM 11.47 52.646 0.497 6.66 4.5 10.64
11/5/2022 10:45:00 AM 11.5 52.7 0.493 6.66 4.33 10.62
11/5/2022 11:00:00 AM 11.54 52.772 0.452 6.66 4.29 10.59
11/5/2022 11:15:00 AM 11.57 52.826 0.413 6.66 4.53 10.55
11/5/2022 11:30:00 AM 11.62 52.916 0.369 6.67 4.73 10.54
11/5/2022 11:45:00 AM 11.68 53.024 0.352 6.67 4.71 10.54
11/5/2022 12:00:00 PM 11.73 53.114 0.37 6.66 4.5 10.49
11/5/2022 12:15:00 PM 11.75 53.15 0.411 6.66 4.34 10.49
11/5/2022 12:30:00 PM 11.8 53.24 0.33 6.68 4.3 10.55
11/5/2022 12:45:00 PM 11.86 53.348 0.341 6.69 4.32 10.6
11/5/2022 1:00:00 PM 11.91 53.438 0.318 6.7 4.32 10.57
11/5/2022 1:15:00 PM 11.94 53.492 0.328 6.69 4.3 10.54
11/5/2022 1:30:00 PM 11.99 53.582 0.294 6.7 4.33 10.53
11/5/2022 1:45:00 PM 12.02 53.636 0.277 6.69 4.25 10.47
11/5/2022 2:00:00 PM 12.03 53.654 0.375 6.67 4.31 10.41
11/5/2022 2:15:00 PM 12.07 53.726 0.349 6.68 4.33 10.43
11/5/2022 2:30:00 PM 12.08 53.744 0.34 6.67 4.29 10.38
11/5/2022 2:45:00 PM 12.12 53.816 0.325 6.68 4.3 10.42
11/5/2022 3:00:00 PM 12.15 53.87 0.317 6.69 4.32 10.42
11/5/2022 3:15:00 PM 12.19 53.942 0.337 6.67 4.33 10.36
11/5/2022 3:30:00 PM 12.23 54.014 0.325 6.67 4.3 10.36
11/5/2022 3:45:00 PM 12.26 54.068 0.162 6.69 4.31 10.31
11/5/2022 4:00:00 PM 12.31 54.158 0.102 6.7 4.35 10.3
11/5/2022 4:15:00 PM 12.35 54.23 0.147 6.71 4.31 10.35
11/5/2022 4:30:00 PM 12.38 54.284 0.109 6.72 4.31 10.41
11/5/2022 4:45:00 PM 12.39 54.302 0.109 6.72 4.33 10.36
11/5/2022 5:00:00 PM 12.4 54.32 0.129 6.7 4.35 10.29
11/5/2022 5:15:00 PM 12.39 54.302 0.152 6.68 4.32 10.21
11/5/2022 5:30:00 PM 12.39 54.302 0.191 6.67 4.33 10.17
11/5/2022 5:45:00 PM 12.41 54.338 0.224 6.66 4.29 10.12
11/5/2022 6:00:00 PM 12.42 54.356 0.204 6.65 4.32 10.09
11/5/2022 6:15:00 PM 12.42 54.356 0.179 6.65 4.27 10.07
11/5/2022 6:30:00 PM 12.43 54.374 0.193 6.64 4.33 10.05
11/5/2022 6:45:00 PM 12.46 54.428 0.216 6.64 4.31 10.04
11/5/2022 7:00:00 PM 12.48 54.464 0.206 6.64 4.42 10.03
11/5/2022 7:15:00 PM 12.53 54.554 0.207 6.64 4.31 10.02
11/5/2022 7:30:00 PM 12.55 54.59 0.163 6.65 4.3 10
11/5/2022 7:45:00 PM 12.58 54.644 0.196 6.64 4.36 9.99
11/5/2022 8:00:00 PM 12.59 54.662 0.16 6.64 4.32 9.99
11/5/2022 8:15:00 PM 12.61 54.698 0.158 6.65 4.33 9.98
11/5/2022 8:30:00 PM 12.61 54.698 0.144 6.64 4.32 9.98
11/5/2022 8:45:00 PM 12.62 54.716 0.193 6.64 4.33 9.97
11/5/2022 9:00:00 PM 12.64 54.752 0.169 6.64 4.29 9.97
11/5/2022 9:15:00 PM 12.65 54.77 0.159 6.64 4.3 9.96
11/5/2022 9:30:00 PM 12.67 54.806 0.141 6.65 4.32 9.96
11/5/2022 9:45:00 PM 12.69 54.842 0.035 6.65 4.32 9.96
11/5/2022 10:00:00 PM 12.68 54.824 0.035 6.65 4.31 9.95
11/5/2022 10:15:00 PM 12.68 54.824 0.214 6.64 4.27 9.95
11/5/2022 10:30:00 PM 12.69 54.842 0.148 6.64 4.31 9.96
11/5/2022 10:45:00 PM 12.68 54.824 0.151 6.64 4.35 9.96
11/5/2022 11:00:00 PM 12.69 54.842 0.151 6.64 4.34 9.96
11/5/2022 11:15:00 PM 12.68 54.824 0.186 6.63 4.36 9.96
11/5/2022 11:30:00 PM 12.67 54.806 0.168 6.63 4.31 9.95
11/5/2022 11:45:00 PM 12.69 54.842 0.154 6.64 4.32 9.95
11/6/2022 12:00:00 AM 12.69 54.842 0.108 6.64 4.32 9.95
11/6/2022 12:15:00 AM 12.69 54.842 0.124 6.64 4.37 9.95
11/6/2022 12:30:00 AM 12.7 54.86 0.115 6.63 4.31 9.94
11/6/2022 12:45:00 AM 12.71 54.878 0.11 6.64 4.34 9.94
11/6/2022 1:00:00 AM 12.72 54.896 0.19 6.63 4.28 9.94
11/6/2022 1:15:00 AM 12.74 54.932 0.211 6.63 4.32 9.93
11/6/2022 1:30:00 AM 12.75 54.95 0.26 6.62 4.34 9.93
11/6/2022 1:45:00 AM 12.77 54.986 0.273 6.62 4.31 9.92
11/6/2022 2:00:00 AM 12.8 55.04 0.293 6.62 4.3 9.91
11/6/2022 2:15:00 AM 12.82 55.076 0.281 6.62 4.32 9.9
11/6/2022 2:30:00 AM 12.84 55.112 0.28 6.62 4.32 9.89
11/6/2022 2:45:00 AM 12.85 55.13 0.278 6.62 4.35 9.89
11/6/2022 3:00:00 AM 12.87 55.166 0.281 6.62 4.25 9.89
11/6/2022 3:15:00 AM 12.88 55.184 0.283 6.63 4.28 9.89
11/6/2022 3:30:00 AM 12.89 55.202 0.287 6.62 4.31 9.88
11/6/2022 3:45:00 AM 12.89 55.202 0.279 6.63 4.4 9.88
11/6/2022 4:00:00 AM 12.91 55.238 0.293 6.62 4.33 9.88
11/6/2022 4:15:00 AM 12.93 55.274 0.251 6.62 4.35 9.88
11/6/2022 4:30:00 AM 12.95 55.31 0.164 6.63 4.33 9.88
11/6/2022 4:45:00 AM 12.94 55.292 0.153 6.63 4.34 9.88
11/6/2022 5:00:00 AM 12.92 55.256 0.215 6.62 4.34 9.88
11/6/2022 5:15:00 AM 12.91 55.238 0.238 6.62 4.32 9.88
11/6/2022 5:30:00 AM 12.9 55.22 0.127 6.61 4.3 9.88
11/6/2022 5:45:00 AM 12.89 55.202 0.224 6.61 4.34 9.89
11/6/2022 6:00:00 AM 12.88 55.184 0.175 6.61 4.36 9.89
11/6/2022 6:15:00 AM 12.88 55.184 0.16 6.62 4.41 9.9
11/6/2022 6:30:00 AM 12.88 55.184 0.127 6.62 4.32 9.9
11/6/2022 6:45:00 AM 12.88 55.184 0.124 6.62 4.38 9.9
11/6/2022 7:00:00 AM 12.87 55.166 0.186 6.61 4.42 9.9
11/6/2022 7:15:00 AM 12.85 55.13 0.281 6.6 4.38 9.91
11/6/2022 7:30:00 AM 12.85 55.13 0.328 6.59 4.41 9.93
11/6/2022 7:45:00 AM 12.86 55.148 0.411 6.58 4.39 9.96
11/6/2022 8:00:00 AM 12.85 55.13 0.275 6.58 4.4 9.97
11/6/2022 8:15:00 AM 12.84 55.112 0.313 6.59 4.41 10.01
11/6/2022 8:30:00 AM 12.83 55.094 0.323 6.58 4.37 10.02
11/6/2022 8:45:00 AM 12.85 55.13 0.415 6.6 4.39 10.14
11/6/2022 9:00:00 AM 12.87 55.166 0.409 6.61 4.3 10.2
11/6/2022 9:15:00 AM 12.88 55.184 0.235 6.64 4.4 10.19
11/6/2022 9:30:00 AM 12.92 55.256 0.33 6.64 4.33 10.23
11/6/2022 9:45:00 AM 12.94 55.292 0.395 6.65 4.33 10.28
11/6/2022 10:00:00 AM 12.97 55.346 0.444 6.65 4.3 10.3
11/6/2022 10:15:00 AM 13.02 55.436 0.451 6.67 4.34 10.34
11/6/2022 10:30:00 AM 13.04 55.472 0.492 6.66 4.35 10.3
11/6/2022 10:45:00 AM 13.07 55.526 0.495 6.66 4.34 10.27
11/6/2022 11:00:00 AM 13.11 55.598 0.5 6.66 4.29 10.27
11/6/2022 11:15:00 AM 13.13 55.634 0.462 6.66 4.34 10.25
11/6/2022 11:30:00 AM 13.22 55.796 0.492 6.69 4.34 10.37
11/6/2022 11:45:00 AM 13.28 55.904 0.481 6.7 4.41 10.41
11/6/2022 12:00:00 PM 13.33 55.994 0.468 6.71 4.33 10.41
11/6/2022 12:15:00 PM 13.36 56.048 0.492 6.69 4.32 10.32
11/6/2022 12:30:00 PM 13.41 56.138 0.5 6.68 4.32 10.25
11/6/2022 12:45:00 PM 13.44 56.192 0.455 6.66 4.27 10.2
11/6/2022 1:00:00 PM 13.49 56.282 0.438 6.66 4.3 10.19
11/6/2022 1:15:00 PM 13.48 56.264 0.519 6.64 4.27 10.1
11/6/2022 1:30:00 PM 13.52 56.336 0.503 6.65 4.29 10.12
11/6/2022 1:45:00 PM 13.59 56.462 0.48 6.69 4.29 10.23
11/6/2022 2:00:00 PM 13.61 56.498 0.387 6.7 4.27 10.23
11/6/2022 2:15:00 PM 13.65 56.57 0.319 6.7 4.29 10.23
11/6/2022 2:30:00 PM 13.69 56.642 0.358 6.68 4.31 10.14
11/6/2022 2:45:00 PM 13.71 56.678 0.404 6.66 4.32 10.05
11/6/2022 3:00:00 PM 13.73 56.714 0.39 6.66 4.27 10.06
11/6/2022 3:15:00 PM 13.75 56.75 0.353 6.65 4.33 10.06
11/6/2022 3:30:00 PM 13.75 56.75 0.391 6.65 4.41 10.03
11/6/2022 3:45:00 PM 13.76 56.768 0.366 6.63 4.39 9.96
11/6/2022 4:00:00 PM 13.75 56.75 0.364 6.62 4.32 9.91
11/6/2022 4:15:00 PM 13.74 56.732 0.34 6.62 4.3 9.89
11/6/2022 4:30:00 PM 13.74 56.732 0.312 6.61 4.33 9.84
11/6/2022 4:45:00 PM 13.76 56.768 0.328 6.6 4.3 9.8
11/6/2022 5:00:00 PM 13.75 56.75 0.32 6.59 4.27 9.77
11/6/2022 5:15:00 PM 13.76 56.768 0.315 6.62 4.28 9.74
11/6/2022 5:30:00 PM 13.75 56.75 0.294 6.62 4.29 9.72
11/6/2022 5:45:00 PM 13.76 56.768 0.303 6.62 4.28 9.7
11/6/2022 6:00:00 PM 13.74 56.732 0.294 6.62 4.28 9.71
11/6/2022 6:15:00 PM 13.72 56.696 0.293 6.61 4.38 9.7
11/6/2022 6:30:00 PM 13.71 56.678 0.3 6.61 4.3 9.7
11/6/2022 6:45:00 PM 13.71 56.678 0.292 6.61 4.15 9.7
11/6/2022 7:00:00 PM 13.71 56.678 0.318 6.61 4.85 9.7
11/6/2022 7:15:00 PM 13.71 56.678 0.279 6.61 4.58 9.7
11/6/2022 7:30:00 PM 13.7 56.66 0.292 6.61 4.64 9.7
11/6/2022 7:45:00 PM 13.71 56.678 0.338 6.59 4.19 9.69
11/6/2022 8:00:00 PM 13.7 56.66 0.309 6.61 3.83 9.7
11/6/2022 8:15:00 PM 13.69 56.642 0.322 6.6 3.83 9.7
11/6/2022 8:30:00 PM 13.69 56.642 0.32 6.6 3.43 9.7
11/6/2022 8:45:00 PM 13.68 56.624 0.343 6.6 3.47 9.69
11/6/2022 9:00:00 PM 13.67 56.606 0.292 6.6 3.43 9.71
11/6/2022 9:15:00 PM 13.69 56.642 0.259 6.6 3.45 9.7
11/6/2022 9:30:00 PM 13.7 56.66 0.283 6.6 3.46 9.7
11/6/2022 9:45:00 PM 13.71 56.678 0.269 6.6 3.4 9.69
11/6/2022 10:00:00 PM 13.68 56.624 0.261 6.6 2.73 9.7
11/6/2022 10:15:00 PM 13.67 56.606 0.28 6.6 2.7 9.71
11/6/2022 10:30:00 PM 13.64 56.552 0.288 6.59 2.7 9.71
11/6/2022 10:45:00 PM 13.62 56.516 0.291 6.59 2.72 9.72
11/6/2022 11:00:00 PM 13.59 56.462 0.272 6.58 2.71 9.73
11/6/2022 11:15:00 PM 13.58 56.444 0.284 6.57 2.8 9.73
11/6/2022 11:30:00 PM 13.57 56.426 0.277 6.58 3.3 9.71
11/6/2022 11:45:00 PM 13.55 56.39 0.23 6.59 3.03 9.73
11/7/2022 12:00:00 AM 13.52 56.336 0.297 6.58 10.57 9.74
11/7/2022 12:15:00 AM 13.51 56.318 0.283 6.58 2.81 9.73
11/7/2022 12:30:00 AM 13.47 56.246 0.252 6.58 2.77 9.74
11/7/2022 12:45:00 AM 13.43 56.174 0.251 6.58 2.82 9.75
11/7/2022 1:00:00 AM 13.38 56.084 0.175 6.58 2.78 9.77
11/7/2022 1:15:00 AM 13.34 56.012 0.181 6.57 2.77 9.78
11/7/2022 1:30:00 AM 13.29 55.922 0.087 6.57 2.78 9.79
11/7/2022 1:45:00 AM 13.25 55.85 0.094 6.57 2.77 9.8
11/7/2022 2:00:00 AM 13.21 55.778 0.089 6.57 2.8 9.81
11/7/2022 2:15:00 AM 13.17 55.706 0.094 6.57 2.78 9.82
11/7/2022 2:30:00 AM 13.13 55.634 0.093 6.56 2.79 9.83
11/7/2022 2:45:00 AM 13.09 55.562 0.067 6.57 2.78 9.84
11/7/2022 3:00:00 AM 13.05 55.49 0.094 6.56 2.77 9.85
11/7/2022 3:15:00 AM 13.01 55.418 0.159 6.55 2.83 9.86
11/7/2022 3:30:00 AM 12.97 55.346 0.351 6.54 2.83 9.86
11/7/2022 3:45:00 AM 12.94 55.292 0.401 6.54 2.8 9.87
11/7/2022 4:00:00 AM 12.9 55.22 0.238 6.54 2.8 9.89
11/7/2022 4:15:00 AM 12.86 55.148 0.113 6.56 2.84 9.9
11/7/2022 4:30:00 AM 12.82 55.076 0.121 6.57 2.79 9.91
11/7/2022 4:45:00 AM 12.78 55.004 0.136 6.57 2.8 9.92
11/7/2022 5:00:00 AM 12.74 54.932 0.114 6.57 2.84 9.93
11/7/2022 5:15:00 AM 12.69 54.842 0.069 6.58 2.79 9.95
11/7/2022 5:30:00 AM 12.64 54.752 0.229 6.56 2.8 9.96
11/7/2022 5:45:00 AM 12.59 54.662 0.195 6.56 2.83 9.97
11/7/2022 6:00:00 AM 12.54 54.572 0.367 6.55 2.82 9.98
11/7/2022 6:15:00 AM 12.49 54.482 0.411 6.55 2.79 10
11/7/2022 6:30:00 AM 12.44 54.392 0.305 6.56 2.81 10.01
11/7/2022 6:45:00 AM 12.39 54.302 0.334 6.56 2.79 10.03
11/7/2022 7:00:00 AM 12.34 54.212 0.34 6.55 2.79 10.05
11/7/2022 7:15:00 AM 12.29 54.122 0.358 6.56 2.81 10.1
11/7/2022 7:30:00 AM 12.25 54.05 0.469 6.55 2.81 10.13
11/7/2022 7:45:00 AM 12.2 53.96 0.297 6.58 2.8 10.17
11/7/2022 8:00:00 AM 12.15 53.87 0.069 6.6 2.8 10.22
11/7/2022 8:15:00 AM 12.12 53.816 0.133 6.6 2.81 10.24
11/7/2022 8:30:00 AM 12.08 53.744 0.185 6.6 2.79 10.27
11/7/2022 8:45:00 AM 12.05 53.69 0.148 6.62 2.84 10.3
11/7/2022 9:00:00 AM 12.05 53.69 0.243 6.62 2.82 10.35
11/7/2022 9:15:00 AM 12.08 53.744 0.171 6.64 2.77 10.43
11/7/2022 9:30:00 AM 12.12 53.816 0.194 6.64 2.83 10.49
11/7/2022 9:45:00 AM 12.16 53.888 0.122 6.66 2.84 10.53
11/7/2022 10:00:00 AM 12.21 53.978 0.07 6.68 2.81 10.56
11/7/2022 10:15:00 AM 12.27 54.086 0.094 6.68 2.91 10.56
11/7/2022 10:30:00 AM 12.33 54.194 0.289 6.68 2.89 10.56
11/7/2022 10:45:00 AM 12.41 54.338 0.071 6.69 2.85 10.57
11/7/2022 11:00:00 AM 12.5 54.5 0.302 6.69 2.87 10.57
11/7/2022 11:15:00 AM 12.6 54.68 0.301 6.71 2.84 10.57
11/7/2022 11:30:00 AM 12.69 54.842 0.301 6.7 2.83 10.57
11/7/2022 11:45:00 AM 12.77 54.986 0.332 6.7 2.88 10.57
11/7/2022 12:00:00 PM 12.85 55.13 0.266 6.71 2.8 10.57
11/7/2022 12:15:00 PM 12.95 55.31 0.273 6.71 2.78 10.55
11/7/2022 12:30:00 PM 13.01 55.418 0.252 6.72 2.8 10.51
11/7/2022 12:45:00 PM 13.05 55.49 0.316 6.72 2.77 10.47
11/7/2022 1:00:00 PM 13.03 55.454 0.247 6.71 2.79 10.41
11/7/2022 1:15:00 PM 13 55.4 0.243 6.71 2.83 10.39
11/7/2022 1:30:00 PM 12.96 55.328 0.2 6.72 2.82 10.36
11/7/2022 1:45:00 PM 12.95 55.31 0.158 6.71 2.83 10.32
11/7/2022 2:00:00 PM 12.95 55.31 0.122 6.71 2.86 10.3
11/7/2022 2:15:00 PM 12.97 55.346 0.071 6.71 2.84 10.3
11/7/2022 2:30:00 PM 12.98 55.364 0.094 6.68 2.82 10.26
11/7/2022 2:45:00 PM 12.96 55.328 0.096 6.68 2.82 10.23
11/7/2022 3:00:00 PM 12.91 55.238 0.101 6.68 2.82 10.21
11/7/2022 3:15:00 PM 12.85 55.13 0.103 6.68 2.82 10.2
11/7/2022 3:30:00 PM 12.78 55.004 0.099 6.67 2.76 10.19
11/7/2022 3:45:00 PM 12.73 54.914 0.149 6.66 2.85 10.18
11/7/2022 4:00:00 PM 12.67 54.806 0.174 6.66 2.87 10.16
11/7/2022 4:15:00 PM 12.6 54.68 0.188 6.65 2.82 10.15
11/7/2022 4:30:00 PM 12.53 54.554 0.192 6.65 2.84 10.15
11/7/2022 4:45:00 PM 12.45 54.41 0.221 6.64 2.86 10.14
11/7/2022 5:00:00 PM 12.38 54.284 0.229 6.63 2.85 10.12
11/7/2022 5:15:00 PM 12.3 54.14 0.271 6.6 2.87 10.12
11/7/2022 5:30:00 PM 12.22 53.996 0.228 6.62 2.88 10.11
11/7/2022 5:45:00 PM 12.15 53.87 0.145 6.62 2.9 10.13
11/7/2022 6:00:00 PM 12.08 53.744 0.266 6.61 2.9 10.14
11/7/2022 6:15:00 PM 12.01 53.618 0.307 6.6 2.92 10.15
11/7/2022 6:30:00 PM 11.93 53.474 0.409 6.59 2.87 10.16
11/7/2022 6:45:00 PM 11.85 53.33 0.48 6.57 2.89 10.18
11/7/2022 7:00:00 PM 11.77 53.186 0.479 6.57 2.89 10.2
11/7/2022 7:15:00 PM 11.71 53.078 0.496 6.56 3.05 10.21
11/7/2022 7:30:00 PM 11.64 52.952 0.427 6.54 3.04 10.24
11/7/2022 7:45:00 PM 11.57 52.826 0.431 6.54 3 10.26
11/7/2022 8:00:00 PM 11.5 52.7 0.348 6.54 3.01 10.28
11/7/2022 8:15:00 PM 11.44 52.592 0.181 6.55 3.05 10.31
11/7/2022 8:30:00 PM 11.38 52.484 0.315 6.51 3.02 10.32
11/7/2022 8:45:00 PM 11.32 52.376 0.352 6.5 2.98 10.34
11/7/2022 9:00:00 PM 11.27 52.286 0.338 6.5 2.99 10.36
11/7/2022 9:15:00 PM 11.21 52.178 0.356 6.5 3.02 10.38
11/7/2022 9:30:00 PM 11.17 52.106 0.355 6.5 3.01 10.4
11/7/2022 9:45:00 PM 11.11 51.998 0.357 6.5 3.08 10.4
11/7/2022 10:00:00 PM 11.06 51.908 0.343 6.5 3.02 10.43
11/7/2022 10:15:00 PM 11.01 51.818 0.346 6.49 3.05 10.44
11/7/2022 10:30:00 PM 10.96 51.728 0.259 6.49 2.95 10.46
11/7/2022 10:45:00 PM 10.9 51.62 0.272 6.49 2.9 10.48
11/7/2022 11:00:00 PM 10.82 51.476 0.219 6.49 2.9 10.5
11/7/2022 11:15:00 PM 10.74 51.332 0.228 6.49 2.88 10.52
11/7/2022 11:30:00 PM 10.69 51.242 0.156 6.5 2.87 10.53
11/7/2022 11:45:00 PM 10.64 51.152 0.168 6.5 2.91 10.56
11/8/2022 12:00:00 AM 10.58 51.044 0.195 6.5 2.88 10.58
11/8/2022 12:15:00 AM 10.53 50.954 0.221 6.49 2.93 10.59
11/8/2022 12:30:00 AM 10.48 50.864 0.234 6.5 2.88 10.61
11/8/2022 12:45:00 AM 10.43 50.774 0.203 6.5 2.93 10.62
11/8/2022 1:00:00 AM 10.39 50.702 0.195 6.49 2.88 10.64
11/8/2022 1:15:00 AM 10.35 50.63 0.116 6.5 2.91 10.65
11/8/2022 1:30:00 AM 10.3 50.54 0.102 6.5 2.9 10.67
11/8/2022 1:45:00 AM 10.25 50.45 0.112 6.5 2.9 10.69
11/8/2022 2:00:00 AM 10.21 50.378 0.114 6.5 2.9 10.69
11/8/2022 2:15:00 AM 10.16 50.288 0.134 6.51 2.89 10.71
11/8/2022 2:30:00 AM 10.13 50.234 0.093 6.52 2.91 10.72
11/8/2022 2:45:00 AM 10.09 50.162 0.053 6.53 2.89 10.74
11/8/2022 3:00:00 AM 10.06 50.108 0.09 6.53 2.91 10.74
11/8/2022 3:15:00 AM 10.04 50.072 0.096 6.53 2.96 10.75
11/8/2022 3:30:00 AM 10.02 50.036 0.104 6.53 2.94 10.76
11/8/2022 3:45:00 AM 10 50 0.14 6.54 2.89 10.77
11/8/2022 4:00:00 AM 9.99 49.982 0.142 6.54 2.89 10.77
11/8/2022 4:15:00 AM 9.96 49.928 0.146 6.54 2.93 10.78
11/8/2022 4:30:00 AM 9.94 49.892 0.143 6.54 2.94 10.79
11/8/2022 4:45:00 AM 9.9 49.82 0.143 6.55 2.92 10.8
11/8/2022 5:00:00 AM 9.87 49.766 0.137 6.55 2.93 10.81
11/8/2022 5:15:00 AM 9.83 49.694 0.113 6.55 2.94 10.82
11/8/2022 5:30:00 AM 9.79 49.622 0.117 6.55 2.95 10.83
11/8/2022 5:45:00 AM 9.76 49.568 0.123 6.55 2.92 10.84
11/8/2022 6:00:00 AM 9.72 49.496 0.118 6.55 2.9 10.85
11/8/2022 6:15:00 AM 9.68 49.424 0.115 6.55 2.95 10.88
11/8/2022 6:30:00 AM 9.66 49.388 0.101 6.55 2.96 10.89
11/8/2022 6:45:00 AM 9.64 49.352 0.114 6.56 2.9 10.89
11/8/2022 7:00:00 AM 9.61 49.298 0.114 6.56 2.91 10.92
11/8/2022 7:15:00 AM 9.58 49.244 0.107 6.57 2.93 10.96
11/8/2022 7:30:00 AM 9.55 49.19 0.103 6.58 2.94 11
11/8/2022 7:45:00 AM 9.53 49.154 0.109 6.59 2.97 11.04
11/8/2022 8:00:00 AM 9.5 49.1 0.113 6.59 2.95 11.09
11/8/2022 8:15:00 AM 9.49 49.082 0.117 6.59 2.88 11.12
11/8/2022 8:30:00 AM 9.48 49.064 0.119 6.6 2.91 11.15
11/8/2022 8:45:00 AM 9.47 49.046 0.139 6.61 2.88 11.19
11/8/2022 9:00:00 AM 9.48 49.064 0.144 6.63 2.91 11.22
11/8/2022 9:15:00 AM 9.49 49.082 0.142 6.65 2.91 11.27
11/8/2022 9:30:00 AM 9.55 49.19 0.124 6.67 2.88 11.33
11/8/2022 9:45:00 AM 9.58 49.244 0.124 6.68 2.87 11.36
11/8/2022 10:00:00 AM 9.64 49.352 0.134 6.69 2.85 11.36
11/8/2022 10:15:00 AM 9.69 49.442 0.138 6.7 2.87 11.37
11/8/2022 10:30:00 AM 9.78 49.604 0.125 6.71 2.85 11.37
11/8/2022 10:45:00 AM 9.84 49.712 0.114 6.72 2.9 11.36
11/8/2022 11:00:00 AM 9.94 49.892 0.129 6.73 2.83 11.36
11/8/2022 11:15:00 AM 10.06 50.108 0.128 6.74 2.88 11.36
11/8/2022 11:30:00 AM 10.16 50.288 0.107 6.74 2.88 11.35
11/8/2022 11:45:00 AM 10.25 50.45 0.14 6.75 2.86 11.36
11/8/2022 12:00:00 PM 10.35 50.63 0.159 6.72 2.83 11.33
11/8/2022 12:15:00 PM 10.43 50.774 0.138 6.74 2.88 11.3
11/8/2022 12:30:00 PM 10.5 50.9 0.136 6.74 2.87 11.27
11/8/2022 12:45:00 PM 10.56 51.008 0.121 6.74 2.87 11.22
11/8/2022 1:00:00 PM 10.57 51.026 0.12 6.73 2.87 11.16
11/8/2022 1:15:00 PM 10.59 51.062 0.128 6.73 2.83 11.12
11/8/2022 1:30:00 PM 10.59 51.062 0.142 6.72 2.84 11.07
11/8/2022 1:45:00 PM 10.57 51.026 0.137 6.72 2.86 11.03
11/8/2022 2:00:00 PM 10.61 51.098 0.128 6.72 2.86 11
11/8/2022 2:15:00 PM 10.64 51.152 0.101 6.72 2.84 11
11/8/2022 2:30:00 PM 10.67 51.206 0.106 6.71 2.85 10.96
11/8/2022 2:45:00 PM 10.68 51.224 0.146 6.71 2.82 10.93
11/8/2022 3:00:00 PM 10.65 51.17 0.185 6.69 2.86 10.91
11/8/2022 3:15:00 PM 10.61 51.098 0.17 6.68 2.9 10.9
11/8/2022 3:30:00 PM 10.56 51.008 0.169 6.67 2.9 10.88
11/8/2022 3:45:00 PM 10.51 50.918 0.163 6.67 2.87 10.88
11/8/2022 4:00:00 PM 10.46 50.828 0.155 6.66 2.92 10.86
11/8/2022 4:15:00 PM 10.41 50.738 0.161 6.67 2.86 10.85
11/8/2022 4:30:00 PM 10.37 50.666 0.17 6.66 2.89 10.84
11/8/2022 4:45:00 PM 10.32 50.576 0.19 6.65 2.92 10.82
11/8/2022 5:00:00 PM 10.26 50.468 0.196 6.64 2.92 10.8
11/8/2022 5:15:00 PM 10.22 50.396 0.134 6.64 2.86 10.78
11/8/2022 5:30:00 PM 10.16 50.288 0.127 6.63 2.84 10.79
11/8/2022 5:45:00 PM 10.1 50.18 0.14 6.62 2.88 10.79
11/8/2022 6:00:00 PM 10.04 50.072 0.14 6.62 2.86 10.8
11/8/2022 6:15:00 PM 9.98 49.964 0.135 6.61 2.89 10.81
11/8/2022 6:30:00 PM 9.93 49.874 0.154 6.62 2.92 10.83
11/8/2022 6:45:00 PM 9.87 49.766 0.154 6.62 2.93 10.84
11/8/2022 7:00:00 PM 9.8 49.64 0.147 6.61 2.9 10.85
11/8/2022 7:15:00 PM 9.74 49.532 0.137 6.62 2.91 10.87
11/8/2022 7:30:00 PM 9.68 49.424 0.135 6.61 2.91 10.88
11/8/2022 7:45:00 PM 9.62 49.316 0.141 6.61 2.98 10.91
11/8/2022 8:00:00 PM 9.56 49.208 0.142 6.6 2.91 10.92
11/8/2022 8:15:00 PM 9.5 49.1 0.134 6.61 2.87 10.93
11/8/2022 8:30:00 PM 9.44 48.992 0.131 6.6 2.89 10.96
11/8/2022 8:45:00 PM 9.38 48.884 0.131 6.6 2.91 10.97
11/8/2022 9:00:00 PM 9.33 48.794 0.118 6.6 2.91 10.99
11/8/2022 9:15:00 PM 9.27 48.686 0.117 6.59 2.86 11.01
11/8/2022 9:30:00 PM 9.22 48.596 0.123 6.58 2.92 11.03
11/8/2022 9:45:00 PM 9.17 48.506 0.119 6.58 2.94 11.04
11/8/2022 10:00:00 PM 9.11 48.398 0.12 6.57 2.89 11.05
11/8/2022 10:15:00 PM 9.06 48.308 0.117 6.57 2.9 11.07
11/8/2022 10:30:00 PM 9.01 48.218 0.121 6.56 2.88 11.09
11/8/2022 10:45:00 PM 8.95 48.11 0.113 6.56 2.88 11.1
11/8/2022 11:00:00 PM 8.91 48.038 0.119 6.56 2.89 11.12
11/8/2022 11:15:00 PM 8.86 47.948 0.12 6.55 2.89 11.13
11/8/2022 11:30:00 PM 8.81 47.858 0.124 6.55 2.9 11.15
11/8/2022 11:45:00 PM 8.77 47.786 0.117 6.55 2.88 11.16
11/9/2022 12:00:00 AM 8.72 47.696 0.116 6.54 2.91 11.18
11/9/2022 12:15:00 AM 8.67 47.606 0.114 6.54 2.86 11.19
11/9/2022 12:30:00 AM 8.63 47.534 0.126 6.54 2.88 11.2
11/9/2022 12:45:00 AM 8.59 47.462 0.14 6.54 2.88 11.22
11/9/2022 1:00:00 AM 8.55 47.39 0.133 6.53 2.87 11.23
11/9/2022 1:15:00 AM 8.51 47.318 0.125 6.54 2.89 11.24
11/9/2022 1:30:00 AM 8.47 47.246 0.123 6.53 2.85 11.25
11/9/2022 1:45:00 AM 8.42 47.156 0.114 6.53 2.89 11.27
11/9/2022 2:00:00 AM 8.38 47.084 0.12 6.53 2.88 11.28
11/9/2022 2:15:00 AM 8.34 47.012 0.123 6.53 2.89 11.3
11/9/2022 2:30:00 AM 8.3 46.94 0.111 6.53 2.89 11.31
11/9/2022 2:45:00 AM 8.26 46.868 0.124 6.54 2.88 11.32
11/9/2022 3:00:00 AM 8.22 46.796 0.119 6.54 2.9 11.33
11/9/2022 3:15:00 AM 8.19 46.742 0.127 6.53 2.91 11.33
11/9/2022 3:30:00 AM 8.15 46.67 0.125 6.53 2.96 11.35
11/9/2022 3:45:00 AM 8.12 46.616 0.121 6.54 2.92 11.36
11/9/2022 4:00:00 AM 8.08 46.544 0.124 6.54 2.99 11.37
11/9/2022 4:15:00 AM 8.05 46.49 0.118 6.54 2.96 11.39
11/9/2022 4:30:00 AM 8.01 46.418 0.115 6.53 2.92 11.39
11/9/2022 4:45:00 AM 7.98 46.364 0.116 6.54 2.92 11.41
11/9/2022 5:00:00 AM 7.94 46.292 0.118 6.54 2.9 11.42
11/9/2022 5:15:00 AM 7.91 46.238 0.106 6.54 2.92 11.43
11/9/2022 5:30:00 AM 7.87 46.166 0.108 6.54 2.94 11.43
11/9/2022 5:45:00 AM 7.84 46.112 0.108 6.54 2.95 11.44
11/9/2022 6:00:00 AM 7.8 46.04 0.106 6.55 2.94 11.46
11/9/2022 6:15:00 AM 7.77 45.986 0.109 6.55 2.93 11.46
11/9/2022 6:30:00 AM 7.74 45.932 0.108 6.55 2.95 11.48
11/9/2022 6:45:00 AM 7.7 45.86 0.091 6.55 2.94 11.49
11/9/2022 7:00:00 AM 7.67 45.806 0.103 6.57 2.92 11.52
11/9/2022 7:15:00 AM 7.64 45.752 0.097 6.58 2.94 11.55
11/9/2022 7:30:00 AM 7.62 45.716 0.096 6.59 2.91 11.59
11/9/2022 7:45:00 AM 7.6 45.68 0.09 6.59 2.91 11.62
11/9/2022 8:00:00 AM 7.57 45.626 0.094 6.6 2.88 11.66
11/9/2022 8:15:00 AM 7.56 45.608 0.095 6.6 2.92 11.68
11/9/2022 8:30:00 AM 7.54 45.572 0.089 6.61 2.92 11.71
11/9/2022 8:45:00 AM 7.53 45.554 0.085 6.62 2.91 11.73
11/9/2022 9:00:00 AM 7.54 45.572 0.085 6.62 2.9 11.77
11/9/2022 9:15:00 AM 7.57 45.626 0.096 6.64 2.91 11.84
11/9/2022 9:30:00 AM 7.63 45.734 0.094 6.65 2.86 11.88
11/9/2022 9:45:00 AM 7.7 45.86 0.096 6.66 2.89 11.9
11/9/2022 10:00:00 AM 7.79 46.022 0.097 6.68 2.87 11.91
11/9/2022 10:15:00 AM 7.88 46.184 0.09 6.69 2.93 11.91
11/9/2022 10:30:00 AM 7.99 46.382 0.088 6.7 2.95 11.91
11/9/2022 10:45:00 AM 8.1 46.58 0.088 6.71 2.88 11.89
11/9/2022 11:00:00 AM 8.24 46.832 0.089 6.72 2.88 11.88
11/9/2022 11:15:00 AM 8.39 47.102 0.092 6.73 2.89 11.86
11/9/2022 11:30:00 AM 8.53 47.354 0.099 6.74 2.85 11.84
11/9/2022 11:45:00 AM 8.64 47.552 0.109 6.75 2.85 11.81
11/9/2022 12:00:00 PM 8.78 47.804 0.079 6.76 2.88 11.79
11/9/2022 12:15:00 PM 8.91 48.038 0.087 6.77 2.85 11.76
11/9/2022 12:30:00 PM 9.01 48.218 0.094 6.76 2.81 11.71
11/9/2022 12:45:00 PM 9.08 48.344 0.086 6.76 2.85 11.66
11/9/2022 1:00:00 PM 9.13 48.434 0.096 6.76 2.85 11.59
11/9/2022 1:15:00 PM 9.18 48.524 0.104 6.75 2.84 11.53
11/9/2022 1:30:00 PM 9.22 48.596 0.107 6.75 2.87 11.5
11/9/2022 1:45:00 PM 9.26 48.668 0.106 6.75 2.81 11.48
11/9/2022 2:00:00 PM 9.3 48.74 0.112 6.74 2.84 11.43
11/9/2022 2:15:00 PM 9.36 48.848 0.112 6.75 2.81 11.41
11/9/2022 2:30:00 PM 9.42 48.956 0.117 6.75 2.88 11.38
11/9/2022 2:45:00 PM 9.44 48.992 0.115 6.74 2.85 11.36
11/9/2022 3:00:00 PM 9.46 49.028 0.117 6.74 2.85 11.34
11/9/2022 3:15:00 PM 9.45 49.01 0.118 6.74 2.82 11.34
11/9/2022 3:30:00 PM 9.42 48.956 0.123 6.74 2.82 11.32
11/9/2022 3:45:00 PM 9.4 48.92 0.119 6.74 2.85 11.32
11/9/2022 4:00:00 PM 9.37 48.866 0.115 6.72 2.83 11.26
11/9/2022 4:15:00 PM 9.35 48.83 0.113 6.71 2.87 11.2
11/9/2022 4:30:00 PM 9.32 48.776 0.11 6.7 2.89 11.17
11/9/2022 4:45:00 PM 9.28 48.704 0.111 6.69 2.92 11.13
11/9/2022 5:00:00 PM 9.23 48.614 0.11 6.68 2.94 11.11
11/9/2022 5:15:00 PM 9.19 48.542 0.108 6.68 2.91 11.09
11/9/2022 5:30:00 PM 9.14 48.452 0.107 6.67 2.89 11.07
11/9/2022 5:45:00 PM 9.1 48.38 0.103 6.67 2.91 11.06
11/9/2022 6:00:00 PM 9.05 48.29 0.104 6.66 2.82 11.07
11/9/2022 6:15:00 PM 9 48.2 0.098 6.66 2.88 11.07
11/9/2022 6:30:00 PM 8.96 48.128 0.102 6.66 2.87 11.08
11/9/2022 6:45:00 PM 8.91 48.038 0.098 6.66 2.87 11.09
11/9/2022 7:00:00 PM 8.87 47.966 0.1 6.65 2.88 11.1
11/9/2022 7:15:00 PM 8.82 47.876 0.1 6.65 2.89 11.11
11/9/2022 7:30:00 PM 8.77 47.786 0.097 6.65 2.88 11.13
11/9/2022 7:45:00 PM 8.72 47.696 0.095 6.65 2.88 11.13
11/9/2022 8:00:00 PM 8.67 47.606 0.098 6.65 2.91 11.15
11/9/2022 8:15:00 PM 8.62 47.516 0.125 6.64 3.56 11.17
11/9/2022 8:30:00 PM 8.57 47.426 0.145 6.64 3.57 11.17
11/9/2022 8:45:00 PM 8.53 47.354 0.153 6.64 3.55 11.19
11/9/2022 9:00:00 PM 8.48 47.264 0.154 6.64 3.5 11.19
11/9/2022 9:15:00 PM 8.44 47.192 0.156 6.63 3.53 11.21
11/9/2022 9:30:00 PM 8.39 47.102 0.176 6.63 3.64 11.23
11/9/2022 9:45:00 PM 8.34 47.012 0.193 6.63 3.57 11.24
11/9/2022 10:00:00 PM 8.3 46.94 0.098 6.64 3.56 11.26
11/9/2022 10:15:00 PM 8.26 46.868 0.105 6.63 3.59 11.27
11/9/2022 10:30:00 PM 8.21 46.778 0.11 6.63 3.57 11.29
11/9/2022 10:45:00 PM 8.16 46.688 0.111 6.63 3.57 11.29
11/9/2022 11:00:00 PM 8.12 46.616 0.115 6.63 3.52 11.3
11/9/2022 11:15:00 PM 8.08 46.544 0.115 6.62 3.61 11.32
11/9/2022 11:30:00 PM 8.04 46.472 0.138 6.62 3.63 11.33
11/9/2022 11:45:00 PM 8 46.4 0.136 6.62 3.58 11.34
11/10/2022 12:00:00 AM 7.96 46.328 0.137 6.62 3.6 11.36
11/10/2022 12:15:00 AM 7.92 46.256 0.136 6.61 3.63 11.37
11/10/2022 12:30:00 AM 7.88 46.184 0.135 6.61 3.63 11.38
11/10/2022 12:45:00 AM 7.84 46.112 0.139 6.61 3.57 11.39
11/10/2022 1:00:00 AM 7.81 46.058 0.141 6.6 3.57 11.4
11/10/2022 1:15:00 AM 7.78 46.004 0.138 6.6 3.57 11.41
11/10/2022 1:30:00 AM 7.74 45.932 0.138 6.6 3.64 11.41
11/10/2022 1:45:00 AM 7.71 45.878 0.134 6.59 3.57 11.43
11/10/2022 2:00:00 AM 7.68 45.824 0.134 6.59 3.62 11.44
11/10/2022 2:15:00 AM 7.65 45.77 0.131 6.59 3.67 11.45
11/10/2022 2:30:00 AM 7.62 45.716 0.128 6.59 3.61 11.45
11/10/2022 2:45:00 AM 7.59 45.662 0.125 6.59 3.63 11.46
11/10/2022 3:00:00 AM 7.57 45.626 0.123 6.58 3.63 11.47
11/10/2022 3:15:00 AM 7.54 45.572 0.11 6.58 3.62 11.47
11/10/2022 3:30:00 AM 7.51 45.518 0.107 6.58 3.62 11.49
11/10/2022 3:45:00 AM 7.49 45.482 0.11 6.58 3.66 11.49
11/10/2022 4:00:00 AM 7.46 45.428 0.105 6.58 3.61 11.5
11/10/2022 4:15:00 AM 7.44 45.392 0.1 6.58 3.59 11.5
11/10/2022 4:30:00 AM 7.42 45.356 0.102 6.58 3.65 11.51
11/10/2022 4:45:00 AM 7.4 45.32 0.1 6.58 3.62 11.53
11/10/2022 5:00:00 AM 7.38 45.284 0.097 6.58 3.59 11.53
11/10/2022 5:15:00 AM 7.35 45.23 0.094 6.58 3.57 11.53
11/10/2022 5:30:00 AM 7.33 45.194 0.095 6.58 3.58 11.54
11/10/2022 5:45:00 AM 7.32 45.176 0.09 6.59 3.63 11.55
11/10/2022 6:00:00 AM 7.3 45.14 0.085 6.59 3.65 11.56
11/10/2022 6:15:00 AM 7.28 45.104 0.082 6.58 3.62 11.57
11/10/2022 6:30:00 AM 7.26 45.068 0.087 6.58 3.63 11.56
11/10/2022 6:45:00 AM 7.25 45.05 0.091 6.59 3.58 11.57
11/10/2022 7:00:00 AM 7.23 45.014 0.089 6.59 3.61 11.6
11/10/2022 7:15:00 AM 7.22 44.996 0.09 6.6 3.57 11.63
11/10/2022 7:30:00 AM 7.2 44.96 0.089 6.6 3.6 11.66
11/10/2022 7:45:00 AM 7.2 44.96 0.088 6.61 3.6 11.69
11/10/2022 8:00:00 AM 7.2 44.96 0.088 6.61 3.55 11.71
11/10/2022 8:15:00 AM 7.19 44.942 0.083 6.62 3.6 11.75
11/10/2022 8:30:00 AM 7.19 44.942 0.081 6.63 3.56 11.77